Time,TemperatureF,DewpointF,PressureIn,WindDirection,WindDirectionDegrees,WindSpeedMPH,WindSpeedGustMPH,Humidity,HourlyPrecipIn,Conditions,Clouds,dailyrainin,SoftwareType,DateUTC
2013-06-13 00:00:00,81.1,69.6,28.73,West,277,5.8,5.8,68,0.00,,---,0.00,VWS V14.00,2013-06-13 05:00:00,
2013-06-13 00:01:00,81.1,69.6,28.73,WNW,286,5.8,10.1,68,0.00,,---,0.00,VWS V14.00,2013-06-13 05:01:00,
2013-06-13 00:02:00,81.1,69.6,28.73,SSW,205,5.8,10.5,68,0.00,,---,0.00,VWS V14.00,2013-06-13 05:02:00,
2013-06-13 00:03:00,81.1,69.6,28.73,West,263,4.5,5.8,68,0.00,,---,0.00,VWS V14.00,2013-06-13 05:03:00,
2013-06-13 00:04:00,81.1,69.6,28.73,WNW,290,5.8,5.8,68,0.00,,---,0.00,VWS V14.00,2013-06-13 05:04:00,
2013-06-13 00:05:00,81.1,69.6,28.73,WSW,256,3.6,5.8,68,0.00,,---,0.00,VWS V14.00,2013-06-13 05:05:00,
2013-06-13 00:06:00,81.1,69.6,28.73,West,268,7.6,7.6,68,0.00,,---,0.00,VWS V14.00,2013-06-13 05:06:00,
2013-06-13 00:07:00,81.1,69.6,28.73,SW,234,4.9,4.9,68,0.00,,---,0.00,VWS V14.00,2013-06-13 05:07:00,
2013-06-13 00:08:00,81.3,69.8,28.73,WSW,249,5.8,5.8,68,0.00,,---,0.00,VWS V14.00,2013-06-13 05:08:00,
2013-06-13 00:09:00,81.3,69.8,28.73,WSW,253,3.1,3.6,68,0.00,,---,0.00,VWS V14.00,2013-06-13 05:09:00,
2013-06-13 00:10:00,81.1,69.6,28.73,SW,231,4.9,7.6,68,0.00,,---,0.00,VWS V14.00,2013-06-13 05:10:00,
2013-06-13 00:11:00,81.1,69.6,28.73,SW,223,8.3,8.3,68,0.00,,---,0.00,VWS V14.00,2013-06-13 05:11:00,
2013-06-13 00:12:00,81.1,69.6,28.73,SW,222,4.0,10.5,68,0.00,,---,0.00,VWS V14.00,2013-06-13 05:12:00,
2013-06-13 00:13:00,81.1,69.6,28.73,SSW,202,3.6,10.5,68,0.00,,---,0.00,VWS V14.00,2013-06-13 05:13:00,
2013-06-13 00:14:00,81.1,69.6,28.73,WNW,300,5.4,8.7,68,0.00,,---,0.00,VWS V14.00,2013-06-13 05:14:00,
2013-06-13 00:15:00,81.1,69.6,28.73,WSW,254,4.0,5.8,68,0.00,,---,0.00,VWS V14.00,2013-06-13 05:15:00,
2013-06-13 00:16:00,81.1,69.6,28.73,West,278,11.0,11.0,68,0.00,,---,0.00,VWS V14.00,2013-06-13 05:16:00,
2013-06-13 00:17:00,81.3,69.8,28.73,SSW,209,3.1,3.6,68,0.00,,---,0.00,VWS V14.00,2013-06-13 05:17:00,
2013-06-13 00:18:00,81.3,69.8,28.73,SW,234,9.6,9.6,68,0.00,,---,0.00,VWS V14.00,2013-06-13 05:18:00,
2013-06-13 00:19:00,81.3,69.8,28.73,South,185,16.8,16.8,68,0.00,,---,0.00,VWS V14.00,2013-06-13 05:19:00,
2013-06-13 00:20:00,81.1,69.6,28.73,SW,224,4.9,16.8,68,0.00,,---,0.00,VWS V14.00,2013-06-13 05:20:00,
2013-06-13 00:21:00,81.1,69.6,28.70,WSW,238,4.0,4.9,68,0.00,,---,0.00,VWS V14.00,2013-06-13 05:21:00,
2013-06-13 00:22:00,81.1,69.6,28.70,SSW,197,5.4,9.6,68,0.00,,---,0.00,VWS V14.00,2013-06-13 05:22:00,
2013-06-13 00:23:00,81.1,69.6,28.70,SW,220,4.0,9.6,68,0.00,,---,0.00,VWS V14.00,2013-06-13 05:23:00,
2013-06-13 00:24:00,81.1,69.6,28.70,WSW,247,3.1,8.1,68,0.00,,---,0.00,VWS V14.00,2013-06-13 05:24:00,
2013-06-13 00:25:00,81.1,69.6,28.70,West,270,3.1,8.1,68,0.00,,---,0.00,VWS V14.00,2013-06-13 05:25:00,
2013-06-13 00:26:00,81.1,69.6,28.70,WSW,241,5.4,12.8,68,0.00,,---,0.00,VWS V14.00,2013-06-13 05:26:00,
2013-06-13 00:27:00,81.1,69.6,28.70,WSW,242,5.8,6.3,68,0.00,,---,0.00,VWS V14.00,2013-06-13 05:27:00,
2013-06-13 00:28:00,81.1,69.6,28.70,South,191,5.4,6.3,68,0.00,,---,0.00,VWS V14.00,2013-06-13 05:28:00,
2013-06-13 00:29:00,81.0,69.4,28.70,SW,230,6.3,8.1,68,0.00,,---,0.00,VWS V14.00,2013-06-13 05:29:00,
2013-06-13 00:30:00,81.0,69.4,28.70,WSW,240,5.4,8.1,68,0.00,,---,0.00,VWS V14.00,2013-06-13 05:30:00,
2013-06-13 00:31:00,81.0,69.4,28.70,SSW,210,5.8,12.3,68,0.00,,---,0.00,VWS V14.00,2013-06-13 05:31:00,
2013-06-13 00:32:00,81.0,69.4,28.70,WNW,298,11.0,11.0,68,0.00,,---,0.00,VWS V14.00,2013-06-13 05:32:00,
2013-06-13 00:33:00,81.0,69.4,28.70,West,260,7.6,7.6,68,0.00,,---,0.00,VWS V14.00,2013-06-13 05:33:00,
2013-06-13 00:34:00,81.0,69.4,28.70,West,272,5.4,6.3,68,0.00,,---,0.00,VWS V14.00,2013-06-13 05:34:00,
2013-06-13 00:35:00,81.0,69.4,28.70,WSW,241,6.3,6.3,68,0.00,,---,0.00,VWS V14.00,2013-06-13 05:35:00,
2013-06-13 00:36:00,81.0,69.4,28.70,SSW,208,4.0,6.3,68,0.00,,---,0.00,VWS V14.00,2013-06-13 05:36:00,
2013-06-13 00:37:00,81.0,69.4,28.70,WSW,243,3.6,10.1,68,0.00,,---,0.00,VWS V14.00,2013-06-13 05:37:00,
2013-06-13 00:38:00,81.0,69.4,28.70,SW,216,5.4,8.3,68,0.00,,---,0.00,VWS V14.00,2013-06-13 05:38:00,
2013-06-13 00:39:00,81.0,69.4,28.70,West,281,7.6,13.2,68,0.00,,---,0.00,VWS V14.00,2013-06-13 05:39:00,
2013-06-13 00:40:00,81.0,69.4,28.70,West,265,5.4,5.4,68,0.00,,---,0.00,VWS V14.00,2013-06-13 05:40:00,
2013-06-13 00:41:00,81.0,69.4,28.70,West,271,7.6,7.6,68,0.00,,---,0.00,VWS V14.00,2013-06-13 05:41:00,
2013-06-13 00:42:00,81.0,69.4,28.70,SSW,200,8.7,8.7,68,0.00,,---,0.00,VWS V14.00,2013-06-13 05:42:00,
2013-06-13 00:43:00,81.0,69.4,28.70,SSW,204,6.3,13.2,68,0.00,,---,0.00,VWS V14.00,2013-06-13 05:43:00,
2013-06-13 00:44:00,81.0,69.4,28.70,SSW,207,6.3,11.9,68,0.00,,---,0.00,VWS V14.00,2013-06-13 05:44:00,
2013-06-13 00:45:00,81.0,69.4,28.70,SW,214,8.1,8.3,68,0.00,,---,0.00,VWS V14.00,2013-06-13 05:45:00,
2013-06-13 00:46:00,81.0,69.4,28.70,WSW,254,14.5,14.5,68,0.00,,---,0.00,VWS V14.00,2013-06-13 05:46:00,
2013-06-13 00:47:00,81.1,69.6,28.70,WSW,257,3.6,5.4,68,0.00,,---,0.00,VWS V14.00,2013-06-13 05:47:00,
2013-06-13 00:48:00,81.1,69.6,28.70,WSW,237,17.0,17.0,68,0.00,,---,0.00,VWS V14.00,2013-06-13 05:48:00,
2013-06-13 00:49:00,81.1,69.6,28.70,WSW,256,7.6,17.0,68,0.00,,---,0.00,VWS V14.00,2013-06-13 05:49:00,
2013-06-13 00:50:00,81.1,69.6,28.70,SSW,204,12.3,15.4,68,0.00,,---,0.00,VWS V14.00,2013-06-13 05:50:00,
2013-06-13 00:51:00,81.1,69.6,28.70,West,267,8.3,12.3,68,0.00,,---,0.00,VWS V14.00,2013-06-13 05:51:00,
2013-06-13 00:52:00,81.1,69.6,28.70,West,265,10.5,10.5,68,0.00,,---,0.00,VWS V14.00,2013-06-13 05:52:00,
2013-06-13 00:53:00,81.1,69.6,28.70,West,269,8.7,11.0,68,0.00,,---,0.00,VWS V14.00,2013-06-13 05:53:00,
2013-06-13 00:54:00,81.1,69.6,28.70,SSW,206,6.3,6.3,68,0.00,,---,0.00,VWS V14.00,2013-06-13 05:54:00,
2013-06-13 00:55:00,81.1,69.6,28.70,WSW,252,5.4,6.3,68,0.00,,---,0.00,VWS V14.00,2013-06-13 05:55:00,
2013-06-13 00:56:00,81.1,69.6,28.70,WSW,238,14.5,14.5,68,0.00,,---,0.00,VWS V14.00,2013-06-13 05:56:00,
2013-06-13 00:57:00,81.1,69.6,28.70,WSW,251,12.3,14.5,68,0.00,,---,0.00,VWS V14.00,2013-06-13 05:57:00,
2013-06-13 00:58:00,81.1,69.6,28.70,West,262,3.6,12.3,68,0.00,,---,0.00,VWS V14.00,2013-06-13 05:58:00,
2013-06-13 00:59:00,81.1,69.6,28.70,South,170,3.1,5.8,68,0.00,,---,0.00,VWS V14.00,2013-06-13 05:59:00,
2013-06-13 01:00:00,81.1,69.6,28.70,SW,221,4.9,12.3,68,0.00,,---,0.00,VWS V14.00,2013-06-13 06:00:00,
2013-06-13 01:01:00,81.1,69.6,28.70,South,182,3.6,5.8,68,0.00,,---,0.00,VWS V14.00,2013-06-13 06:01:00,
2013-06-13 01:02:00,81.1,69.6,28.70,West,272,8.3,8.3,68,0.00,,---,0.00,VWS V14.00,2013-06-13 06:02:00,
2013-06-13 01:03:00,81.1,69.6,28.70,SW,222,4.0,8.1,68,0.00,,---,0.00,VWS V14.00,2013-06-13 06:03:00,
2013-06-13 01:04:00,81.1,69.6,28.70,West,274,6.3,6.3,68,0.00,,---,0.00,VWS V14.00,2013-06-13 06:04:00,
2013-06-13 01:05:00,81.1,69.6,28.70,West,274,6.3,10.5,68,0.00,,---,0.00,VWS V14.00,2013-06-13 06:05:00,
2013-06-13 01:06:00,81.1,69.6,28.70,South,179,3.6,7.2,68,0.00,,---,0.00,VWS V14.00,2013-06-13 06:06:00,
2013-06-13 01:07:00,81.1,69.6,28.70,WSW,257,3.6,13.6,68,0.00,,---,0.00,VWS V14.00,2013-06-13 06:07:00,
2013-06-13 01:08:00,81.1,69.6,28.70,SW,220,8.1,8.1,68,0.00,,---,0.00,VWS V14.00,2013-06-13 06:08:00,
2013-06-13 01:09:00,81.0,69.4,28.70,WSW,248,6.3,8.1,68,0.00,,---,0.00,VWS V14.00,2013-06-13 06:09:00,
2013-06-13 01:10:00,81.0,69.4,28.70,West,262,5.4,8.1,68,0.00,,---,0.00,VWS V14.00,2013-06-13 06:10:00,
2013-06-13 01:11:00,81.1,69.6,28.70,SW,214,8.3,8.3,68,0.00,,---,0.00,VWS V14.00,2013-06-13 06:11:00,
2013-06-13 01:12:00,81.1,69.6,28.70,SW,227,8.1,8.3,68,0.00,,---,0.00,VWS V14.00,2013-06-13 06:12:00,
2013-06-13 01:13:00,81.1,69.6,28.70,WSW,257,3.6,9.6,68,0.00,,---,0.00,VWS V14.00,2013-06-13 06:13:00,
2013-06-13 01:14:00,81.1,69.6,28.70,SSW,201,4.5,9.6,68,0.00,,---,0.00,VWS V14.00,2013-06-13 06:14:00,
2013-06-13 01:15:00,81.1,69.6,28.70,West,266,8.7,10.1,68,0.00,,---,0.00,VWS V14.00,2013-06-13 06:15:00,
2013-06-13 01:16:00,81.1,69.6,28.70,SW,218,5.4,5.4,68,0.00,,---,0.00,VWS V14.00,2013-06-13 06:16:00,
2013-06-13 01:17:00,81.1,69.6,28.70,SW,232,5.8,5.8,68,0.00,,---,0.00,VWS V14.00,2013-06-13 06:17:00,
2013-06-13 01:18:00,81.0,69.4,28.70,North,7,8.7,10.1,68,0.00,,---,0.00,VWS V14.00,2013-06-13 06:18:00,
2013-06-13 01:19:00,81.0,69.4,28.70,SSW,192,7.2,7.2,68,0.00,,---,0.00,VWS V14.00,2013-06-13 06:19:00,
2013-06-13 01:20:00,81.0,69.4,28.70,WSW,258,4.0,5.8,68,0.00,,---,0.00,VWS V14.00,2013-06-13 06:20:00,
2013-06-13 01:21:00,81.0,69.4,28.70,SSW,194,6.3,6.3,68,0.00,,---,0.00,VWS V14.00,2013-06-13 06:21:00,
2013-06-13 01:22:00,81.0,69.4,28.70,SW,216,5.4,6.3,68,0.00,,---,0.00,VWS V14.00,2013-06-13 06:22:00,
2013-06-13 01:23:00,81.0,69.4,28.70,NW,306,4.0,7.6,68,0.00,,---,0.00,VWS V14.00,2013-06-13 06:23:00,
2013-06-13 01:24:00,81.1,69.6,28.70,SW,225,8.3,9.6,68,0.00,,---,0.00,VWS V14.00,2013-06-13 06:24:00,
2013-06-13 01:25:00,81.1,69.6,28.70,West,266,3.1,9.6,68,0.00,,---,0.00,VWS V14.00,2013-06-13 06:25:00,
2013-06-13 01:26:00,81.1,69.6,28.70,SSW,198,8.1,10.1,68,0.00,,---,0.00,VWS V14.00,2013-06-13 06:26:00,
2013-06-13 01:27:00,81.1,69.6,28.70,West,278,16.3,16.3,68,0.00,,---,0.00,VWS V14.00,2013-06-13 06:27:00,
2013-06-13 01:28:00,81.1,69.6,28.70,West,266,8.3,16.3,68,0.00,,---,0.00,VWS V14.00,2013-06-13 06:28:00,
2013-06-13 01:29:00,81.1,69.6,28.70,West,279,5.4,5.4,68,0.00,,---,0.00,VWS V14.00,2013-06-13 06:29:00,
2013-06-13 01:30:00,81.1,69.6,28.70,SSW,211,5.4,6.3,68,0.00,,---,0.00,VWS V14.00,2013-06-13 06:30:00,
2013-06-13 01:31:00,81.1,69.6,28.70,West,266,4.0,8.3,68,0.00,,---,0.00,VWS V14.00,2013-06-13 06:31:00,
2013-06-13 01:32:00,81.0,69.4,28.70,SSW,209,8.7,8.7,68,0.00,,---,0.00,VWS V14.00,2013-06-13 06:32:00,
2013-06-13 01:33:00,81.0,69.4,28.70,WSW,254,8.3,8.7,68,0.00,,---,0.00,VWS V14.00,2013-06-13 06:33:00,
2013-06-13 01:34:00,81.0,69.4,28.70,SW,236,5.8,8.1,68,0.00,,---,0.00,VWS V14.00,2013-06-13 06:34:00,
2013-06-13 01:35:00,81.0,69.4,28.70,WSW,251,5.4,8.1,68,0.00,,---,0.00,VWS V14.00,2013-06-13 06:35:00,
2013-06-13 01:36:00,81.0,69.4,28.70,WNW,299,5.8,5.8,68,0.00,,---,0.00,VWS V14.00,2013-06-13 06:36:00,
2013-06-13 01:37:00,81.0,69.4,28.70,SW,233,5.4,8.1,68,0.00,,---,0.00,VWS V14.00,2013-06-13 06:37:00,
2013-06-13 01:38:00,81.0,69.4,28.70,WSW,246,13.6,13.6,68,0.00,,---,0.00,VWS V14.00,2013-06-13 06:38:00,
2013-06-13 01:39:00,81.0,69.4,28.70,WSW,251,4.9,5.8,68,0.00,,---,0.00,VWS V14.00,2013-06-13 06:39:00,
2013-06-13 01:40:00,81.0,69.4,28.70,West,275,4.0,4.0,68,0.00,,---,0.00,VWS V14.00,2013-06-13 06:40:00,
2013-06-13 01:41:00,80.8,69.2,28.70,WNW,293,8.3,8.3,68,0.00,,---,0.00,VWS V14.00,2013-06-13 06:41:00,
2013-06-13 01:42:00,80.8,69.2,28.70,West,264,5.4,13.2,68,0.00,,---,0.00,VWS V14.00,2013-06-13 06:42:00,
2013-06-13 01:43:00,80.8,69.2,28.70,SW,235,8.7,13.2,68,0.00,,---,0.00,VWS V14.00,2013-06-13 06:43:00,
2013-06-13 01:44:00,81.0,69.4,28.70,WNW,295,11.0,11.9,68,0.00,,---,0.00,VWS V14.00,2013-06-13 06:44:00,
2013-06-13 01:45:00,81.0,69.4,28.70,WSW,239,5.8,8.1,68,0.00,,---,0.00,VWS V14.00,2013-06-13 06:45:00,
2013-06-13 01:46:00,81.0,69.4,28.70,West,272,5.4,8.1,68,0.00,,---,0.00,VWS V14.00,2013-06-13 06:46:00,
2013-06-13 01:47:00,81.0,69.4,28.70,NW,308,5.8,8.7,68,0.00,,---,0.00,VWS V14.00,2013-06-13 06:47:00,
2013-06-13 01:48:00,81.0,69.4,28.70,West,270,7.6,8.7,68,0.00,,---,0.00,VWS V14.00,2013-06-13 06:48:00,
2013-06-13 01:49:00,81.0,69.4,28.70,West,274,8.1,11.9,68,0.00,,---,0.00,VWS V14.00,2013-06-13 06:49:00,
2013-06-13 01:50:00,81.0,69.4,28.70,WSW,250,4.9,11.9,68,0.00,,---,0.00,VWS V14.00,2013-06-13 06:50:00,
2013-06-13 01:51:00,81.0,69.4,28.67,West,278,11.0,11.0,68,0.00,,---,0.00,VWS V14.00,2013-06-13 06:51:00,
2013-06-13 01:52:00,81.0,69.4,28.67,WNW,298,8.3,17.4,68,0.00,,---,0.00,VWS V14.00,2013-06-13 06:52:00,
2013-06-13 01:53:00,81.0,69.4,28.67,SW,233,5.8,17.4,68,0.00,,---,0.00,VWS V14.00,2013-06-13 06:53:00,
2013-06-13 01:54:00,81.0,69.4,28.67,WSW,248,6.3,8.3,68,0.00,,---,0.00,VWS V14.00,2013-06-13 06:54:00,
2013-06-13 01:55:00,81.0,69.4,28.67,WSW,242,8.3,8.3,68,0.00,,---,0.00,VWS V14.00,2013-06-13 06:55:00,
2013-06-13 01:56:00,81.0,69.4,28.67,SW,214,6.3,8.3,68,0.00,,---,0.00,VWS V14.00,2013-06-13 06:56:00,
2013-06-13 01:57:00,81.0,69.4,28.67,West,269,8.7,10.5,68,0.00,,---,0.00,VWS V14.00,2013-06-13 06:57:00,
2013-06-13 01:58:00,81.0,69.4,28.67,SW,236,8.1,8.7,68,0.00,,---,0.00,VWS V14.00,2013-06-13 06:58:00,
2013-06-13 01:59:00,81.0,69.4,28.67,WSW,239,8.7,8.7,68,0.00,,---,0.00,VWS V14.00,2013-06-13 06:59:00,
2013-06-13 02:00:00,81.0,69.4,28.67,SW,227,6.3,6.3,68,0.00,,---,0.00,VWS V14.00,2013-06-13 07:00:00,
2013-06-13 02:01:00,81.0,69.4,28.67,SSW,212,5.4,8.7,68,0.00,,---,0.00,VWS V14.00,2013-06-13 07:01:00,
2013-06-13 02:02:00,80.8,69.2,28.67,West,263,5.4,8.1,68,0.00,,---,0.00,VWS V14.00,2013-06-13 07:02:00,
2013-06-13 02:03:00,80.8,69.2,28.67,West,265,3.6,8.1,68,0.00,,---,0.00,VWS V14.00,2013-06-13 07:03:00,
2013-06-13 02:04:00,80.8,69.2,28.67,SW,230,10.5,10.5,68,0.00,,---,0.00,VWS V14.00,2013-06-13 07:04:00,
2013-06-13 02:05:00,80.8,69.2,28.67,WSW,237,5.4,10.5,68,0.00,,---,0.00,VWS V14.00,2013-06-13 07:05:00,
2013-06-13 02:06:00,80.8,69.2,28.67,SSW,204,3.6,5.4,68,0.00,,---,0.00,VWS V14.00,2013-06-13 07:06:00,
2013-06-13 02:07:00,80.8,69.2,28.67,WSW,240,3.6,5.8,68,0.00,,---,0.00,VWS V14.00,2013-06-13 07:07:00,
2013-06-13 02:08:00,80.6,69.1,28.67,West,277,8.7,8.7,68,0.00,,---,0.00,VWS V14.00,2013-06-13 07:08:00,
2013-06-13 02:09:00,80.6,69.1,28.67,WSW,247,13.2,15.0,68,0.00,,---,0.00,VWS V14.00,2013-06-13 07:09:00,
2013-06-13 02:10:00,80.6,69.1,28.67,WSW,245,4.0,11.0,68,0.00,,---,0.00,VWS V14.00,2013-06-13 07:10:00,
2013-06-13 02:11:00,80.6,69.1,28.67,SW,234,5.4,5.4,68,0.00,,---,0.00,VWS V14.00,2013-06-13 07:11:00,
2013-06-13 02:12:00,80.6,69.1,28.67,West,265,8.1,10.1,68,0.00,,---,0.00,VWS V14.00,2013-06-13 07:12:00,
2013-06-13 02:13:00,80.6,69.1,28.67,SW,216,4.9,8.7,68,0.00,,---,0.00,VWS V14.00,2013-06-13 07:13:00,
2013-06-13 02:14:00,80.6,69.1,28.67,WNW,286,4.0,8.7,68,0.00,,---,0.00,VWS V14.00,2013-06-13 07:14:00,
2013-06-13 02:15:00,80.6,69.1,28.67,WSW,258,8.1,12.3,68,0.00,,---,0.00,VWS V14.00,2013-06-13 07:15:00,
2013-06-13 02:16:00,80.6,69.1,28.67,NW,314,5.8,8.7,68,0.00,,---,0.00,VWS V14.00,2013-06-13 07:16:00,
2013-06-13 02:17:00,80.6,69.1,28.67,WSW,241,7.6,8.7,68,0.00,,---,0.00,VWS V14.00,2013-06-13 07:17:00,
2013-06-13 02:18:00,80.6,69.1,28.67,SW,234,5.8,9.6,68,0.00,,---,0.00,VWS V14.00,2013-06-13 07:18:00,
2013-06-13 02:19:00,80.6,69.1,28.67,WNW,287,2.7,9.6,68,0.00,,---,0.00,VWS V14.00,2013-06-13 07:19:00,
2013-06-13 02:20:00,80.6,69.1,28.67,WNW,290,4.0,4.0,68,0.00,,---,0.00,VWS V14.00,2013-06-13 07:20:00,
2013-06-13 02:21:00,80.4,68.9,28.67,WSW,253,4.5,8.7,68,0.00,,---,0.00,VWS V14.00,2013-06-13 07:21:00,
2013-06-13 02:22:00,80.4,68.9,28.67,SSW,199,5.8,5.8,68,0.00,,---,0.00,VWS V14.00,2013-06-13 07:22:00,
2013-06-13 02:23:00,80.4,68.9,28.67,SW,227,5.8,5.8,68,0.00,,---,0.00,VWS V14.00,2013-06-13 07:23:00,
2013-06-13 02:24:00,80.4,68.9,28.67,NW,310,7.6,7.6,68,0.00,,---,0.00,VWS V14.00,2013-06-13 07:24:00,
2013-06-13 02:25:00,80.4,68.9,28.67,West,261,8.3,8.7,68,0.00,,---,0.00,VWS V14.00,2013-06-13 07:25:00,
2013-06-13 02:26:00,80.4,68.9,28.67,WSW,255,8.7,8.7,68,0.00,,---,0.00,VWS V14.00,2013-06-13 07:26:00,
2013-06-13 02:27:00,80.4,68.9,28.67,WSW,237,6.3,6.3,68,0.00,,---,0.00,VWS V14.00,2013-06-13 07:27:00,
2013-06-13 02:28:00,80.4,68.9,28.67,WSW,256,4.0,7.6,68,0.00,,---,0.00,VWS V14.00,2013-06-13 07:28:00,
2013-06-13 02:29:00,80.4,68.9,28.67,SW,214,4.0,7.6,68,0.00,,---,0.00,VWS V14.00,2013-06-13 07:29:00,
2013-06-13 02:30:00,80.4,68.9,28.67,WSW,253,7.6,10.1,68,0.00,,---,0.00,VWS V14.00,2013-06-13 07:30:00,
2013-06-13 02:31:00,80.4,68.9,28.67,WSW,252,8.7,13.2,68,0.00,,---,0.00,VWS V14.00,2013-06-13 07:31:00,
2013-06-13 02:32:00,80.4,68.9,28.67,West,268,8.3,8.3,68,0.00,,---,0.00,VWS V14.00,2013-06-13 07:32:00,
2013-06-13 02:33:00,80.4,68.9,28.67,SW,228,4.0,4.9,68,0.00,,---,0.00,VWS V14.00,2013-06-13 07:33:00,
2013-06-13 02:34:00,80.4,68.9,28.67,SW,223,8.1,8.1,68,0.00,,---,0.00,VWS V14.00,2013-06-13 07:34:00,
2013-06-13 02:35:00,80.4,68.9,28.67,NW,310,5.8,14.5,68,0.00,,---,0.00,VWS V14.00,2013-06-13 07:35:00,
2013-06-13 02:36:00,80.4,68.9,28.67,SSW,204,7.6,7.6,68,0.00,,---,0.00,VWS V14.00,2013-06-13 07:36:00,
2013-06-13 02:37:00,80.2,68.7,28.67,West,267,8.3,8.3,68,0.00,,---,0.00,VWS V14.00,2013-06-13 07:37:00,
2013-06-13 02:38:00,80.2,68.7,28.67,West,276,4.5,8.3,68,0.00,,---,0.00,VWS V14.00,2013-06-13 07:38:00,
2013-06-13 02:39:00,80.2,68.7,28.67,SW,235,6.3,8.3,68,0.00,,---,0.00,VWS V14.00,2013-06-13 07:39:00,
2013-06-13 02:40:00,80.2,68.7,28.67,WSW,238,6.7,6.7,68,0.00,,---,0.00,VWS V14.00,2013-06-13 07:40:00,
2013-06-13 02:41:00,80.2,68.7,28.67,SSW,213,11.9,11.9,68,0.00,,---,0.00,VWS V14.00,2013-06-13 07:41:00,
2013-06-13 02:42:00,80.2,68.7,28.67,West,273,5.8,9.6,68,0.00,,---,0.00,VWS V14.00,2013-06-13 07:42:00,
2013-06-13 02:43:00,80.2,68.7,28.67,SW,232,6.3,9.6,68,0.00,,---,0.00,VWS V14.00,2013-06-13 07:43:00,
2013-06-13 02:44:00,80.4,68.9,28.67,WSW,246,4.0,4.0,68,0.00,,---,0.00,VWS V14.00,2013-06-13 07:44:00,
2013-06-13 02:45:00,80.2,68.7,28.67,NW,313,8.1,11.9,68,0.00,,---,0.00,VWS V14.00,2013-06-13 07:45:00,
2013-06-13 02:46:00,80.4,68.9,28.67,WSW,256,8.1,12.8,68,0.00,,---,0.00,VWS V14.00,2013-06-13 07:46:00,
2013-06-13 02:47:00,80.4,68.9,28.67,West,272,10.5,10.5,68,0.00,,---,0.00,VWS V14.00,2013-06-13 07:47:00,
2013-06-13 02:48:00,80.4,68.9,28.67,SW,218,4.0,10.5,68,0.00,,---,0.00,VWS V14.00,2013-06-13 07:48:00,
2013-06-13 02:49:00,80.4,68.9,28.67,SW,221,5.4,7.2,68,0.00,,---,0.00,VWS V14.00,2013-06-13 07:49:00,
2013-06-13 02:50:00,80.4,68.9,28.67,SW,232,10.5,14.1,68,0.00,,---,0.00,VWS V14.00,2013-06-13 07:50:00,
2013-06-13 02:51:00,80.4,68.9,28.67,SW,217,4.0,10.5,68,0.00,,---,0.00,VWS V14.00,2013-06-13 07:51:00,
2013-06-13 02:52:00,80.2,68.7,28.67,WSW,239,4.0,9.2,68,0.00,,---,0.00,VWS V14.00,2013-06-13 07:52:00,
2013-06-13 02:53:00,80.2,68.7,28.67,WSW,245,8.7,8.7,68,0.00,,---,0.00,VWS V14.00,2013-06-13 07:53:00,
2013-06-13 02:54:00,80.4,68.9,28.67,West,259,10.5,10.5,68,0.00,,---,0.00,VWS V14.00,2013-06-13 07:54:00,
2013-06-13 02:55:00,80.4,68.9,28.67,SW,219,8.7,8.7,68,0.00,,---,0.00,VWS V14.00,2013-06-13 07:55:00,
2013-06-13 02:56:00,80.4,68.9,28.67,West,259,4.0,8.7,68,0.00,,---,0.00,VWS V14.00,2013-06-13 07:56:00,
2013-06-13 02:57:00,80.2,68.7,28.67,West,275,5.8,5.8,68,0.00,,---,0.00,VWS V14.00,2013-06-13 07:57:00,
2013-06-13 02:58:00,80.2,68.7,28.67,WNW,285,8.3,11.0,68,0.00,,---,0.00,VWS V14.00,2013-06-13 07:58:00,
2013-06-13 02:59:00,80.2,68.7,28.67,West,265,13.2,13.2,68,0.00,,---,0.00,VWS V14.00,2013-06-13 07:59:00,
2013-06-13 03:00:00,80.2,68.7,28.67,West,274,4.5,8.3,68,0.00,,---,0.00,VWS V14.00,2013-06-13 08:00:00,
2013-06-13 03:01:00,80.2,68.7,28.67,WNW,286,4.0,8.3,68,0.00,,---,0.00,VWS V14.00,2013-06-13 08:01:00,
2013-06-13 03:02:00,80.2,68.7,28.67,WSW,248,11.0,12.8,68,0.00,,---,0.00,VWS V14.00,2013-06-13 08:02:00,
2013-06-13 03:03:00,80.2,68.7,28.67,SW,226,7.6,12.8,68,0.00,,---,0.00,VWS V14.00,2013-06-13 08:03:00,
2013-06-13 03:04:00,80.2,68.7,28.67,WSW,247,6.3,8.1,68,0.00,,---,0.00,VWS V14.00,2013-06-13 08:04:00,
2013-06-13 03:05:00,80.4,68.9,28.67,WSW,246,3.6,8.1,68,0.00,,---,0.00,VWS V14.00,2013-06-13 08:05:00,
2013-06-13 03:06:00,80.4,68.9,28.67,WSW,254,8.7,8.7,68,0.00,,---,0.00,VWS V14.00,2013-06-13 08:06:00,
2013-06-13 03:07:00,80.2,68.7,28.67,West,260,5.8,12.8,68,0.00,,---,0.00,VWS V14.00,2013-06-13 08:07:00,
2013-06-13 03:08:00,80.2,68.7,28.67,WSW,253,6.3,12.3,68,0.00,,---,0.00,VWS V14.00,2013-06-13 08:08:00,
2013-06-13 03:09:00,80.2,68.7,28.67,WSW,249,8.7,13.2,68,0.00,,---,0.00,VWS V14.00,2013-06-13 08:09:00,
2013-06-13 03:10:00,80.4,68.9,28.67,West,263,2.7,12.8,68,0.00,,---,0.00,VWS V14.00,2013-06-13 08:10:00,
2013-06-13 03:11:00,80.4,68.9,28.67,West,274,3.1,12.8,68,0.00,,---,0.00,VWS V14.00,2013-06-13 08:11:00,
2013-06-13 03:12:00,80.2,68.7,28.67,West,279,4.9,8.7,68,0.00,,---,0.00,VWS V14.00,2013-06-13 08:12:00,
2013-06-13 03:13:00,80.2,68.7,28.67,NW,306,4.0,7.6,68,0.00,,---,0.00,VWS V14.00,2013-06-13 08:13:00,
2013-06-13 03:14:00,80.2,68.7,28.67,SW,234,4.9,4.9,68,0.00,,---,0.00,VWS V14.00,2013-06-13 08:14:00,
2013-06-13 03:15:00,80.2,68.7,28.67,West,264,3.1,4.9,68,0.00,,---,0.00,VWS V14.00,2013-06-13 08:15:00,
2013-06-13 03:16:00,80.2,68.7,28.67,SSW,212,5.4,6.3,68,0.00,,---,0.00,VWS V14.00,2013-06-13 08:16:00,
2013-06-13 03:17:00,80.2,68.7,28.67,WNW,302,8.1,8.1,68,0.00,,---,0.00,VWS V14.00,2013-06-13 08:17:00,
2013-06-13 03:18:00,80.2,68.7,28.67,WSW,243,12.8,12.8,68,0.00,,---,0.00,VWS V14.00,2013-06-13 08:18:00,
2013-06-13 03:19:00,80.2,68.7,28.67,West,263,6.3,12.8,68,0.00,,---,0.00,VWS V14.00,2013-06-13 08:19:00,
2013-06-13 03:20:00,80.2,68.7,28.67,NW,320,3.6,9.6,68,0.00,,---,0.00,VWS V14.00,2013-06-13 08:20:00,
2013-06-13 03:21:00,80.2,68.7,28.67,WNW,285,4.0,4.0,68,0.00,,---,0.00,VWS V14.00,2013-06-13 08:21:00,
2013-06-13 03:22:00,80.2,68.7,28.67,West,262,5.4,5.8,68,0.00,,---,0.00,VWS V14.00,2013-06-13 08:22:00,
2013-06-13 03:23:00,80.2,68.7,28.67,SW,233,3.6,3.6,68,0.00,,---,0.00,VWS V14.00,2013-06-13 08:23:00,
2013-06-13 03:24:00,80.2,68.7,28.67,WNW,291,7.2,10.5,68,0.00,,---,0.00,VWS V14.00,2013-06-13 08:24:00,
2013-06-13 03:25:00,80.2,68.7,28.67,WNW,286,5.4,5.4,68,0.00,,---,0.00,VWS V14.00,2013-06-13 08:25:00,
2013-06-13 03:26:00,80.2,68.7,28.67,SW,231,6.3,7.6,68,0.00,,---,0.00,VWS V14.00,2013-06-13 08:26:00,
2013-06-13 03:27:00,80.2,68.7,28.67,WNW,294,4.9,8.7,68,0.00,,---,0.00,VWS V14.00,2013-06-13 08:27:00,
2013-06-13 03:28:00,80.2,68.7,28.67,West,270,3.1,3.6,68,0.00,,---,0.00,VWS V14.00,2013-06-13 08:28:00,
2013-06-13 03:29:00,80.2,68.7,28.67,SW,218,8.3,8.3,68,0.00,,---,0.00,VWS V14.00,2013-06-13 08:29:00,
2013-06-13 03:30:00,80.2,68.7,28.67,SW,217,11.0,11.4,68,0.00,,---,0.00,VWS V14.00,2013-06-13 08:30:00,
2013-06-13 03:31:00,80.2,68.7,28.67,WSW,245,9.6,9.6,68,0.00,,---,0.00,VWS V14.00,2013-06-13 08:31:00,
2013-06-13 03:32:00,80.2,68.7,28.67,SW,232,8.3,9.6,68,0.00,,---,0.00,VWS V14.00,2013-06-13 08:32:00,
2013-06-13 03:33:00,80.2,68.7,28.67,West,259,10.5,14.5,68,0.00,,---,0.00,VWS V14.00,2013-06-13 08:33:00,
2013-06-13 03:34:00,80.2,68.7,28.67,WNW,292,5.4,12.3,68,0.00,,---,0.00,VWS V14.00,2013-06-13 08:34:00,
2013-06-13 03:35:00,80.2,68.7,28.67,WNW,290,2.7,7.2,68,0.00,,---,0.00,VWS V14.00,2013-06-13 08:35:00,
2013-06-13 03:36:00,80.2,68.7,28.67,West,273,5.4,8.1,68,0.00,,---,0.00,VWS V14.00,2013-06-13 08:36:00,
2013-06-13 03:37:00,80.2,68.7,28.67,West,273,5.4,8.1,68,0.00,,---,0.00,VWS V14.00,2013-06-13 08:37:00,
2013-06-13 03:38:00,80.2,68.7,28.67,WNW,297,8.3,12.8,68,0.00,,---,0.00,VWS V14.00,2013-06-13 08:38:00,
2013-06-13 03:39:00,80.2,68.7,28.67,WNW,283,4.0,12.8,68,0.00,,---,0.00,VWS V14.00,2013-06-13 08:39:00,
2013-06-13 03:40:00,80.2,68.7,28.67,WSW,238,7.6,7.6,68,0.00,,---,0.00,VWS V14.00,2013-06-13 08:40:00,
2013-06-13 03:41:00,80.2,68.7,28.67,West,269,3.1,7.6,68,0.00,,---,0.00,VWS V14.00,2013-06-13 08:41:00,
2013-06-13 03:42:00,80.2,68.7,28.67,WSW,253,3.6,3.6,68,0.00,,---,0.00,VWS V14.00,2013-06-13 08:42:00,
2013-06-13 03:43:00,80.1,68.6,28.67,WSW,241,4.0,5.4,68,0.00,,---,0.00,VWS V14.00,2013-06-13 08:43:00,
2013-06-13 03:44:00,80.1,68.6,28.67,West,277,5.8,9.6,68,0.00,,---,0.00,VWS V14.00,2013-06-13 08:44:00,
2013-06-13 03:45:00,80.1,68.6,28.67,West,281,4.9,9.6,68,0.00,,---,0.00,VWS V14.00,2013-06-13 08:45:00,
2013-06-13 03:46:00,80.1,68.6,28.67,West,280,4.9,11.9,68,0.00,,---,0.00,VWS V14.00,2013-06-13 08:46:00,
2013-06-13 03:47:00,80.1,68.6,28.67,WSW,238,5.4,7.6,68,0.00,,---,0.00,VWS V14.00,2013-06-13 08:47:00,
2013-06-13 03:48:00,80.1,68.6,28.67,West,260,5.4,6.3,68,0.00,,---,0.00,VWS V14.00,2013-06-13 08:48:00,
2013-06-13 03:49:00,80.2,68.7,28.67,SSW,198,7.6,7.6,68,0.00,,---,0.00,VWS V14.00,2013-06-13 08:49:00,
2013-06-13 03:50:00,80.2,68.7,28.67,WSW,248,8.1,9.6,68,0.00,,---,0.00,VWS V14.00,2013-06-13 08:50:00,
2013-06-13 03:51:00,80.1,68.6,28.67,NW,304,11.0,11.0,68,0.00,,---,0.00,VWS V14.00,2013-06-13 08:51:00,
2013-06-13 03:52:00,80.1,68.6,28.67,WSW,252,6.3,8.1,68,0.00,,---,0.00,VWS V14.00,2013-06-13 08:52:00,
2013-06-13 03:53:00,80.1,68.6,28.67,WNW,286,8.1,8.1,68,0.00,,---,0.00,VWS V14.00,2013-06-13 08:53:00,
2013-06-13 03:54:00,80.1,68.6,28.67,West,263,5.8,8.3,68,0.00,,---,0.00,VWS V14.00,2013-06-13 08:54:00,
2013-06-13 03:55:00,80.1,68.6,28.67,West,268,8.3,12.8,68,0.00,,---,0.00,VWS V14.00,2013-06-13 08:55:00,
2013-06-13 03:56:00,80.1,68.6,28.67,West,269,5.4,8.1,68,0.00,,---,0.00,VWS V14.00,2013-06-13 08:56:00,
2013-06-13 03:57:00,80.1,68.6,28.67,West,267,4.0,4.9,68,0.00,,---,0.00,VWS V14.00,2013-06-13 08:57:00,
2013-06-13 03:58:00,79.9,68.4,28.67,West,270,6.3,6.3,68,0.00,,---,0.00,VWS V14.00,2013-06-13 08:58:00,
2013-06-13 03:59:00,79.9,68.4,28.67,West,272,5.8,5.8,68,0.00,,---,0.00,VWS V14.00,2013-06-13 08:59:00,
2013-06-13 04:00:00,79.9,68.4,28.67,SW,222,8.1,8.1,68,0.00,,---,0.00,VWS V14.00,2013-06-13 09:00:00,
2013-06-13 04:01:00,79.9,68.4,28.67,SW,222,8.1,8.1,68,0.00,,---,0.00,VWS V14.00,2013-06-13 09:01:00,
2013-06-13 04:02:00,79.9,68.4,28.67,West,275,8.7,8.7,68,0.00,,---,0.00,VWS V14.00,2013-06-13 09:02:00,
2013-06-13 04:03:00,79.9,68.4,28.67,West,275,8.7,8.7,68,0.00,,---,0.00,VWS V14.00,2013-06-13 09:03:00,
2013-06-13 04:04:00,79.9,68.4,28.67,West,275,8.7,8.7,68,0.00,,---,0.00,VWS V14.00,2013-06-13 09:04:00,
2013-06-13 04:05:00,79.9,68.4,28.67,West,275,8.7,8.7,68,0.00,,---,0.00,VWS V14.00,2013-06-13 09:05:00,
2013-06-13 04:06:00,79.9,68.4,28.67,West,275,8.7,8.7,68,0.00,,---,0.00,VWS V14.00,2013-06-13 09:06:00,
2013-06-13 04:07:00,79.9,68.4,28.67,West,275,8.7,8.7,68,0.00,,---,0.00,VWS V14.00,2013-06-13 09:07:00,
2013-06-13 04:08:00,79.9,68.4,28.67,West,275,8.7,8.7,68,0.00,,---,0.00,VWS V14.00,2013-06-13 09:08:00,
2013-06-13 04:09:00,79.9,68.4,28.67,WSW,251,5.4,8.7,68,0.00,,---,0.00,VWS V14.00,2013-06-13 09:09:00,
2013-06-13 04:10:00,79.9,68.4,28.67,WSW,251,5.4,5.4,68,0.00,,---,0.00,VWS V14.00,2013-06-13 09:10:00,
2013-06-13 04:11:00,79.9,68.4,28.67,WSW,251,5.4,5.4,68,0.00,,---,0.00,VWS V14.00,2013-06-13 09:11:00,
2013-06-13 04:12:00,79.9,68.4,28.67,WSW,251,5.4,5.4,68,0.00,,---,0.00,VWS V14.00,2013-06-13 09:12:00,
2013-06-13 04:13:00,79.7,68.2,28.67,WSW,251,5.4,5.4,68,0.00,,---,0.00,VWS V14.00,2013-06-13 09:13:00,
2013-06-13 04:14:00,79.7,68.2,28.67,WSW,251,5.4,5.4,68,0.00,,---,0.00,VWS V14.00,2013-06-13 09:14:00,
2013-06-13 04:15:00,79.7,68.2,28.67,WSW,251,5.4,5.4,68,0.00,,---,0.00,VWS V14.00,2013-06-13 09:15:00,
2013-06-13 04:16:00,79.7,68.2,28.67,WSW,251,5.4,5.4,68,0.00,,---,0.00,VWS V14.00,2013-06-13 09:16:00,
2013-06-13 04:17:00,79.7,68.2,28.67,WSW,251,5.4,5.4,68,0.00,,---,0.00,VWS V14.00,2013-06-13 09:17:00,
2013-06-13 04:18:00,79.7,68.2,28.67,WSW,251,5.4,5.4,68,0.00,,---,0.00,VWS V14.00,2013-06-13 09:18:00,
2013-06-13 04:19:00,79.7,68.2,28.67,WSW,251,5.4,5.4,68,0.00,,---,0.00,VWS V14.00,2013-06-13 09:19:00,
2013-06-13 04:20:00,79.7,68.2,28.67,WSW,251,5.4,5.4,68,0.00,,---,0.00,VWS V14.00,2013-06-13 09:20:00,
2013-06-13 04:21:00,79.5,68.0,28.67,WSW,251,5.4,5.4,68,0.00,,---,0.00,VWS V14.00,2013-06-13 09:21:00,
2013-06-13 04:22:00,79.5,68.0,28.67,WSW,251,5.4,5.4,68,0.00,,---,0.00,VWS V14.00,2013-06-13 09:22:00,
2013-06-13 04:23:00,79.5,68.0,28.67,WSW,251,5.4,5.4,68,0.00,,---,0.00,VWS V14.00,2013-06-13 09:23:00,
2013-06-13 04:24:00,79.3,67.9,28.67,WSW,251,5.4,5.4,68,0.00,,---,0.00,VWS V14.00,2013-06-13 09:24:00,
2013-06-13 04:25:00,79.3,67.9,28.67,WSW,251,5.4,5.4,68,0.00,,---,0.00,VWS V14.00,2013-06-13 09:25:00,
2013-06-13 04:26:00,79.3,67.9,28.67,WSW,251,5.4,5.4,68,0.00,,---,0.00,VWS V14.00,2013-06-13 09:26:00,
2013-06-13 04:27:00,79.3,67.9,28.67,WSW,251,5.4,5.4,68,0.00,,---,0.00,VWS V14.00,2013-06-13 09:27:00,
2013-06-13 04:28:00,79.3,67.9,28.67,WSW,251,5.4,5.4,68,0.00,,---,0.00,VWS V14.00,2013-06-13 09:28:00,
2013-06-13 04:29:00,79.3,67.9,28.67,WSW,251,5.4,5.4,68,0.00,,---,0.00,VWS V14.00,2013-06-13 09:29:00,
2013-06-13 04:30:00,79.2,67.7,28.67,WSW,251,5.4,5.4,68,0.00,,---,0.00,VWS V14.00,2013-06-13 09:30:00,
2013-06-13 04:31:00,79.3,67.9,28.67,SSW,196,9.2,9.2,68,0.00,,---,0.00,VWS V14.00,2013-06-13 09:31:00,
2013-06-13 04:32:00,79.3,67.9,28.67,SSW,196,9.2,9.2,68,0.00,,---,0.00,VWS V14.00,2013-06-13 09:32:00,
2013-06-13 04:33:00,79.3,67.9,28.67,SSW,196,9.2,9.2,68,0.00,,---,0.00,VWS V14.00,2013-06-13 09:33:00,
2013-06-13 04:34:00,79.3,67.9,28.67,NW,306,2.7,9.2,68,0.00,,---,0.00,VWS V14.00,2013-06-13 09:34:00,
2013-06-13 04:35:00,79.3,67.9,28.67,NW,306,2.7,2.7,68,0.00,,---,0.00,VWS V14.00,2013-06-13 09:35:00,
2013-06-13 04:36:00,79.3,67.9,28.67,NW,306,2.7,2.7,68,0.00,,---,0.00,VWS V14.00,2013-06-13 09:36:00,
2013-06-13 04:37:00,79.3,67.9,28.67,NW,306,2.7,2.7,68,0.00,,---,0.00,VWS V14.00,2013-06-13 09:37:00,
2013-06-13 04:38:00,79.3,67.9,28.67,NW,306,2.7,2.7,68,0.00,,---,0.00,VWS V14.00,2013-06-13 09:38:00,
2013-06-13 04:39:00,79.3,67.9,28.67,NW,306,2.7,2.7,68,0.00,,---,0.00,VWS V14.00,2013-06-13 09:39:00,
2013-06-13 04:40:00,79.3,67.9,28.67,NW,306,2.7,2.7,68,0.00,,---,0.00,VWS V14.00,2013-06-13 09:40:00,
2013-06-13 04:41:00,79.3,67.9,28.67,NW,306,2.7,2.7,68,0.00,,---,0.00,VWS V14.00,2013-06-13 09:41:00,
2013-06-13 04:42:00,79.3,67.9,28.67,NW,306,2.7,2.7,68,0.00,,---,0.00,VWS V14.00,2013-06-13 09:42:00,
2013-06-13 04:43:00,79.3,67.9,28.67,NW,306,2.7,2.7,68,0.00,,---,0.00,VWS V14.00,2013-06-13 09:43:00,
2013-06-13 04:44:00,79.3,67.9,28.67,NW,306,2.7,2.7,68,0.00,,---,0.00,VWS V14.00,2013-06-13 09:44:00,
2013-06-13 04:45:00,79.3,67.9,28.67,NW,306,2.7,2.7,68,0.00,,---,0.00,VWS V14.00,2013-06-13 09:45:00,
2013-06-13 04:46:00,79.2,67.7,28.67,NW,306,2.7,2.7,68,0.00,,---,0.00,VWS V14.00,2013-06-13 09:46:00,
2013-06-13 04:47:00,79.2,67.7,28.67,NW,306,2.7,2.7,68,0.00,,---,0.00,VWS V14.00,2013-06-13 09:47:00,
2013-06-13 04:48:00,79.2,67.7,28.67,NW,306,2.7,2.7,68,0.00,,---,0.00,VWS V14.00,2013-06-13 09:48:00,
2013-06-13 04:49:00,79.0,67.5,28.67,NW,306,2.7,2.7,68,0.00,,---,0.00,VWS V14.00,2013-06-13 09:49:00,
2013-06-13 04:50:00,79.0,67.5,28.67,NW,306,2.7,2.7,68,0.00,,---,0.00,VWS V14.00,2013-06-13 09:50:00,
2013-06-13 04:51:00,79.0,67.5,28.67,NW,306,2.7,2.7,68,0.00,,---,0.00,VWS V14.00,2013-06-13 09:51:00,
2013-06-13 04:52:00,79.0,67.5,28.67,NW,306,2.7,2.7,68,0.00,,---,0.00,VWS V14.00,2013-06-13 09:52:00,
2013-06-13 04:53:00,79.0,67.5,28.67,NW,306,2.7,2.7,68,0.00,,---,0.00,VWS V14.00,2013-06-13 09:53:00,
2013-06-13 04:54:00,79.0,67.5,28.67,NW,306,2.7,2.7,68,0.00,,---,0.00,VWS V14.00,2013-06-13 09:54:00,
2013-06-13 04:55:00,79.0,67.5,28.67,NW,306,2.7,2.7,68,0.00,,---,0.00,VWS V14.00,2013-06-13 09:55:00,
2013-06-13 04:56:00,79.0,67.5,28.67,NW,306,2.7,2.7,68,0.00,,---,0.00,VWS V14.00,2013-06-13 09:56:00,
2013-06-13 04:57:00,79.0,67.5,28.67,NW,306,2.7,2.7,68,0.00,,---,0.00,VWS V14.00,2013-06-13 09:57:00,
2013-06-13 04:58:00,79.0,67.5,28.67,NW,306,2.7,2.7,68,0.00,,---,0.00,VWS V14.00,2013-06-13 09:58:00,
2013-06-13 04:59:00,79.0,67.5,28.67,NW,306,2.7,2.7,68,0.00,,---,0.00,VWS V14.00,2013-06-13 09:59:00,
2013-06-13 05:00:00,79.0,67.5,28.67,NW,306,2.7,2.7,68,0.00,,---,0.00,VWS V14.00,2013-06-13 10:00:00,
2013-06-13 05:01:00,79.0,67.5,28.67,NW,306,2.7,2.7,68,0.00,,---,0.00,VWS V14.00,2013-06-13 10:01:00,
2013-06-13 05:02:00,79.0,67.5,28.67,NW,306,2.7,2.7,68,0.00,,---,0.00,VWS V14.00,2013-06-13 10:02:00,
2013-06-13 05:03:00,79.0,67.5,28.67,NW,306,2.7,2.7,68,0.00,,---,0.00,VWS V14.00,2013-06-13 10:03:00,
2013-06-13 05:04:00,79.0,67.5,28.67,NW,306,2.7,2.7,68,0.00,,---,0.00,VWS V14.00,2013-06-13 10:04:00,
2013-06-13 05:05:00,79.0,67.5,28.67,NW,306,2.7,2.7,68,0.00,,---,0.00,VWS V14.00,2013-06-13 10:05:00,
2013-06-13 05:06:00,79.0,67.5,28.67,NW,306,2.7,2.7,68,0.00,,---,0.00,VWS V14.00,2013-06-13 10:06:00,
2013-06-13 05:07:00,79.0,67.5,28.67,NW,306,2.7,2.7,68,0.00,,---,0.00,VWS V14.00,2013-06-13 10:07:00,
2013-06-13 05:08:00,79.0,67.5,28.67,NW,306,2.7,2.7,68,0.00,,---,0.00,VWS V14.00,2013-06-13 10:08:00,
2013-06-13 05:09:00,79.0,67.5,28.67,NW,306,2.7,2.7,68,0.00,,---,0.00,VWS V14.00,2013-06-13 10:09:00,
2013-06-13 05:10:00,79.0,67.5,28.67,NW,306,2.7,2.7,68,0.00,,---,0.00,VWS V14.00,2013-06-13 10:10:00,
2013-06-13 05:11:00,79.0,67.5,28.67,NW,306,2.7,2.7,68,0.00,,---,0.00,VWS V14.00,2013-06-13 10:11:00,
2013-06-13 05:12:00,79.0,67.5,28.67,NW,306,2.7,2.7,68,0.00,,---,0.00,VWS V14.00,2013-06-13 10:12:00,
2013-06-13 05:13:00,79.0,67.5,28.67,NW,306,2.7,2.7,68,0.00,,---,0.00,VWS V14.00,2013-06-13 10:13:00,
2013-06-13 05:14:00,79.0,67.5,28.67,NW,306,2.7,2.7,68,0.00,,---,0.00,VWS V14.00,2013-06-13 10:14:00,
2013-06-13 05:15:00,79.0,67.5,28.67,NW,306,2.7,2.7,68,0.00,,---,0.00,VWS V14.00,2013-06-13 10:15:00,
2013-06-13 05:16:00,79.0,67.5,28.67,NW,306,2.7,2.7,68,0.00,,---,0.00,VWS V14.00,2013-06-13 10:16:00,
2013-06-13 05:17:00,78.8,67.4,28.67,NW,306,2.7,2.7,68,0.00,,---,0.00,VWS V14.00,2013-06-13 10:17:00,
2013-06-13 05:18:00,78.8,67.4,28.67,NW,306,2.7,2.7,68,0.00,,---,0.00,VWS V14.00,2013-06-13 10:18:00,
2013-06-13 05:19:00,78.8,67.4,28.67,NW,306,2.7,2.7,68,0.00,,---,0.00,VWS V14.00,2013-06-13 10:19:00,
2013-06-13 05:20:00,78.8,67.4,28.67,NW,306,2.7,2.7,68,0.00,,---,0.00,VWS V14.00,2013-06-13 10:20:00,
2013-06-13 05:21:00,78.8,67.4,28.67,NW,306,2.7,2.7,68,0.00,,---,0.00,VWS V14.00,2013-06-13 10:21:00,
2013-06-13 05:22:00,78.4,68.7,28.67,NW,306,2.7,2.7,72,0.00,,---,0.00,VWS V14.00,2013-06-13 10:22:00,
2013-06-13 05:23:00,78.4,68.7,28.64,NW,306,2.7,2.7,72,0.00,,---,0.00,VWS V14.00,2013-06-13 10:23:00,
2013-06-13 05:24:00,78.1,68.3,28.64,NW,306,2.7,2.7,72,0.00,,---,0.00,VWS V14.00,2013-06-13 10:24:00,
2013-06-13 05:25:00,78.1,68.3,28.64,NW,306,2.7,2.7,72,0.00,,---,0.00,VWS V14.00,2013-06-13 10:25:00,
2013-06-13 05:26:00,78.1,68.3,28.64,NW,306,2.7,2.7,72,0.00,,---,0.00,VWS V14.00,2013-06-13 10:26:00,
2013-06-13 05:27:00,78.1,68.3,28.64,NW,306,2.7,2.7,72,0.00,,---,0.00,VWS V14.00,2013-06-13 10:27:00,
2013-06-13 05:28:00,78.1,68.3,28.64,NW,306,2.7,2.7,72,0.00,,---,0.00,VWS V14.00,2013-06-13 10:28:00,
2013-06-13 05:29:00,78.1,68.3,28.64,NW,306,2.7,2.7,72,0.00,,---,0.00,VWS V14.00,2013-06-13 10:29:00,
2013-06-13 05:30:00,77.2,67.5,28.64,NW,306,2.7,2.7,72,0.00,,---,0.00,VWS V14.00,2013-06-13 10:30:00,
2013-06-13 05:31:00,77.2,67.5,28.64,NW,306,2.7,2.7,72,0.00,,---,0.00,VWS V14.00,2013-06-13 10:31:00,
2013-06-13 05:32:00,77.0,67.3,28.64,NW,306,2.7,2.7,72,0.00,,---,0.00,VWS V14.00,2013-06-13 10:32:00,
2013-06-13 05:33:00,77.0,67.3,28.64,NW,306,2.7,2.7,72,0.00,,---,0.00,VWS V14.00,2013-06-13 10:33:00,
2013-06-13 05:34:00,76.8,67.1,28.64,NW,306,2.7,2.7,72,0.00,,---,0.00,VWS V14.00,2013-06-13 10:34:00,
2013-06-13 05:35:00,76.8,67.1,28.64,NW,306,2.7,2.7,72,0.00,,---,0.00,VWS V14.00,2013-06-13 10:35:00,
2013-06-13 05:36:00,76.8,67.1,28.67,NW,306,2.7,2.7,72,0.00,,---,0.00,VWS V14.00,2013-06-13 10:36:00,
2013-06-13 05:37:00,76.8,67.1,28.67,NW,306,2.7,2.7,72,0.00,,---,0.00,VWS V14.00,2013-06-13 10:37:00,
2013-06-13 05:38:00,76.8,67.1,28.67,NW,306,2.7,2.7,72,0.00,,---,0.00,VWS V14.00,2013-06-13 10:38:00,
2013-06-13 05:39:00,76.6,66.9,28.67,NW,306,2.7,2.7,72,0.00,,---,0.00,VWS V14.00,2013-06-13 10:39:00,
2013-06-13 05:40:00,76.6,66.9,28.67,NW,306,2.7,2.7,72,0.00,,---,0.00,VWS V14.00,2013-06-13 10:40:00,
2013-06-13 05:41:00,76.8,67.1,28.67,NW,306,2.7,2.7,72,0.00,,---,0.00,VWS V14.00,2013-06-13 10:41:00,
2013-06-13 05:42:00,76.8,67.1,28.67,NW,306,2.7,2.7,72,0.00,,---,0.00,VWS V14.00,2013-06-13 10:42:00,
2013-06-13 05:43:00,76.8,67.1,28.67,NW,306,2.7,2.7,72,0.00,,---,0.00,VWS V14.00,2013-06-13 10:43:00,
2013-06-13 05:44:00,76.8,67.1,28.67,NW,306,2.7,2.7,72,0.00,,---,0.00,VWS V14.00,2013-06-13 10:44:00,
2013-06-13 05:45:00,76.8,67.1,28.67,NW,306,2.7,2.7,72,0.00,,---,0.00,VWS V14.00,2013-06-13 10:45:00,
2013-06-13 05:46:00,76.8,67.1,28.67,NW,306,2.7,2.7,72,0.00,,---,0.00,VWS V14.00,2013-06-13 10:46:00,
2013-06-13 05:47:00,77.4,67.6,28.67,NW,306,2.7,2.7,72,0.00,,---,0.00,VWS V14.00,2013-06-13 10:47:00,
2013-06-13 05:48:00,77.4,67.6,28.67,NW,306,2.7,2.7,72,0.00,,---,0.00,VWS V14.00,2013-06-13 10:48:00,
2013-06-13 05:49:00,77.4,67.6,28.67,NW,306,2.7,2.7,72,0.00,,---,0.00,VWS V14.00,2013-06-13 10:49:00,
2013-06-13 05:50:00,77.4,67.6,28.67,NW,306,2.7,2.7,72,0.00,,---,0.00,VWS V14.00,2013-06-13 10:50:00,
2013-06-13 05:51:00,77.4,67.6,28.67,NW,306,2.7,2.7,72,0.00,,---,0.00,VWS V14.00,2013-06-13 10:51:00,
2013-06-13 05:52:00,77.4,67.6,28.67,NW,306,2.7,2.7,72,0.00,,---,0.00,VWS V14.00,2013-06-13 10:52:00,
2013-06-13 05:53:00,77.4,67.6,28.67,NW,306,2.7,2.7,72,0.00,,---,0.00,VWS V14.00,2013-06-13 10:53:00,
2013-06-13 05:54:00,77.5,67.8,28.67,NW,306,2.7,2.7,72,0.00,,---,0.00,VWS V14.00,2013-06-13 10:54:00,
2013-06-13 05:55:00,77.5,67.8,28.67,NW,306,2.7,2.7,72,0.00,,---,0.00,VWS V14.00,2013-06-13 10:55:00,
2013-06-13 05:56:00,77.5,67.8,28.67,NW,306,2.7,2.7,72,0.00,,---,0.00,VWS V14.00,2013-06-13 10:56:00,
2013-06-13 05:57:00,77.5,67.8,28.67,NW,306,2.7,2.7,72,0.00,,---,0.00,VWS V14.00,2013-06-13 10:57:00,
2013-06-13 05:58:00,77.7,68.0,28.67,NW,306,2.7,2.7,72,0.00,,---,0.00,VWS V14.00,2013-06-13 10:58:00,
2013-06-13 05:59:00,77.7,68.0,28.67,NW,306,2.7,2.7,72,0.00,,---,0.00,VWS V14.00,2013-06-13 10:59:00,
2013-06-13 06:00:00,77.7,68.0,28.67,NW,306,2.7,2.7,72,0.00,,---,0.00,VWS V14.00,2013-06-13 11:00:00,
2013-06-13 06:01:00,77.7,68.0,28.67,NW,306,2.7,2.7,72,0.00,,---,0.00,VWS V14.00,2013-06-13 11:01:00,
2013-06-13 06:02:00,77.7,68.0,28.67,NW,306,2.7,2.7,72,0.00,,---,0.00,VWS V14.00,2013-06-13 11:02:00,
2013-06-13 06:03:00,77.7,68.0,28.67,NW,306,2.7,2.7,72,0.00,,---,0.00,VWS V14.00,2013-06-13 11:03:00,
2013-06-13 06:04:00,77.7,68.0,28.67,NW,306,2.7,2.7,72,0.00,,---,0.00,VWS V14.00,2013-06-13 11:04:00,
2013-06-13 06:05:00,77.7,71.1,28.67,NW,306,2.7,2.7,80,0.00,,---,0.00,VWS V14.00,2013-06-13 11:05:00,
2013-06-13 06:06:00,77.7,71.1,28.67,NW,306,2.7,2.7,80,0.00,,---,0.00,VWS V14.00,2013-06-13 11:06:00,
2013-06-13 06:07:00,77.7,71.1,28.67,NW,306,2.7,2.7,80,0.00,,---,0.00,VWS V14.00,2013-06-13 11:07:00,
2013-06-13 06:08:00,77.7,71.1,28.67,NW,306,2.7,2.7,80,0.00,,---,0.00,VWS V14.00,2013-06-13 11:08:00,
2013-06-13 06:09:00,77.7,71.1,28.67,NW,306,2.7,2.7,80,0.00,,---,0.00,VWS V14.00,2013-06-13 11:09:00,
2013-06-13 06:10:00,77.7,71.1,28.67,NW,306,2.7,2.7,80,0.00,,---,0.00,VWS V14.00,2013-06-13 11:10:00,
2013-06-13 06:11:00,77.7,71.1,28.67,NW,306,2.7,2.7,80,0.00,,---,0.00,VWS V14.00,2013-06-13 11:11:00,
2013-06-13 06:12:00,77.7,71.1,28.67,NW,306,2.7,2.7,80,0.00,,---,0.00,VWS V14.00,2013-06-13 11:12:00,
2013-06-13 06:13:00,78.3,71.6,28.67,NW,306,2.7,2.7,80,0.00,,---,0.00,VWS V14.00,2013-06-13 11:13:00,
2013-06-13 06:14:00,78.3,71.6,28.67,NW,306,2.7,2.7,80,0.00,,---,0.00,VWS V14.00,2013-06-13 11:14:00,
2013-06-13 06:15:00,78.4,68.7,28.67,NW,306,2.7,2.7,72,0.00,,---,0.00,VWS V14.00,2013-06-13 11:15:00,
2013-06-13 06:16:00,78.4,68.7,28.67,NW,306,2.7,2.7,72,0.00,,---,0.00,VWS V14.00,2013-06-13 11:16:00,
2013-06-13 06:17:00,78.4,68.7,28.67,NW,306,2.7,2.7,72,0.00,,---,0.00,VWS V14.00,2013-06-13 11:17:00,
2013-06-13 06:18:00,78.4,68.7,28.67,NW,306,2.7,2.7,72,0.00,,---,0.00,VWS V14.00,2013-06-13 11:18:00,
2013-06-13 06:19:00,78.4,68.7,28.67,NW,306,2.7,2.7,72,0.00,,---,0.00,VWS V14.00,2013-06-13 11:19:00,
2013-06-13 06:20:00,78.4,68.7,28.67,NW,306,2.7,2.7,72,0.00,,---,0.00,VWS V14.00,2013-06-13 11:20:00,
2013-06-13 06:21:00,78.8,67.4,28.67,NW,306,2.7,2.7,68,0.00,,---,0.00,VWS V14.00,2013-06-13 11:21:00,
2013-06-13 06:22:00,78.8,67.4,28.67,NW,306,2.7,2.7,68,0.00,,---,0.00,VWS V14.00,2013-06-13 11:22:00,
2013-06-13 06:23:00,78.8,67.4,28.67,NW,306,2.7,2.7,68,0.00,,---,0.00,VWS V14.00,2013-06-13 11:23:00,
2013-06-13 06:24:00,78.8,67.4,28.67,NW,306,2.7,2.7,68,0.00,,---,0.00,VWS V14.00,2013-06-13 11:24:00,
2013-06-13 06:25:00,78.8,67.4,28.67,NW,306,2.7,2.7,68,0.00,,---,0.00,VWS V14.00,2013-06-13 11:25:00,
2013-06-13 06:26:00,78.8,67.4,28.67,NW,306,2.7,2.7,68,0.00,,---,0.00,VWS V14.00,2013-06-13 11:26:00,
2013-06-13 06:27:00,78.8,67.4,28.67,NW,306,2.7,2.7,68,0.00,,---,0.00,VWS V14.00,2013-06-13 11:27:00,
2013-06-13 06:28:00,78.8,67.4,28.67,NW,306,2.7,2.7,68,0.00,,---,0.00,VWS V14.00,2013-06-13 11:28:00,
2013-06-13 06:29:00,78.8,67.4,28.67,NW,306,2.7,2.7,68,0.00,,---,0.00,VWS V14.00,2013-06-13 11:29:00,
2013-06-13 06:30:00,78.8,67.4,28.67,NW,306,2.7,2.7,68,0.00,,---,0.00,VWS V14.00,2013-06-13 11:30:00,
2013-06-13 06:31:00,78.8,67.4,28.67,NW,306,2.7,2.7,68,0.00,,---,0.00,VWS V14.00,2013-06-13 11:31:00,
2013-06-13 06:32:00,78.8,67.4,28.67,NW,306,2.7,2.7,68,0.00,,---,0.00,VWS V14.00,2013-06-13 11:32:00,
2013-06-13 06:33:00,78.8,67.4,28.67,NW,306,2.7,2.7,68,0.00,,---,0.00,VWS V14.00,2013-06-13 11:33:00,
2013-06-13 06:34:00,78.8,67.4,28.67,NW,306,2.7,2.7,68,0.00,,---,0.00,VWS V14.00,2013-06-13 11:34:00,
2013-06-13 06:35:00,78.8,67.4,28.67,NW,306,2.7,2.7,68,0.00,,---,0.00,VWS V14.00,2013-06-13 11:35:00,
2013-06-13 06:36:00,78.8,67.4,28.67,NW,306,2.7,2.7,68,0.00,,---,0.00,VWS V14.00,2013-06-13 11:36:00,
2013-06-13 06:37:00,78.8,67.4,28.67,NW,306,2.7,2.7,68,0.00,,---,0.00,VWS V14.00,2013-06-13 11:37:00,
2013-06-13 06:38:00,78.8,67.4,28.64,NW,306,2.7,2.7,68,0.00,,---,0.00,VWS V14.00,2013-06-13 11:38:00,
2013-06-13 06:39:00,78.8,67.4,28.64,NW,306,2.7,2.7,68,0.00,,---,0.00,VWS V14.00,2013-06-13 11:39:00,
2013-06-13 06:40:00,78.8,67.4,28.64,NW,306,2.7,2.7,68,0.00,,---,0.00,VWS V14.00,2013-06-13 11:40:00,
2013-06-13 06:41:00,78.8,72.1,28.64,NW,306,2.7,2.7,80,0.00,,---,0.00,VWS V14.00,2013-06-13 11:41:00,
2013-06-13 06:42:00,78.8,72.1,28.64,NW,306,2.7,2.7,80,0.00,,---,0.00,VWS V14.00,2013-06-13 11:42:00,
2013-06-13 06:43:00,78.8,72.1,28.64,NW,306,2.7,2.7,80,0.00,,---,0.00,VWS V14.00,2013-06-13 11:43:00,
2013-06-13 06:44:00,78.8,72.1,28.64,NW,306,2.7,2.7,80,0.00,,---,0.00,VWS V14.00,2013-06-13 11:44:00,
2013-06-13 06:45:00,79.0,67.5,28.64,NW,306,2.7,2.7,68,0.00,,---,0.00,VWS V14.00,2013-06-13 11:45:00,
2013-06-13 06:46:00,79.0,67.5,28.64,NW,306,2.7,2.7,68,0.00,,---,0.00,VWS V14.00,2013-06-13 11:46:00,
2013-06-13 06:47:00,79.3,67.9,28.64,NW,306,2.7,2.7,68,0.00,,---,0.00,VWS V14.00,2013-06-13 11:47:00,
2013-06-13 06:48:00,79.3,67.9,28.64,NW,306,2.7,2.7,68,0.00,,---,0.00,VWS V14.00,2013-06-13 11:48:00,
2013-06-13 06:49:00,79.5,68.0,28.64,NW,306,2.7,2.7,68,0.00,,---,0.00,VWS V14.00,2013-06-13 11:49:00,
2013-06-13 06:50:00,79.5,68.0,28.64,NW,306,2.7,2.7,68,0.00,,---,0.00,VWS V14.00,2013-06-13 11:50:00,
2013-06-13 06:51:00,79.5,68.0,28.64,NW,306,2.7,2.7,68,0.00,,---,0.00,VWS V14.00,2013-06-13 11:51:00,
2013-06-13 06:52:00,79.5,68.0,28.64,NW,306,2.7,2.7,68,0.00,,---,0.00,VWS V14.00,2013-06-13 11:52:00,
2013-06-13 06:53:00,79.5,68.0,28.64,NW,306,2.7,2.7,68,0.00,,---,0.00,VWS V14.00,2013-06-13 11:53:00,
2013-06-13 06:54:00,79.5,68.0,28.64,NW,306,2.7,2.7,68,0.00,,---,0.00,VWS V14.00,2013-06-13 11:54:00,
2013-06-13 06:55:00,79.5,68.0,28.64,NW,306,2.7,2.7,68,0.00,,---,0.00,VWS V14.00,2013-06-13 11:55:00,
2013-06-13 06:56:00,79.5,68.0,28.64,NW,306,2.7,2.7,68,0.00,,---,0.00,VWS V14.00,2013-06-13 11:56:00,
2013-06-13 06:57:00,80.4,68.9,28.64,NW,306,2.7,2.7,68,0.00,,---,0.00,VWS V14.00,2013-06-13 11:57:00,
2013-06-13 06:58:00,80.4,68.9,28.64,NW,306,2.7,2.7,68,0.00,,---,0.00,VWS V14.00,2013-06-13 11:58:00,
2013-06-13 06:59:00,80.4,68.9,28.64,NW,306,2.7,2.7,68,0.00,,---,0.00,VWS V14.00,2013-06-13 11:59:00,
2013-06-13 07:00:00,80.4,68.9,28.64,NW,306,2.7,2.7,68,0.00,,---,0.00,VWS V14.00,2013-06-13 12:00:00,
2013-06-13 07:01:00,80.4,68.9,28.64,NW,306,2.7,2.7,68,0.00,,---,0.00,VWS V14.00,2013-06-13 12:01:00,
2013-06-13 07:02:00,80.4,68.9,28.64,NW,306,2.7,2.7,68,0.00,,---,0.00,VWS V14.00,2013-06-13 12:02:00,
2013-06-13 07:03:00,80.4,68.9,28.64,NW,306,2.7,2.7,68,0.00,,---,0.00,VWS V14.00,2013-06-13 12:03:00,
2013-06-13 07:04:00,80.4,68.9,28.64,NW,306,2.7,2.7,68,0.00,,---,0.00,VWS V14.00,2013-06-13 12:04:00,
2013-06-13 07:05:00,79.3,67.9,28.64,NW,306,2.7,2.7,68,0.00,,---,0.00,VWS V14.00,2013-06-13 12:05:00,
2013-06-13 07:06:00,79.3,67.9,28.64,NW,306,2.7,2.7,68,0.00,,---,0.00,VWS V14.00,2013-06-13 12:06:00,
2013-06-13 07:07:00,79.2,67.7,28.64,NW,306,2.7,2.7,68,0.00,,---,0.00,VWS V14.00,2013-06-13 12:07:00,
2013-06-13 07:08:00,79.0,67.5,28.64,NW,306,2.7,2.7,68,0.00,,---,0.00,VWS V14.00,2013-06-13 12:08:00,
2013-06-13 07:09:00,79.0,67.5,28.64,NW,306,2.7,2.7,68,0.00,,---,0.00,VWS V14.00,2013-06-13 12:09:00,
2013-06-13 07:10:00,79.0,67.5,28.64,NW,306,2.7,2.7,68,0.00,,---,0.00,VWS V14.00,2013-06-13 12:10:00,
2013-06-13 07:11:00,79.0,67.5,28.64,NW,306,2.7,2.7,68,0.00,,---,0.00,VWS V14.00,2013-06-13 12:11:00,
2013-06-13 07:12:00,79.0,67.5,28.64,NW,306,2.7,2.7,68,0.00,,---,0.00,VWS V14.00,2013-06-13 12:12:00,
2013-06-13 07:13:00,79.0,67.5,28.64,NW,306,2.7,2.7,68,0.00,,---,0.00,VWS V14.00,2013-06-13 12:13:00,
2013-06-13 07:14:00,78.4,71.8,28.64,NW,306,2.7,2.7,80,0.00,,---,0.00,VWS V14.00,2013-06-13 12:14:00,
2013-06-13 07:15:00,78.4,71.8,28.64,NW,306,2.7,2.7,80,0.00,,---,0.00,VWS V14.00,2013-06-13 12:15:00,
2013-06-13 07:16:00,78.3,71.6,28.64,NW,306,2.7,2.7,80,0.00,,---,0.00,VWS V14.00,2013-06-13 12:16:00,
2013-06-13 07:17:00,78.3,71.6,28.64,NW,306,2.7,2.7,80,0.00,,---,0.00,VWS V14.00,2013-06-13 12:17:00,
2013-06-13 07:18:00,78.3,71.6,28.64,NW,306,2.7,2.7,80,0.00,,---,0.00,VWS V14.00,2013-06-13 12:18:00,
2013-06-13 07:19:00,78.3,71.6,28.64,NW,306,2.7,2.7,80,0.00,,---,0.00,VWS V14.00,2013-06-13 12:19:00,
2013-06-13 07:20:00,78.3,71.6,28.64,NW,306,2.7,2.7,80,0.00,,---,0.00,VWS V14.00,2013-06-13 12:20:00,
2013-06-13 07:21:00,78.3,71.6,28.64,NW,306,2.7,2.7,80,0.00,,---,0.00,VWS V14.00,2013-06-13 12:21:00,
2013-06-13 07:22:00,78.3,71.6,28.64,NW,306,2.7,2.7,80,0.00,,---,0.00,VWS V14.00,2013-06-13 12:22:00,
2013-06-13 07:23:00,78.1,71.4,28.64,NW,306,2.7,2.7,80,0.00,,---,0.00,VWS V14.00,2013-06-13 12:23:00,
2013-06-13 07:24:00,78.1,71.4,28.64,NW,306,2.7,2.7,80,0.00,,---,0.00,VWS V14.00,2013-06-13 12:24:00,
2013-06-13 07:25:00,78.1,71.4,28.64,NW,306,2.7,2.7,80,0.00,,---,0.00,VWS V14.00,2013-06-13 12:25:00,
2013-06-13 07:27:00,78.1,71.4,28.64,NW,306,2.7,2.7,80,0.00,,---,0.00,VWS V14.00,2013-06-13 12:27:00,
2013-06-13 07:28:00,78.1,71.4,28.64,NW,306,2.7,2.7,80,0.00,,---,0.00,VWS V14.00,2013-06-13 12:28:00,
2013-06-13 07:29:00,78.1,71.4,28.64,NW,306,2.7,2.7,80,0.00,,---,0.00,VWS V14.00,2013-06-13 12:29:00,
2013-06-13 07:30:00,78.1,71.4,28.64,NW,306,2.7,2.7,80,0.00,,---,0.00,VWS V14.00,2013-06-13 12:30:00,
2013-06-13 07:31:00,78.3,71.6,28.64,NW,306,2.7,2.7,80,0.00,,---,0.00,VWS V14.00,2013-06-13 12:31:00,
2013-06-13 07:32:00,78.3,71.6,28.64,NW,306,2.7,2.7,80,0.00,,---,0.00,VWS V14.00,2013-06-13 12:32:00,
2013-06-13 07:33:00,78.3,71.6,28.64,NW,306,2.7,2.7,80,0.00,,---,0.00,VWS V14.00,2013-06-13 12:33:00,
2013-06-13 07:34:00,78.3,71.6,28.64,NW,306,2.7,2.7,80,0.00,,---,0.00,VWS V14.00,2013-06-13 12:34:00,
2013-06-13 07:35:00,78.3,71.6,28.64,NW,306,2.7,2.7,80,0.00,,---,0.00,VWS V14.00,2013-06-13 12:35:00,
2013-06-13 07:36:00,78.3,71.6,28.64,NW,306,2.7,2.7,80,0.00,,---,0.00,VWS V14.00,2013-06-13 12:36:00,
2013-06-13 07:37:00,78.3,71.6,28.64,NW,306,2.7,2.7,80,0.00,,---,0.00,VWS V14.00,2013-06-13 12:37:00,
2013-06-13 07:38:00,78.3,71.6,28.64,NW,306,2.7,2.7,80,0.00,,---,0.00,VWS V14.00,2013-06-13 12:38:00,
2013-06-13 07:39:00,78.3,71.6,28.64,NW,306,2.7,2.7,80,0.00,,---,0.00,VWS V14.00,2013-06-13 12:39:00,
2013-06-13 07:40:00,78.3,71.6,28.64,NW,306,2.7,2.7,80,0.00,,---,0.00,VWS V14.00,2013-06-13 12:40:00,
2013-06-13 07:41:00,78.3,71.6,28.64,NW,306,2.7,2.7,80,0.00,,---,0.00,VWS V14.00,2013-06-13 12:41:00,
2013-06-13 07:42:00,78.1,71.4,28.64,NW,306,2.7,2.7,80,0.00,,---,0.00,VWS V14.00,2013-06-13 12:42:00,
2013-06-13 07:43:00,78.1,71.4,28.64,NW,306,2.7,2.7,80,0.00,,---,0.00,VWS V14.00,2013-06-13 12:43:00,
2013-06-13 07:44:00,78.1,71.4,28.64,NW,306,2.7,2.7,80,0.00,,---,0.00,VWS V14.00,2013-06-13 12:44:00,
2013-06-13 07:45:00,78.1,71.4,28.64,NW,306,2.7,2.7,80,0.00,,---,0.00,VWS V14.00,2013-06-13 12:45:00,
2013-06-13 07:46:00,78.1,71.4,28.64,NW,306,2.7,2.7,80,0.00,,---,0.00,VWS V14.00,2013-06-13 12:46:00,
2013-06-13 07:47:00,78.1,71.4,28.64,NW,306,2.7,2.7,80,0.00,,---,0.00,VWS V14.00,2013-06-13 12:47:00,
2013-06-13 07:48:00,78.1,71.4,28.64,NW,306,2.7,2.7,80,0.00,,---,0.00,VWS V14.00,2013-06-13 12:48:00,
2013-06-13 07:49:00,77.5,70.9,28.64,NW,306,2.7,2.7,80,0.00,,---,0.00,VWS V14.00,2013-06-13 12:49:00,
2013-06-13 07:50:00,75.4,70.2,28.64,NW,306,2.7,2.7,84,0.00,,---,0.00,VWS V14.00,2013-06-13 12:50:00,
2013-06-13 07:51:00,75.4,70.2,28.64,NW,306,2.7,2.7,84,0.00,,---,0.00,VWS V14.00,2013-06-13 12:51:00,
2013-06-13 07:52:00,75.4,70.2,28.73,NW,306,2.7,2.7,84,0.00,,---,0.04,VWS V14.00,2013-06-13 12:52:00,
2013-06-13 07:53:00,75.4,70.2,28.73,NW,306,2.7,2.7,84,0.00,,---,0.04,VWS V14.00,2013-06-13 12:53:00,
2013-06-13 07:54:00,75.4,70.2,28.73,NW,306,2.7,2.7,84,0.00,,---,0.04,VWS V14.00,2013-06-13 12:54:00,
2013-06-13 07:55:00,68.4,68.4,28.73,NW,306,2.7,2.7,100,1.93,,---,0.08,VWS V14.00,2013-06-13 12:55:00,
2013-06-13 07:56:00,68.4,68.4,28.73,NW,306,2.7,2.7,100,1.93,,---,0.08,VWS V14.00,2013-06-13 12:56:00,
2013-06-13 07:57:00,67.5,67.5,28.73,NW,306,2.7,2.7,100,1.93,,---,0.08,VWS V14.00,2013-06-13 12:57:00,
2013-06-13 07:58:00,67.5,67.5,28.73,NW,306,2.7,2.7,100,1.93,,---,0.08,VWS V14.00,2013-06-13 12:58:00,
2013-06-13 07:59:00,66.9,66.9,28.73,NW,306,2.7,2.7,100,1.93,,---,0.08,VWS V14.00,2013-06-13 12:59:00,
2013-06-13 08:00:00,66.9,66.9,28.73,NW,306,2.7,2.7,100,1.93,,---,0.08,VWS V14.00,2013-06-13 13:00:00,
2013-06-13 08:01:00,66.9,66.9,28.73,NW,306,2.7,2.7,100,1.93,,---,0.08,VWS V14.00,2013-06-13 13:01:00,
2013-06-13 08:02:00,66.9,66.9,28.73,NW,306,2.7,2.7,100,1.93,,---,0.08,VWS V14.00,2013-06-13 13:02:00,
2013-06-13 08:03:00,66.9,66.9,28.73,NW,306,2.7,2.7,100,1.93,,---,0.08,VWS V14.00,2013-06-13 13:03:00,
2013-06-13 08:04:00,66.9,66.9,28.73,NW,306,2.7,2.7,100,1.26,,---,0.24,VWS V14.00,2013-06-13 13:04:00,
2013-06-13 08:05:00,66.4,66.4,28.73,NW,306,2.7,2.7,100,1.26,,---,0.24,VWS V14.00,2013-06-13 13:05:00,
2013-06-13 08:06:00,66.4,66.4,28.73,NW,306,2.7,2.7,100,1.53,,---,0.28,VWS V14.00,2013-06-13 13:06:00,
2013-06-13 08:07:00,66.4,66.4,28.70,NW,306,2.7,2.7,100,1.53,,---,0.28,VWS V14.00,2013-06-13 13:07:00,
2013-06-13 08:08:00,66.4,66.4,28.70,NW,306,2.7,2.7,100,1.54,,---,0.31,VWS V14.00,2013-06-13 13:08:00,
2013-06-13 08:09:00,66.4,66.4,28.70,NW,306,2.7,2.7,100,0.83,,---,0.31,VWS V14.00,2013-06-13 13:09:00,
2013-06-13 08:10:00,66.4,66.4,28.70,NW,306,2.7,2.7,100,0.83,,---,0.31,VWS V14.00,2013-06-13 13:10:00,
2013-06-13 08:11:00,66.4,66.4,28.70,NW,306,2.7,2.7,100,0.83,,---,0.31,VWS V14.00,2013-06-13 13:11:00,
2013-06-13 08:12:00,66.4,66.4,28.70,NW,306,2.7,2.7,100,0.83,,---,0.31,VWS V14.00,2013-06-13 13:12:00,
2013-06-13 08:13:00,66.4,66.4,28.70,NW,306,2.7,2.7,100,0.83,,---,0.31,VWS V14.00,2013-06-13 13:13:00,
2013-06-13 08:14:00,66.2,66.2,28.70,NW,306,2.7,2.7,100,0.83,,---,0.31,VWS V14.00,2013-06-13 13:14:00,
2013-06-13 08:15:00,66.2,66.2,28.70,NW,306,2.7,2.7,100,0.75,,---,0.43,VWS V14.00,2013-06-13 13:15:00,
2013-06-13 08:16:00,66.2,66.2,28.70,NW,306,2.7,2.7,100,0.75,,---,0.43,VWS V14.00,2013-06-13 13:16:00,
2013-06-13 08:17:00,66.2,66.2,28.70,NW,306,2.7,2.7,100,0.75,,---,0.43,VWS V14.00,2013-06-13 13:17:00,
2013-06-13 08:18:00,66.2,66.2,28.70,NW,306,2.7,2.7,100,0.75,,---,0.43,VWS V14.00,2013-06-13 13:18:00,
2013-06-13 08:19:00,66.2,66.2,28.70,NW,306,2.7,2.7,100,0.75,,---,0.43,VWS V14.00,2013-06-13 13:19:00,
2013-06-13 08:20:00,66.2,66.2,28.70,NW,306,2.7,2.7,100,0.75,,---,0.43,VWS V14.00,2013-06-13 13:20:00,
2013-06-13 08:21:00,66.2,66.2,28.70,NW,306,2.7,2.7,100,0.75,,---,0.43,VWS V14.00,2013-06-13 13:21:00,
2013-06-13 08:22:00,66.2,66.2,28.70,NW,306,2.7,2.7,100,0.75,,---,0.43,VWS V14.00,2013-06-13 13:22:00,
2013-06-13 08:23:00,66.2,66.2,28.70,NW,306,2.7,2.7,100,0.75,,---,0.43,VWS V14.00,2013-06-13 13:23:00,
2013-06-13 08:24:00,66.2,66.2,28.70,NW,306,2.7,2.7,100,0.75,,---,0.43,VWS V14.00,2013-06-13 13:24:00,
2013-06-13 08:25:00,66.0,66.0,28.70,NW,306,2.7,2.7,100,0.75,,---,0.43,VWS V14.00,2013-06-13 13:25:00,
2013-06-13 08:26:00,66.0,66.0,28.70,NW,306,2.7,2.7,100,0.75,,---,0.43,VWS V14.00,2013-06-13 13:26:00,
2013-06-13 08:27:00,66.0,66.0,28.70,NW,306,2.7,2.7,100,0.75,,---,0.43,VWS V14.00,2013-06-13 13:27:00,
2013-06-13 08:28:00,66.0,66.0,28.70,NW,306,2.7,2.7,100,0.75,,---,0.43,VWS V14.00,2013-06-13 13:28:00,
2013-06-13 08:29:00,66.0,66.0,28.70,NW,306,2.7,2.7,100,0.75,,---,0.43,VWS V14.00,2013-06-13 13:29:00,
2013-06-13 08:30:00,66.0,66.0,28.70,NW,306,2.7,2.7,100,0.75,,---,0.43,VWS V14.00,2013-06-13 13:30:00,
2013-06-13 08:31:00,66.0,66.0,28.70,NW,306,2.7,2.7,100,0.75,,---,0.43,VWS V14.00,2013-06-13 13:31:00,
2013-06-13 08:32:00,66.2,66.2,28.70,NW,306,2.7,2.7,100,0.75,,---,0.43,VWS V14.00,2013-06-13 13:32:00,
2013-06-13 08:33:00,66.2,66.2,28.70,NW,306,2.7,2.7,100,0.75,,---,0.43,VWS V14.00,2013-06-13 13:33:00,
2013-06-13 08:34:00,66.2,66.2,28.70,NW,306,2.7,2.7,100,0.75,,---,0.43,VWS V14.00,2013-06-13 13:34:00,
2013-06-13 08:35:00,66.2,66.2,28.70,NW,306,2.7,2.7,100,0.75,,---,0.43,VWS V14.00,2013-06-13 13:35:00,
2013-06-13 08:36:00,66.4,66.4,28.70,NW,306,2.7,2.7,100,0.75,,---,0.47,VWS V14.00,2013-06-13 13:36:00,
2013-06-13 08:37:00,66.4,66.4,28.70,NW,306,2.7,2.7,100,0.20,,---,0.47,VWS V14.00,2013-06-13 13:37:00,
2013-06-13 08:38:00,66.4,66.4,28.73,NW,306,2.7,2.7,100,0.20,,---,0.47,VWS V14.00,2013-06-13 13:38:00,
2013-06-13 08:39:00,66.4,66.4,28.73,NW,306,2.7,2.7,100,0.20,,---,0.47,VWS V14.00,2013-06-13 13:39:00,
2013-06-13 08:40:00,66.4,66.4,28.73,NW,306,2.7,2.7,100,0.20,,---,0.47,VWS V14.00,2013-06-13 13:40:00,
2013-06-13 08:41:00,66.4,66.4,28.73,NW,306,2.7,2.7,100,0.20,,---,0.47,VWS V14.00,2013-06-13 13:41:00,
2013-06-13 08:42:00,66.4,66.4,28.73,NW,306,2.7,2.7,100,0.20,,---,0.47,VWS V14.00,2013-06-13 13:42:00,
2013-06-13 08:43:00,66.4,66.4,28.73,NW,306,2.7,2.7,100,0.20,,---,0.47,VWS V14.00,2013-06-13 13:43:00,
2013-06-13 08:44:00,66.4,66.4,28.73,NW,306,2.7,2.7,100,0.20,,---,0.47,VWS V14.00,2013-06-13 13:44:00,
2013-06-13 08:45:00,66.4,66.4,28.73,NW,306,2.7,2.7,100,0.20,,---,0.47,VWS V14.00,2013-06-13 13:45:00,
2013-06-13 08:46:00,66.4,66.4,28.73,NW,306,2.7,2.7,100,0.20,,---,0.47,VWS V14.00,2013-06-13 13:46:00,
2013-06-13 08:47:00,66.4,66.4,28.73,NW,306,2.7,2.7,100,0.20,,---,0.47,VWS V14.00,2013-06-13 13:47:00,
2013-06-13 08:48:00,66.4,66.4,28.73,NW,306,2.7,2.7,100,0.20,,---,0.47,VWS V14.00,2013-06-13 13:48:00,
2013-06-13 08:49:00,66.4,66.4,28.73,NW,306,2.7,2.7,100,0.20,,---,0.47,VWS V14.00,2013-06-13 13:49:00,
2013-06-13 08:50:00,66.4,66.4,28.73,NW,306,2.7,2.7,100,0.20,,---,0.47,VWS V14.00,2013-06-13 13:50:00,
2013-06-13 08:51:00,66.4,66.4,28.73,NW,306,2.7,2.7,100,0.20,,---,0.47,VWS V14.00,2013-06-13 13:51:00,
2013-06-13 08:52:00,66.4,66.4,28.73,NW,306,2.7,2.7,100,0.20,,---,0.47,VWS V14.00,2013-06-13 13:52:00,
2013-06-13 08:53:00,66.4,66.4,28.73,NW,306,2.7,2.7,100,0.20,,---,0.47,VWS V14.00,2013-06-13 13:53:00,
2013-06-13 08:54:00,66.4,66.4,28.73,NW,306,2.7,2.7,100,0.20,,---,0.47,VWS V14.00,2013-06-13 13:54:00,
2013-06-13 08:55:00,66.4,66.4,28.73,NW,306,2.7,2.7,100,0.20,,---,0.47,VWS V14.00,2013-06-13 13:55:00,
2013-06-13 08:56:00,66.4,66.4,28.73,NW,306,2.7,2.7,100,0.20,,---,0.47,VWS V14.00,2013-06-13 13:56:00,
2013-06-13 08:57:00,66.4,66.4,28.73,NW,306,2.7,2.7,100,0.20,,---,0.47,VWS V14.00,2013-06-13 13:57:00,
2013-06-13 08:58:00,66.4,66.4,28.73,NW,306,2.7,2.7,100,0.20,,---,0.47,VWS V14.00,2013-06-13 13:58:00,
2013-06-13 08:59:00,66.6,66.6,28.73,NW,306,2.7,2.7,100,0.20,,---,0.47,VWS V14.00,2013-06-13 13:59:00,
2013-06-13 09:00:00,66.6,66.6,28.73,NW,306,2.7,2.7,100,0.20,,---,0.47,VWS V14.00,2013-06-13 14:00:00,
2013-06-13 09:01:00,66.6,66.6,28.73,NW,306,2.7,2.7,100,0.20,,---,0.47,VWS V14.00,2013-06-13 14:01:00,
2013-06-13 09:02:00,66.6,66.6,28.73,NW,306,2.7,2.7,100,0.20,,---,0.47,VWS V14.00,2013-06-13 14:02:00,
2013-06-13 09:03:00,66.6,66.6,28.73,NW,306,2.7,2.7,100,0.20,,---,0.47,VWS V14.00,2013-06-13 14:03:00,
2013-06-13 09:04:00,66.6,66.6,28.73,NW,306,2.7,2.7,100,0.20,,---,0.47,VWS V14.00,2013-06-13 14:04:00,
2013-06-13 09:05:00,66.6,66.6,28.73,NW,306,2.7,2.7,100,0.20,,---,0.47,VWS V14.00,2013-06-13 14:05:00,
2013-06-13 09:06:00,66.7,66.7,28.73,NW,306,2.7,2.7,100,0.20,,---,0.47,VWS V14.00,2013-06-13 14:06:00,
2013-06-13 09:07:00,66.7,66.7,28.73,NW,306,2.7,2.7,100,0.20,,---,0.47,VWS V14.00,2013-06-13 14:07:00,
2013-06-13 09:08:00,66.7,66.7,28.73,NW,306,2.7,2.7,100,0.20,,---,0.47,VWS V14.00,2013-06-13 14:08:00,
2013-06-13 09:09:00,66.7,66.7,28.73,NW,306,2.7,2.7,100,0.20,,---,0.47,VWS V14.00,2013-06-13 14:09:00,
2013-06-13 09:10:00,66.7,66.7,28.73,NW,306,2.7,2.7,100,0.20,,---,0.47,VWS V14.00,2013-06-13 14:10:00,
2013-06-13 09:11:00,66.7,66.7,28.73,NW,306,2.7,2.7,100,0.20,,---,0.47,VWS V14.00,2013-06-13 14:11:00,
2013-06-13 09:12:00,66.7,66.7,28.73,NW,306,2.7,2.7,100,0.20,,---,0.47,VWS V14.00,2013-06-13 14:12:00,
2013-06-13 09:13:00,66.7,66.7,28.73,NW,306,2.7,2.7,100,0.20,,---,0.47,VWS V14.00,2013-06-13 14:13:00,
2013-06-13 09:14:00,67.1,67.1,28.73,NW,306,2.7,2.7,100,0.20,,---,0.47,VWS V14.00,2013-06-13 14:14:00,
2013-06-13 09:15:00,67.1,67.1,28.73,NW,306,2.7,2.7,100,0.20,,---,0.47,VWS V14.00,2013-06-13 14:15:00,
2013-06-13 09:16:00,67.1,67.1,28.73,NW,306,2.7,2.7,100,0.20,,---,0.47,VWS V14.00,2013-06-13 14:16:00,
2013-06-13 09:17:00,67.1,67.1,28.73,NW,306,2.7,2.7,100,0.20,,---,0.47,VWS V14.00,2013-06-13 14:17:00,
2013-06-13 09:18:00,67.1,67.1,28.73,NW,306,2.7,2.7,100,0.20,,---,0.47,VWS V14.00,2013-06-13 14:18:00,
2013-06-13 09:19:00,67.1,67.1,28.73,NW,306,2.7,2.7,100,0.20,,---,0.47,VWS V14.00,2013-06-13 14:19:00,
2013-06-13 09:20:00,67.1,67.1,28.73,NW,306,2.7,2.7,100,0.20,,---,0.47,VWS V14.00,2013-06-13 14:20:00,
2013-06-13 09:21:00,67.1,67.1,28.70,NW,306,2.7,2.7,100,0.20,,---,0.47,VWS V14.00,2013-06-13 14:21:00,
2013-06-13 09:22:00,67.1,67.1,28.70,NW,306,2.7,2.7,100,0.20,,---,0.47,VWS V14.00,2013-06-13 14:22:00,
2013-06-13 09:23:00,67.5,67.5,28.70,NW,306,2.7,2.7,100,0.20,,---,0.47,VWS V14.00,2013-06-13 14:23:00,
2013-06-13 09:24:00,67.5,67.5,28.70,NW,306,2.7,2.7,100,0.20,,---,0.47,VWS V14.00,2013-06-13 14:24:00,
2013-06-13 09:25:00,67.3,67.3,28.70,NW,306,2.7,2.7,100,0.20,,---,0.47,VWS V14.00,2013-06-13 14:25:00,
2013-06-13 09:26:00,67.3,67.3,28.70,NW,306,2.7,2.7,100,0.20,,---,0.47,VWS V14.00,2013-06-13 14:26:00,
2013-06-13 09:27:00,67.3,67.3,28.70,NW,306,2.7,2.7,100,0.20,,---,0.47,VWS V14.00,2013-06-13 14:27:00,
2013-06-13 09:28:00,67.3,67.3,28.70,NW,306,2.7,2.7,100,0.20,,---,0.47,VWS V14.00,2013-06-13 14:28:00,
2013-06-13 09:29:00,67.3,67.3,28.70,NW,306,2.7,2.7,100,0.20,,---,0.47,VWS V14.00,2013-06-13 14:29:00,
2013-06-13 09:30:00,67.3,67.3,28.70,NW,306,2.7,2.7,100,0.20,,---,0.47,VWS V14.00,2013-06-13 14:30:00,
2013-06-13 09:31:00,67.3,67.3,28.70,NW,306,2.7,2.7,100,0.20,,---,0.47,VWS V14.00,2013-06-13 14:31:00,
2013-06-13 09:32:00,67.5,67.5,28.70,NW,306,2.7,2.7,100,0.20,,---,0.47,VWS V14.00,2013-06-13 14:32:00,
2013-06-13 09:33:00,67.5,67.5,28.70,NW,306,2.7,2.7,100,0.20,,---,0.47,VWS V14.00,2013-06-13 14:33:00,
2013-06-13 09:34:00,67.5,67.5,28.70,NW,306,2.7,2.7,100,0.20,,---,0.47,VWS V14.00,2013-06-13 14:34:00,
2013-06-13 09:35:00,67.5,67.5,28.70,NW,306,2.7,2.7,100,0.20,,---,0.47,VWS V14.00,2013-06-13 14:35:00,
2013-06-13 09:36:00,67.6,67.6,28.70,NW,306,2.7,2.7,100,0.20,,---,0.47,VWS V14.00,2013-06-13 14:36:00,
2013-06-13 09:37:00,67.6,67.6,28.70,NW,306,2.7,2.7,100,0.20,,---,0.47,VWS V14.00,2013-06-13 14:37:00,
2013-06-13 09:38:00,67.6,67.6,28.70,NW,306,2.7,2.7,100,0.20,,---,0.47,VWS V14.00,2013-06-13 14:38:00,
2013-06-13 09:39:00,67.6,67.6,28.70,NW,306,2.7,2.7,100,0.20,,---,0.47,VWS V14.00,2013-06-13 14:39:00,
2013-06-13 09:40:00,67.6,67.6,28.73,NW,306,2.7,2.7,100,0.20,,---,0.47,VWS V14.00,2013-06-13 14:40:00,
2013-06-13 09:41:00,67.6,67.6,28.73,NW,306,2.7,2.7,100,0.20,,---,0.47,VWS V14.00,2013-06-13 14:41:00,
2013-06-13 09:42:00,67.8,67.8,28.73,NW,306,2.7,2.7,100,0.20,,---,0.47,VWS V14.00,2013-06-13 14:42:00,
2013-06-13 09:43:00,67.8,67.8,28.73,NW,306,2.7,2.7,100,0.20,,---,0.47,VWS V14.00,2013-06-13 14:43:00,
2013-06-13 09:44:00,67.8,67.8,28.73,NW,306,2.7,2.7,100,0.20,,---,0.47,VWS V14.00,2013-06-13 14:44:00,
2013-06-13 09:45:00,67.8,67.8,28.73,NW,306,2.7,2.7,100,0.20,,---,0.47,VWS V14.00,2013-06-13 14:45:00,
2013-06-13 09:46:00,67.8,67.8,28.73,NW,306,2.7,2.7,100,0.20,,---,0.47,VWS V14.00,2013-06-13 14:46:00,
2013-06-13 09:47:00,67.8,67.8,28.73,NW,306,2.7,2.7,100,0.20,,---,0.47,VWS V14.00,2013-06-13 14:47:00,
2013-06-13 09:48:00,67.8,67.8,28.73,NW,306,2.7,2.7,100,0.20,,---,0.47,VWS V14.00,2013-06-13 14:48:00,
2013-06-13 09:49:00,68.4,68.4,28.73,NW,306,2.7,2.7,100,0.20,,---,0.47,VWS V14.00,2013-06-13 14:49:00,
2013-06-13 09:50:00,68.4,68.4,28.73,NW,306,2.7,2.7,100,0.20,,---,0.47,VWS V14.00,2013-06-13 14:50:00,
2013-06-13 09:51:00,68.9,68.9,28.73,NW,306,2.7,2.7,100,0.20,,---,0.47,VWS V14.00,2013-06-13 14:51:00,
2013-06-13 09:52:00,69.1,69.1,28.73,NW,306,2.7,2.7,100,0.20,,---,0.47,VWS V14.00,2013-06-13 14:52:00,
2013-06-13 09:53:00,69.1,69.1,28.73,NW,306,2.7,2.7,100,0.20,,---,0.47,VWS V14.00,2013-06-13 14:53:00,
2013-06-13 09:54:00,69.1,69.1,28.73,NW,306,2.7,2.7,100,0.20,,---,0.47,VWS V14.00,2013-06-13 14:54:00,
2013-06-13 09:55:00,69.1,69.1,28.73,NW,306,2.7,2.7,100,0.20,,---,0.47,VWS V14.00,2013-06-13 14:55:00,
2013-06-13 09:56:00,69.1,69.1,28.73,NW,306,2.7,2.7,100,0.20,,---,0.47,VWS V14.00,2013-06-13 14:56:00,
2013-06-13 09:57:00,69.1,69.1,28.73,NW,306,2.7,2.7,100,0.20,,---,0.47,VWS V14.00,2013-06-13 14:57:00,
2013-06-13 09:58:00,70.3,70.3,28.73,NW,306,2.7,2.7,100,0.20,,---,0.47,VWS V14.00,2013-06-13 14:58:00,
2013-06-13 09:59:00,70.5,70.5,28.73,NW,306,2.7,2.7,100,0.20,,---,0.47,VWS V14.00,2013-06-13 14:59:00,
2013-06-13 10:00:00,70.5,70.5,28.73,NW,306,2.7,2.7,100,0.20,,---,0.47,VWS V14.00,2013-06-13 15:00:00,
2013-06-13 10:01:00,70.5,70.5,28.73,NW,306,2.7,2.7,100,0.20,,---,0.47,VWS V14.00,2013-06-13 15:01:00,
2013-06-13 10:02:00,70.5,70.5,28.73,NW,306,2.7,2.7,100,0.20,,---,0.47,VWS V14.00,2013-06-13 15:02:00,
2013-06-13 10:03:00,70.5,70.5,28.73,NW,306,2.7,2.7,100,0.20,,---,0.47,VWS V14.00,2013-06-13 15:03:00,
2013-06-13 10:04:00,70.5,70.5,28.73,NW,306,2.7,2.7,100,0.20,,---,0.47,VWS V14.00,2013-06-13 15:04:00,
2013-06-13 10:05:00,70.5,70.5,28.73,NW,306,2.7,2.7,100,0.20,,---,0.47,VWS V14.00,2013-06-13 15:05:00,
2013-06-13 10:06:00,70.5,70.5,28.76,NW,306,2.7,2.7,100,0.20,,---,0.47,VWS V14.00,2013-06-13 15:06:00,
2013-06-13 10:07:00,70.9,70.9,28.76,NW,306,2.7,2.7,100,0.20,,---,0.47,VWS V14.00,2013-06-13 15:07:00,
2013-06-13 10:08:00,71.2,71.2,28.76,NW,306,2.7,2.7,100,0.20,,---,0.47,VWS V14.00,2013-06-13 15:08:00,
2013-06-13 10:09:00,71.2,71.2,28.76,NW,306,2.7,2.7,100,0.20,,---,0.47,VWS V14.00,2013-06-13 15:09:00,
2013-06-13 10:10:00,71.2,71.2,28.76,NW,306,2.7,2.7,100,0.20,,---,0.47,VWS V14.00,2013-06-13 15:10:00,
2013-06-13 10:11:00,71.2,71.2,28.76,NW,306,2.7,2.7,100,0.20,,---,0.47,VWS V14.00,2013-06-13 15:11:00,
2013-06-13 10:12:00,71.1,71.1,28.76,NW,306,2.7,2.7,100,0.20,,---,0.47,VWS V14.00,2013-06-13 15:12:00,
2013-06-13 10:13:00,70.7,70.7,28.76,NW,306,2.7,2.7,100,0.20,,---,0.47,VWS V14.00,2013-06-13 15:13:00,
2013-06-13 10:14:00,70.7,70.7,28.76,NW,306,2.7,2.7,100,0.20,,---,0.47,VWS V14.00,2013-06-13 15:14:00,
2013-06-13 10:15:00,71.1,68.6,28.76,NW,306,2.7,2.7,92,0.20,,---,0.47,VWS V14.00,2013-06-13 15:15:00,
2013-06-13 10:16:00,71.1,68.6,28.76,NW,306,2.7,2.7,92,0.20,,---,0.47,VWS V14.00,2013-06-13 15:16:00,
2013-06-13 10:17:00,71.4,69.0,28.76,NW,306,2.7,2.7,92,0.20,,---,0.47,VWS V14.00,2013-06-13 15:17:00,
2013-06-13 10:18:00,71.4,69.0,28.76,NW,306,2.7,2.7,92,0.20,,---,0.47,VWS V14.00,2013-06-13 15:18:00,
2013-06-13 10:19:00,71.4,69.0,28.76,NW,306,2.7,2.7,92,0.20,,---,0.47,VWS V14.00,2013-06-13 15:19:00,
2013-06-13 10:20:00,71.4,69.0,28.76,NW,306,2.7,2.7,92,0.20,,---,0.47,VWS V14.00,2013-06-13 15:20:00,
2013-06-13 10:21:00,71.4,69.0,28.76,NW,306,2.7,2.7,92,0.20,,---,0.47,VWS V14.00,2013-06-13 15:21:00,
2013-06-13 10:22:00,71.4,69.0,28.76,NW,306,2.7,2.7,92,0.20,,---,0.47,VWS V14.00,2013-06-13 15:22:00,
2013-06-13 10:23:00,71.4,69.0,28.76,NW,306,2.7,2.7,92,0.20,,---,0.47,VWS V14.00,2013-06-13 15:23:00,
2013-06-13 10:24:00,71.1,68.6,28.76,NW,306,2.7,2.7,92,0.20,,---,0.47,VWS V14.00,2013-06-13 15:24:00,
2013-06-13 10:25:00,70.5,68.1,28.76,NW,306,2.7,2.7,92,0.20,,---,0.47,VWS V14.00,2013-06-13 15:25:00,
2013-06-13 10:26:00,70.5,68.1,28.76,NW,306,2.7,2.7,92,0.20,,---,0.47,VWS V14.00,2013-06-13 15:26:00,
2013-06-13 10:27:00,70.5,68.1,28.76,NW,306,2.7,2.7,92,0.20,,---,0.47,VWS V14.00,2013-06-13 15:27:00,
2013-06-13 10:28:00,70.5,68.1,28.76,NW,306,2.7,2.7,92,0.20,,---,0.47,VWS V14.00,2013-06-13 15:28:00,
2013-06-13 10:29:00,70.5,68.1,28.76,NW,306,2.7,2.7,92,0.20,,---,0.47,VWS V14.00,2013-06-13 15:29:00,
2013-06-13 10:30:00,70.5,68.1,28.76,NW,306,2.7,2.7,92,0.20,,---,0.47,VWS V14.00,2013-06-13 15:30:00,
2013-06-13 10:31:00,70.5,68.1,28.76,NW,306,2.7,2.7,92,0.20,,---,0.47,VWS V14.00,2013-06-13 15:31:00,
2013-06-13 10:32:00,69.4,68.2,28.76,NW,306,2.7,2.7,96,0.20,,---,0.47,VWS V14.00,2013-06-13 15:32:00,
2013-06-13 10:33:00,69.4,68.2,28.76,NW,306,2.7,2.7,96,0.20,,---,0.47,VWS V14.00,2013-06-13 15:33:00,
2013-06-13 10:34:00,69.6,69.6,28.76,NW,306,2.7,2.7,100,0.20,,---,0.47,VWS V14.00,2013-06-13 15:34:00,
2013-06-13 10:35:00,69.6,69.6,28.76,NW,306,2.7,2.7,100,0.20,,---,0.47,VWS V14.00,2013-06-13 15:35:00,
2013-06-13 10:36:00,69.6,69.6,28.76,NW,306,2.7,2.7,100,0.20,,---,0.47,VWS V14.00,2013-06-13 15:36:00,
2013-06-13 10:37:00,69.6,69.6,28.76,NW,306,2.7,2.7,100,0.20,,---,0.47,VWS V14.00,2013-06-13 15:37:00,
2013-06-13 10:38:00,69.6,69.6,28.76,NW,306,2.7,2.7,100,0.20,,---,0.47,VWS V14.00,2013-06-13 15:38:00,
2013-06-13 10:39:00,69.6,69.6,28.76,NW,306,2.7,2.7,100,0.20,,---,0.47,VWS V14.00,2013-06-13 15:39:00,
2013-06-13 10:40:00,69.6,69.6,28.76,NW,306,2.7,2.7,100,0.20,,---,0.47,VWS V14.00,2013-06-13 15:40:00,
2013-06-13 10:41:00,69.4,69.4,28.76,NW,306,2.7,2.7,100,0.20,,---,0.47,VWS V14.00,2013-06-13 15:41:00,
2013-06-13 10:42:00,69.4,69.4,28.76,NW,306,2.7,2.7,100,0.20,,---,0.47,VWS V14.00,2013-06-13 15:42:00,
2013-06-13 10:43:00,69.8,69.8,28.76,NW,306,2.7,2.7,100,0.20,,---,0.47,VWS V14.00,2013-06-13 15:43:00,
2013-06-13 10:44:00,69.8,69.8,28.76,NW,306,2.7,2.7,100,0.20,,---,0.47,VWS V14.00,2013-06-13 15:44:00,
2013-06-13 10:45:00,69.8,69.8,28.76,NW,306,2.7,2.7,100,0.20,,---,0.47,VWS V14.00,2013-06-13 15:45:00,
2013-06-13 10:46:00,69.8,69.8,28.76,NW,306,2.7,2.7,100,0.20,,---,0.47,VWS V14.00,2013-06-13 15:46:00,
2013-06-13 10:47:00,69.8,69.8,28.76,NW,306,2.7,2.7,100,0.20,,---,0.47,VWS V14.00,2013-06-13 15:47:00,
2013-06-13 10:48:00,69.8,69.8,28.76,NW,306,2.7,2.7,100,0.00,,---,0.47,VWS V14.00,2013-06-13 15:48:00,
2013-06-13 10:49:00,69.8,69.8,28.76,NW,306,2.7,2.7,100,0.00,,---,0.47,VWS V14.00,2013-06-13 15:49:00,
2013-06-13 10:50:00,71.6,70.4,28.76,NW,306,2.7,2.7,96,0.00,,---,0.47,VWS V14.00,2013-06-13 15:50:00,
2013-06-13 10:51:00,71.6,67.9,28.76,NW,306,2.7,2.7,88,0.00,,---,0.47,VWS V14.00,2013-06-13 15:51:00,
2013-06-13 10:52:00,71.6,67.9,28.76,NW,306,2.7,2.7,88,0.00,,---,0.47,VWS V14.00,2013-06-13 15:52:00,
2013-06-13 10:53:00,71.6,67.9,28.76,NW,306,2.7,2.7,88,0.00,,---,0.47,VWS V14.00,2013-06-13 15:53:00,
2013-06-13 10:54:00,71.6,67.9,28.76,NW,306,2.7,2.7,88,0.00,,---,0.47,VWS V14.00,2013-06-13 15:54:00,
2013-06-13 10:55:00,71.6,67.9,28.76,NW,306,2.7,2.7,88,0.00,,---,0.47,VWS V14.00,2013-06-13 15:55:00,
2013-06-13 10:56:00,71.6,67.9,28.76,NW,306,2.7,2.7,88,0.00,,---,0.47,VWS V14.00,2013-06-13 15:56:00,
2013-06-13 10:57:00,71.6,67.9,28.76,NW,306,2.7,2.7,88,0.00,,---,0.47,VWS V14.00,2013-06-13 15:57:00,
2013-06-13 10:58:00,70.9,68.4,28.76,NW,306,2.7,2.7,92,0.00,,---,0.47,VWS V14.00,2013-06-13 15:58:00,
2013-06-13 10:59:00,70.9,68.4,28.76,NW,306,2.7,2.7,92,0.00,,---,0.47,VWS V14.00,2013-06-13 15:59:00,
2013-06-13 11:00:00,70.5,68.1,28.76,NW,306,2.7,2.7,92,0.00,,---,0.47,VWS V14.00,2013-06-13 16:00:00,
2013-06-13 11:01:00,70.5,68.1,28.76,NW,306,2.7,2.7,92,0.00,,---,0.47,VWS V14.00,2013-06-13 16:01:00,
2013-06-13 11:02:00,70.2,67.7,28.76,NW,306,2.7,2.7,92,0.00,,---,0.47,VWS V14.00,2013-06-13 16:02:00,
2013-06-13 11:03:00,70.2,67.7,28.76,NW,306,2.7,2.7,92,0.00,,---,0.47,VWS V14.00,2013-06-13 16:03:00,
2013-06-13 11:04:00,70.2,67.7,28.76,NW,306,2.7,2.7,92,0.00,,---,0.47,VWS V14.00,2013-06-13 16:04:00,
2013-06-13 11:05:00,70.2,67.7,28.76,NW,306,2.7,2.7,92,0.00,,---,0.47,VWS V14.00,2013-06-13 16:05:00,
2013-06-13 11:06:00,69.6,68.4,28.76,NW,306,2.7,2.7,96,0.00,,---,0.47,VWS V14.00,2013-06-13 16:06:00,
2013-06-13 11:07:00,69.6,68.4,28.76,NW,306,2.7,2.7,96,0.00,,---,0.47,VWS V14.00,2013-06-13 16:07:00,
2013-06-13 11:08:00,69.6,68.4,28.76,NW,306,2.7,2.7,96,0.00,,---,0.47,VWS V14.00,2013-06-13 16:08:00,
2013-06-13 11:09:00,69.6,69.6,28.79,NW,306,2.7,2.7,100,0.00,,---,0.47,VWS V14.00,2013-06-13 16:09:00,
2013-06-13 11:10:00,69.4,68.2,28.79,NW,306,2.7,2.7,96,0.00,,---,0.47,VWS V14.00,2013-06-13 16:10:00,
2013-06-13 11:11:00,69.4,68.2,28.79,NW,306,2.7,2.7,96,0.00,,---,0.47,VWS V14.00,2013-06-13 16:11:00,
2013-06-13 11:12:00,69.4,68.2,28.79,NW,306,2.7,2.7,96,0.00,,---,0.47,VWS V14.00,2013-06-13 16:12:00,
2013-06-13 11:13:00,69.4,68.2,28.79,NW,306,2.7,2.7,96,0.00,,---,0.47,VWS V14.00,2013-06-13 16:13:00,
2013-06-13 11:14:00,69.4,68.2,28.79,NW,306,2.7,2.7,96,0.00,,---,0.47,VWS V14.00,2013-06-13 16:14:00,
2013-06-13 11:15:00,69.4,68.2,28.79,NW,306,2.7,2.7,96,0.00,,---,0.47,VWS V14.00,2013-06-13 16:15:00,
2013-06-13 11:16:00,69.4,68.2,28.79,NW,306,2.7,2.7,96,0.00,,---,0.47,VWS V14.00,2013-06-13 16:16:00,
2013-06-13 11:17:00,69.3,68.1,28.79,NW,306,2.7,2.7,96,0.00,,---,0.47,VWS V14.00,2013-06-13 16:17:00,
2013-06-13 11:18:00,69.3,68.1,28.79,NW,306,2.7,2.7,96,0.00,,---,0.47,VWS V14.00,2013-06-13 16:18:00,
2013-06-13 11:19:00,69.3,68.1,28.79,NW,306,2.7,2.7,96,0.00,,---,0.47,VWS V14.00,2013-06-13 16:19:00,
2013-06-13 11:20:00,69.3,68.1,28.79,NW,306,2.7,2.7,96,0.00,,---,0.47,VWS V14.00,2013-06-13 16:20:00,
2013-06-13 11:21:00,69.3,68.1,28.79,NW,306,2.7,2.7,96,0.00,,---,0.47,VWS V14.00,2013-06-13 16:21:00,
2013-06-13 11:22:00,69.3,68.1,28.79,NW,306,2.7,2.7,96,0.00,,---,0.47,VWS V14.00,2013-06-13 16:22:00,
2013-06-13 11:23:00,69.3,68.1,28.79,NW,306,2.7,2.7,96,0.00,,---,0.47,VWS V14.00,2013-06-13 16:23:00,
2013-06-13 11:24:00,70.0,67.6,28.79,NW,306,2.7,2.7,92,0.00,,---,0.47,VWS V14.00,2013-06-13 16:24:00,
2013-06-13 11:25:00,70.3,67.9,28.79,NW,306,2.7,2.7,92,0.00,,---,0.47,VWS V14.00,2013-06-13 16:25:00,
2013-06-13 11:26:00,70.3,67.9,28.79,NW,306,2.7,2.7,92,0.00,,---,0.47,VWS V14.00,2013-06-13 16:26:00,
2013-06-13 11:27:00,70.3,67.9,28.79,NW,306,2.7,2.7,92,0.00,,---,0.47,VWS V14.00,2013-06-13 16:27:00,
2013-06-13 11:28:00,70.7,68.3,28.79,NW,306,2.7,2.7,92,0.00,,---,0.47,VWS V14.00,2013-06-13 16:28:00,
2013-06-13 11:29:00,70.7,68.3,28.79,NW,306,2.7,2.7,92,0.00,,---,0.47,VWS V14.00,2013-06-13 16:29:00,
2013-06-13 11:30:00,71.8,68.0,28.79,NW,306,2.7,2.7,88,0.00,,---,0.47,VWS V14.00,2013-06-13 16:30:00,
2013-06-13 11:31:00,71.8,68.0,28.79,NW,306,2.7,2.7,88,0.00,,---,0.47,VWS V14.00,2013-06-13 16:31:00,
2013-06-13 11:32:00,71.8,68.0,28.79,NW,306,2.7,2.7,88,0.00,,---,0.47,VWS V14.00,2013-06-13 16:32:00,
2013-06-13 11:33:00,72.5,68.8,28.79,NW,306,2.7,2.7,88,0.00,,---,0.47,VWS V14.00,2013-06-13 16:33:00,
2013-06-13 11:34:00,72.5,68.8,28.79,NW,306,2.7,2.7,88,0.00,,---,0.47,VWS V14.00,2013-06-13 16:34:00,
2013-06-13 11:35:00,72.7,68.9,28.79,NW,306,2.7,2.7,88,0.00,,---,0.47,VWS V14.00,2013-06-13 16:35:00,
2013-06-13 11:36:00,72.7,68.9,28.79,NW,306,2.7,2.7,88,0.00,,---,0.47,VWS V14.00,2013-06-13 16:36:00,
2013-06-13 11:37:00,72.7,68.9,28.79,NW,306,2.7,2.7,88,0.00,,---,0.47,VWS V14.00,2013-06-13 16:37:00,
2013-06-13 11:38:00,72.7,68.9,28.79,NW,306,2.7,2.7,88,0.00,,---,0.47,VWS V14.00,2013-06-13 16:38:00,
2013-06-13 11:39:00,72.9,69.1,28.79,NW,306,2.7,2.7,88,0.00,,---,0.47,VWS V14.00,2013-06-13 16:39:00,
2013-06-13 11:40:00,72.9,69.1,28.79,NW,306,2.7,2.7,88,0.00,,---,0.47,VWS V14.00,2013-06-13 16:40:00,
2013-06-13 11:41:00,73.2,69.5,28.79,NW,306,2.7,2.7,88,0.00,,---,0.47,VWS V14.00,2013-06-13 16:41:00,
2013-06-13 11:42:00,73.2,69.5,28.79,NW,306,2.7,2.7,88,0.00,,---,0.47,VWS V14.00,2013-06-13 16:42:00,
2013-06-13 11:43:00,73.2,69.5,28.79,NW,306,2.7,2.7,88,0.00,,---,0.47,VWS V14.00,2013-06-13 16:43:00,
2013-06-13 11:44:00,73.2,69.5,28.79,NW,306,2.7,2.7,88,0.00,,---,0.47,VWS V14.00,2013-06-13 16:44:00,
2013-06-13 11:45:00,73.2,69.5,28.79,NW,306,2.7,2.7,88,0.00,,---,0.47,VWS V14.00,2013-06-13 16:45:00,
2013-06-13 11:46:00,73.2,69.5,28.79,NW,306,2.7,2.7,88,0.00,,---,0.47,VWS V14.00,2013-06-13 16:46:00,
2013-06-13 11:47:00,73.2,69.5,28.79,NW,306,2.7,2.7,88,0.00,,---,0.47,VWS V14.00,2013-06-13 16:47:00,
2013-06-13 11:48:00,73.2,69.5,28.79,NW,306,2.7,2.7,88,0.00,,---,0.47,VWS V14.00,2013-06-13 16:48:00,
2013-06-13 11:49:00,73.2,69.5,28.79,NW,306,2.7,2.7,88,0.00,,---,0.47,VWS V14.00,2013-06-13 16:49:00,
2013-06-13 11:50:00,73.2,68.1,28.79,NW,306,2.7,2.7,84,0.00,,---,0.47,VWS V14.00,2013-06-13 16:50:00,
2013-06-13 11:51:00,73.2,68.1,28.79,NW,306,2.7,2.7,84,0.00,,---,0.47,VWS V14.00,2013-06-13 16:51:00,
2013-06-13 11:52:00,73.2,68.1,28.79,NW,306,2.7,2.7,84,0.00,,---,0.47,VWS V14.00,2013-06-13 16:52:00,
2013-06-13 11:53:00,73.2,68.1,28.79,NW,306,2.7,2.7,84,0.00,,---,0.47,VWS V14.00,2013-06-13 16:53:00,
2013-06-13 11:54:00,73.2,68.1,28.79,NW,306,2.7,2.7,84,0.00,,---,0.47,VWS V14.00,2013-06-13 16:54:00,
2013-06-13 11:55:00,73.2,68.1,28.79,NW,306,2.7,2.7,84,0.00,,---,0.47,VWS V14.00,2013-06-13 16:55:00,
2013-06-13 11:56:00,73.2,68.1,28.79,NW,306,2.7,2.7,84,0.00,,---,0.47,VWS V14.00,2013-06-13 16:56:00,
2013-06-13 11:57:00,73.2,68.1,28.79,NW,306,2.7,2.7,84,0.00,,---,0.47,VWS V14.00,2013-06-13 16:57:00,
2013-06-13 11:58:00,73.2,68.1,28.79,NW,306,2.7,2.7,84,0.00,,---,0.47,VWS V14.00,2013-06-13 16:58:00,
2013-06-13 11:59:00,71.8,68.0,28.79,NW,306,2.7,2.7,88,0.00,,---,0.47,VWS V14.00,2013-06-13 16:59:00,
2013-06-13 12:00:00,71.8,68.0,28.79,NW,306,2.7,2.7,88,0.00,,---,0.47,VWS V14.00,2013-06-13 17:00:00,
2013-06-13 12:01:00,71.8,68.0,28.79,NW,306,2.7,2.7,88,0.00,,---,0.47,VWS V14.00,2013-06-13 17:01:00,
2013-06-13 12:02:00,71.8,68.0,28.79,NW,306,2.7,2.7,88,0.00,,---,0.47,VWS V14.00,2013-06-13 17:02:00,
2013-06-13 12:03:00,71.8,68.0,28.79,NW,306,2.7,2.7,88,0.00,,---,0.47,VWS V14.00,2013-06-13 17:03:00,
2013-06-13 12:04:00,71.8,68.0,28.79,NW,306,2.7,2.7,88,0.00,,---,0.47,VWS V14.00,2013-06-13 17:04:00,
2013-06-13 12:05:00,71.8,68.0,28.79,NW,306,2.7,2.7,88,0.00,,---,0.47,VWS V14.00,2013-06-13 17:05:00,
2013-06-13 12:06:00,71.8,68.0,28.79,NW,306,2.7,2.7,88,0.00,,---,0.47,VWS V14.00,2013-06-13 17:06:00,
2013-06-13 12:07:00,73.9,68.8,28.79,NW,306,2.7,2.7,84,0.00,,---,0.47,VWS V14.00,2013-06-13 17:07:00,
2013-06-13 12:08:00,73.9,68.8,28.79,NW,306,2.7,2.7,84,0.00,,---,0.47,VWS V14.00,2013-06-13 17:08:00,
2013-06-13 12:09:00,73.9,68.8,28.79,NW,306,2.7,2.7,84,0.00,,---,0.47,VWS V14.00,2013-06-13 17:09:00,
2013-06-13 12:10:00,73.9,68.8,28.79,NW,306,2.7,2.7,84,0.00,,---,0.47,VWS V14.00,2013-06-13 17:10:00,
2013-06-13 12:11:00,73.9,68.8,28.79,NW,306,2.7,2.7,84,0.00,,---,0.47,VWS V14.00,2013-06-13 17:11:00,
2013-06-13 12:12:00,73.9,68.8,28.79,NW,306,2.7,2.7,84,0.00,,---,0.47,VWS V14.00,2013-06-13 17:12:00,
2013-06-13 12:13:00,73.9,68.8,28.79,NW,306,2.7,2.7,84,0.00,,---,0.47,VWS V14.00,2013-06-13 17:13:00,
2013-06-13 12:14:00,73.9,68.8,28.79,NW,306,2.7,2.7,84,0.00,,---,0.47,VWS V14.00,2013-06-13 17:14:00,
2013-06-13 12:15:00,73.9,68.8,28.79,NW,306,2.7,2.7,84,0.00,,---,0.47,VWS V14.00,2013-06-13 17:15:00,
2013-06-13 12:16:00,74.3,69.2,28.79,NW,306,2.7,2.7,84,0.00,,---,0.47,VWS V14.00,2013-06-13 17:16:00,
2013-06-13 12:17:00,74.3,69.2,28.79,NW,306,2.7,2.7,84,0.00,,---,0.47,VWS V14.00,2013-06-13 17:17:00,
2013-06-13 12:18:00,74.3,69.2,28.79,NW,306,2.7,2.7,84,0.00,,---,0.47,VWS V14.00,2013-06-13 17:18:00,
2013-06-13 12:19:00,74.3,69.2,28.79,NW,306,2.7,2.7,84,0.00,,---,0.47,VWS V14.00,2013-06-13 17:19:00,
2013-06-13 12:20:00,74.3,69.2,28.79,NW,306,2.7,2.7,84,0.00,,---,0.47,VWS V14.00,2013-06-13 17:20:00,
2013-06-13 12:21:00,74.3,69.2,28.79,NW,306,2.7,2.7,84,0.00,,---,0.47,VWS V14.00,2013-06-13 17:21:00,
2013-06-13 12:22:00,74.3,69.2,28.79,NW,306,2.7,2.7,84,0.00,,---,0.47,VWS V14.00,2013-06-13 17:22:00,
2013-06-13 12:23:00,74.3,69.2,28.79,NW,306,2.7,2.7,84,0.00,,---,0.47,VWS V14.00,2013-06-13 17:23:00,
2013-06-13 12:24:00,74.3,69.2,28.79,NW,306,2.7,2.7,84,0.00,,---,0.47,VWS V14.00,2013-06-13 17:24:00,
2013-06-13 12:25:00,70.3,66.6,28.79,NW,306,2.7,2.7,88,0.00,,---,0.47,VWS V14.00,2013-06-13 17:25:00,
2013-06-13 12:26:00,70.3,66.6,28.79,NW,306,2.7,2.7,88,0.00,,---,0.47,VWS V14.00,2013-06-13 17:26:00,
2013-06-13 12:27:00,70.3,66.6,28.79,NW,306,2.7,2.7,88,0.00,,---,0.47,VWS V14.00,2013-06-13 17:27:00,
2013-06-13 12:28:00,70.3,66.6,28.79,NW,306,2.7,2.7,88,0.00,,---,0.47,VWS V14.00,2013-06-13 17:28:00,
2013-06-13 12:29:00,70.3,66.6,28.79,NW,306,2.7,2.7,88,0.00,,---,0.47,VWS V14.00,2013-06-13 17:29:00,
2013-06-13 12:30:00,70.3,66.6,28.79,NW,306,2.7,2.7,88,0.00,,---,0.47,VWS V14.00,2013-06-13 17:30:00,
2013-06-13 12:31:00,70.3,66.6,28.79,NW,306,2.7,2.7,88,0.00,,---,0.47,VWS V14.00,2013-06-13 17:31:00,
2013-06-13 12:32:00,70.3,66.6,28.79,NW,306,2.7,2.7,88,0.00,,---,0.47,VWS V14.00,2013-06-13 17:32:00,
2013-06-13 12:33:00,66.9,66.9,28.79,NW,306,2.7,2.7,100,0.00,,---,0.47,VWS V14.00,2013-06-13 17:33:00,
2013-06-13 12:34:00,66.9,66.9,28.79,NW,306,2.7,2.7,100,0.00,,---,0.47,VWS V14.00,2013-06-13 17:34:00,
2013-06-13 12:35:00,66.9,66.9,28.82,NW,306,2.7,2.7,100,0.00,,---,0.47,VWS V14.00,2013-06-13 17:35:00,
2013-06-13 12:36:00,66.9,66.9,28.82,NW,306,2.7,2.7,100,0.00,,---,0.47,VWS V14.00,2013-06-13 17:36:00,
2013-06-13 12:37:00,66.9,66.9,28.82,NW,306,2.7,2.7,100,0.00,,---,0.47,VWS V14.00,2013-06-13 17:37:00,
2013-06-13 12:38:00,66.9,66.9,28.82,NW,306,2.7,2.7,100,0.00,,---,0.47,VWS V14.00,2013-06-13 17:38:00,
2013-06-13 12:39:00,66.9,66.9,28.82,NW,306,2.7,2.7,100,0.00,,---,0.47,VWS V14.00,2013-06-13 17:39:00,
2013-06-13 12:40:00,66.9,66.9,28.82,NW,306,2.7,2.7,100,0.00,,---,0.47,VWS V14.00,2013-06-13 17:40:00,
2013-06-13 12:41:00,66.9,66.9,28.82,NW,306,2.7,2.7,100,0.00,,---,0.47,VWS V14.00,2013-06-13 17:41:00,
2013-06-13 12:42:00,67.3,67.3,28.82,NW,306,2.7,2.7,100,0.00,,---,0.47,VWS V14.00,2013-06-13 17:42:00,
2013-06-13 12:43:00,67.3,67.3,28.82,NW,306,2.7,2.7,100,0.00,,---,0.47,VWS V14.00,2013-06-13 17:43:00,
2013-06-13 12:44:00,67.3,67.3,28.82,NW,306,2.7,2.7,100,0.00,,---,0.47,VWS V14.00,2013-06-13 17:44:00,
2013-06-13 12:45:00,67.3,67.3,28.82,NW,306,2.7,2.7,100,0.00,,---,0.47,VWS V14.00,2013-06-13 17:45:00,
2013-06-13 12:46:00,67.3,67.3,28.82,NW,306,2.7,2.7,100,0.00,,---,0.47,VWS V14.00,2013-06-13 17:46:00,
2013-06-13 12:47:00,67.3,67.3,28.82,NW,306,2.7,2.7,100,0.00,,---,0.47,VWS V14.00,2013-06-13 17:47:00,
2013-06-13 12:48:00,67.3,67.3,28.82,NW,306,2.7,2.7,100,0.00,,---,0.47,VWS V14.00,2013-06-13 17:48:00,
2013-06-13 12:49:00,67.3,67.3,28.82,NW,306,2.7,2.7,100,0.00,,---,0.47,VWS V14.00,2013-06-13 17:49:00,
2013-06-13 12:50:00,67.3,67.3,28.82,NW,306,2.7,2.7,100,0.00,,---,0.47,VWS V14.00,2013-06-13 17:50:00,
2013-06-13 12:51:00,69.4,69.4,28.82,NW,306,2.7,2.7,100,0.00,,---,0.47,VWS V14.00,2013-06-13 17:51:00,
2013-06-13 12:52:00,69.4,69.4,28.82,NW,306,2.7,2.7,100,0.00,,---,0.47,VWS V14.00,2013-06-13 17:52:00,
2013-06-13 12:53:00,69.4,69.4,28.82,NW,306,2.7,2.7,100,0.00,,---,0.47,VWS V14.00,2013-06-13 17:53:00,
2013-06-13 12:54:00,69.4,69.4,28.82,NW,306,2.7,2.7,100,0.00,,---,0.47,VWS V14.00,2013-06-13 17:54:00,
2013-06-13 12:55:00,69.4,69.4,28.82,NW,306,2.7,2.7,100,0.00,,---,0.47,VWS V14.00,2013-06-13 17:55:00,
2013-06-13 12:56:00,69.4,69.4,28.82,NW,306,2.7,2.7,100,0.00,,---,0.47,VWS V14.00,2013-06-13 17:56:00,
2013-06-13 12:57:00,69.4,69.4,28.82,NW,306,2.7,2.7,100,0.00,,---,0.47,VWS V14.00,2013-06-13 17:57:00,
2013-06-13 12:58:00,69.4,69.4,28.82,NW,306,2.7,2.7,100,0.00,,---,0.47,VWS V14.00,2013-06-13 17:58:00,
2013-06-13 12:59:00,71.6,67.9,28.82,NW,306,2.7,2.7,88,0.00,,---,0.47,VWS V14.00,2013-06-13 17:59:00,
2013-06-13 13:00:00,71.6,67.9,28.82,NW,306,2.7,2.7,88,0.00,,---,0.47,VWS V14.00,2013-06-13 18:00:00,
2013-06-13 13:01:00,71.6,67.9,28.82,NW,306,2.7,2.7,88,0.00,,---,0.47,VWS V14.00,2013-06-13 18:01:00,
2013-06-13 13:02:00,71.6,67.9,28.82,NW,306,2.7,2.7,88,0.00,,---,0.47,VWS V14.00,2013-06-13 18:02:00,
2013-06-13 13:03:00,71.6,67.9,28.82,NW,306,2.7,2.7,88,0.00,,---,0.47,VWS V14.00,2013-06-13 18:03:00,
2013-06-13 13:04:00,71.6,67.9,28.82,NW,306,2.7,2.7,88,0.00,,---,0.47,VWS V14.00,2013-06-13 18:04:00,
2013-06-13 13:05:00,73.0,67.9,28.82,NW,306,2.7,2.7,84,0.00,,---,0.47,VWS V14.00,2013-06-13 18:05:00,
2013-06-13 13:06:00,73.0,67.9,28.82,NW,306,2.7,2.7,84,0.00,,---,0.47,VWS V14.00,2013-06-13 18:06:00,
2013-06-13 13:07:00,73.0,67.9,28.82,NW,306,2.7,2.7,84,0.00,,---,0.47,VWS V14.00,2013-06-13 18:07:00,
2013-06-13 13:08:00,73.0,67.9,28.82,NW,306,2.7,2.7,84,0.00,,---,0.47,VWS V14.00,2013-06-13 18:08:00,
2013-06-13 13:09:00,73.0,67.9,28.82,NW,306,2.7,2.7,84,0.00,,---,0.47,VWS V14.00,2013-06-13 18:09:00,
2013-06-13 13:10:00,73.0,67.9,28.82,NW,306,2.7,2.7,84,0.00,,---,0.47,VWS V14.00,2013-06-13 18:10:00,
2013-06-13 13:11:00,73.0,67.9,28.82,NW,306,2.7,2.7,84,0.00,,---,0.47,VWS V14.00,2013-06-13 18:11:00,
2013-06-13 13:12:00,73.0,67.9,28.82,NW,306,2.7,2.7,84,0.00,,---,0.47,VWS V14.00,2013-06-13 18:12:00,
2013-06-13 13:13:00,73.0,67.9,28.82,NW,306,2.7,2.7,84,0.00,,---,0.47,VWS V14.00,2013-06-13 18:13:00,
2013-06-13 13:14:00,73.0,67.9,28.82,NW,306,2.7,2.7,84,0.00,,---,0.47,VWS V14.00,2013-06-13 18:14:00,
2013-06-13 13:15:00,73.0,67.9,28.82,NW,306,2.7,2.7,84,0.00,,---,0.47,VWS V14.00,2013-06-13 18:15:00,
2013-06-13 13:16:00,74.7,69.5,28.82,NW,306,2.7,2.7,84,0.00,,---,0.47,VWS V14.00,2013-06-13 18:16:00,
2013-06-13 13:17:00,74.7,69.5,28.82,NW,306,2.7,2.7,84,0.00,,---,0.47,VWS V14.00,2013-06-13 18:17:00,
2013-06-13 13:18:00,74.7,69.5,28.82,NW,306,2.7,2.7,84,0.00,,---,0.47,VWS V14.00,2013-06-13 18:18:00,
2013-06-13 13:19:00,74.7,69.5,28.82,NW,306,2.7,2.7,84,0.00,,---,0.47,VWS V14.00,2013-06-13 18:19:00,
2013-06-13 13:20:00,74.7,69.5,28.82,NW,306,2.7,2.7,84,0.00,,---,0.47,VWS V14.00,2013-06-13 18:20:00,
2013-06-13 13:21:00,74.7,69.5,28.82,NW,306,2.7,2.7,84,0.00,,---,0.47,VWS V14.00,2013-06-13 18:21:00,
2013-06-13 13:22:00,74.7,69.5,28.82,NW,306,2.7,2.7,84,0.00,,---,0.47,VWS V14.00,2013-06-13 18:22:00,
2013-06-13 13:23:00,74.7,69.5,28.82,NW,306,2.7,2.7,84,0.00,,---,0.47,VWS V14.00,2013-06-13 18:23:00,
2013-06-13 13:24:00,74.7,69.5,28.82,NW,306,2.7,2.7,84,0.00,,---,0.47,VWS V14.00,2013-06-13 18:24:00,
2013-06-13 13:25:00,74.1,64.5,28.82,NW,306,2.7,2.7,72,0.00,,---,0.47,VWS V14.00,2013-06-13 18:25:00,
2013-06-13 13:26:00,74.1,64.5,28.82,NW,306,2.7,2.7,72,0.00,,---,0.47,VWS V14.00,2013-06-13 18:26:00,
2013-06-13 13:27:00,74.1,64.5,28.82,NW,306,2.7,2.7,72,0.00,,---,0.47,VWS V14.00,2013-06-13 18:27:00,
2013-06-13 13:28:00,74.1,64.5,28.82,NW,306,2.7,2.7,72,0.00,,---,0.47,VWS V14.00,2013-06-13 18:28:00,
2013-06-13 13:29:00,74.1,64.5,28.82,NW,306,2.7,2.7,72,0.00,,---,0.47,VWS V14.00,2013-06-13 18:29:00,
2013-06-13 13:30:00,74.1,64.5,28.82,NW,306,2.7,2.7,72,0.00,,---,0.47,VWS V14.00,2013-06-13 18:30:00,
2013-06-13 13:31:00,74.1,64.5,28.82,NW,306,2.7,2.7,72,0.00,,---,0.47,VWS V14.00,2013-06-13 18:31:00,
2013-06-13 13:32:00,74.1,64.5,28.82,NW,306,2.7,2.7,72,0.00,,---,0.47,VWS V14.00,2013-06-13 18:32:00,
2013-06-13 13:33:00,74.1,64.5,28.82,NW,306,2.7,2.7,72,0.00,,---,0.47,VWS V14.00,2013-06-13 18:33:00,
2013-06-13 13:34:00,75.0,69.9,28.82,NW,306,2.7,2.7,84,0.00,,---,0.47,VWS V14.00,2013-06-13 18:34:00,
2013-06-13 13:35:00,75.0,69.9,28.82,NW,306,2.7,2.7,84,0.00,,---,0.47,VWS V14.00,2013-06-13 18:35:00,
2013-06-13 13:36:00,75.0,69.9,28.82,NW,306,2.7,2.7,84,0.00,,---,0.47,VWS V14.00,2013-06-13 18:36:00,
2013-06-13 13:37:00,75.0,69.9,28.82,NW,306,2.7,2.7,84,0.00,,---,0.47,VWS V14.00,2013-06-13 18:37:00,
2013-06-13 13:38:00,75.0,69.9,28.82,NW,306,2.7,2.7,84,0.00,,---,0.47,VWS V14.00,2013-06-13 18:38:00,
2013-06-13 13:39:00,75.0,69.9,28.82,NW,306,2.7,2.7,84,0.00,,---,0.47,VWS V14.00,2013-06-13 18:39:00,
2013-06-13 13:40:00,75.0,69.9,28.82,NW,306,2.7,2.7,84,0.00,,---,0.47,VWS V14.00,2013-06-13 18:40:00,
2013-06-13 13:41:00,75.0,69.9,28.82,NW,306,2.7,2.7,84,0.00,,---,0.47,VWS V14.00,2013-06-13 18:41:00,
2013-06-13 13:42:00,75.6,65.9,28.82,NW,306,2.7,2.7,72,0.00,,---,0.47,VWS V14.00,2013-06-13 18:42:00,
2013-06-13 13:43:00,75.6,65.9,28.82,NW,306,2.7,2.7,72,0.00,,---,0.47,VWS V14.00,2013-06-13 18:43:00,
2013-06-13 13:44:00,75.7,66.1,28.82,NW,306,2.7,2.7,72,0.00,,---,0.47,VWS V14.00,2013-06-13 18:44:00,
2013-06-13 13:45:00,75.7,66.1,28.82,NW,306,2.7,2.7,72,0.00,,---,0.47,VWS V14.00,2013-06-13 18:45:00,
2013-06-13 13:46:00,75.7,66.1,28.82,NW,306,2.7,2.7,72,0.00,,---,0.47,VWS V14.00,2013-06-13 18:46:00,
2013-06-13 13:47:00,75.7,66.1,28.82,NW,306,2.7,2.7,72,0.00,,---,0.47,VWS V14.00,2013-06-13 18:47:00,
2013-06-13 13:48:00,75.7,66.1,28.82,NW,306,2.7,2.7,72,0.00,,---,0.47,VWS V14.00,2013-06-13 18:48:00,
2013-06-13 13:49:00,75.7,66.1,28.82,NW,306,2.7,2.7,72,0.00,,---,0.47,VWS V14.00,2013-06-13 18:49:00,
2013-06-13 13:50:00,75.7,66.1,28.82,NW,306,2.7,2.7,72,0.00,,---,0.47,VWS V14.00,2013-06-13 18:50:00,
2013-06-13 13:51:00,76.3,66.6,28.82,NW,306,2.7,2.7,72,0.00,,---,0.47,VWS V14.00,2013-06-13 18:51:00,
2013-06-13 13:52:00,76.3,66.6,28.82,NW,306,2.7,2.7,72,0.00,,---,0.47,VWS V14.00,2013-06-13 18:52:00,
2013-06-13 13:53:00,76.3,66.6,28.82,NW,306,2.7,2.7,72,0.00,,---,0.47,VWS V14.00,2013-06-13 18:53:00,
2013-06-13 13:54:00,76.3,66.6,28.82,NW,306,2.7,2.7,72,0.00,,---,0.47,VWS V14.00,2013-06-13 18:54:00,
2013-06-13 13:55:00,76.3,66.6,28.82,NW,306,2.7,2.7,72,0.00,,---,0.47,VWS V14.00,2013-06-13 18:55:00,
2013-06-13 13:56:00,76.3,66.6,28.82,NW,306,2.7,2.7,72,0.00,,---,0.47,VWS V14.00,2013-06-13 18:56:00,
2013-06-13 13:57:00,76.3,66.6,28.82,NW,306,2.7,2.7,72,0.00,,---,0.47,VWS V14.00,2013-06-13 18:57:00,
2013-06-13 13:58:00,76.3,66.6,28.82,NW,306,2.7,2.7,72,0.00,,---,0.47,VWS V14.00,2013-06-13 18:58:00,
2013-06-13 13:59:00,76.3,66.6,28.82,NW,306,2.7,2.7,72,0.00,,---,0.47,VWS V14.00,2013-06-13 18:59:00,
2013-06-13 14:00:00,76.5,66.8,28.82,NW,306,2.7,2.7,72,0.00,,---,0.47,VWS V14.00,2013-06-13 19:00:00,
2013-06-13 14:01:00,76.5,66.8,28.82,NW,306,2.7,2.7,72,0.00,,---,0.47,VWS V14.00,2013-06-13 19:01:00,
2013-06-13 14:02:00,76.5,66.8,28.82,NW,306,2.7,2.7,72,0.00,,---,0.47,VWS V14.00,2013-06-13 19:02:00,
2013-06-13 14:03:00,76.6,66.9,28.82,NW,306,2.7,2.7,72,0.00,,---,0.47,VWS V14.00,2013-06-13 19:03:00,
2013-06-13 14:04:00,76.6,66.9,28.82,NW,306,2.7,2.7,72,0.00,,---,0.47,VWS V14.00,2013-06-13 19:04:00,
2013-06-13 14:05:00,76.6,66.9,28.82,NW,306,2.7,2.7,72,0.00,,---,0.47,VWS V14.00,2013-06-13 19:05:00,
2013-06-13 14:06:00,76.6,66.9,28.85,NW,306,2.7,2.7,72,0.00,,---,0.47,VWS V14.00,2013-06-13 19:06:00,
2013-06-13 14:07:00,76.6,66.9,28.85,NW,306,2.7,2.7,72,0.00,,---,0.47,VWS V14.00,2013-06-13 19:07:00,
2013-06-13 14:08:00,76.5,66.8,28.85,NW,306,2.7,2.7,72,0.00,,---,0.47,VWS V14.00,2013-06-13 19:08:00,
2013-06-13 14:09:00,76.5,66.8,28.85,NW,306,2.7,2.7,72,0.00,,---,0.47,VWS V14.00,2013-06-13 19:09:00,
2013-06-13 14:10:00,76.5,66.8,28.85,NW,306,2.7,2.7,72,0.00,,---,0.47,VWS V14.00,2013-06-13 19:10:00,
2013-06-13 14:11:00,76.5,66.8,28.85,NW,306,2.7,2.7,72,0.00,,---,0.47,VWS V14.00,2013-06-13 19:11:00,
2013-06-13 14:12:00,76.5,66.8,28.85,NW,306,2.7,2.7,72,0.00,,---,0.47,VWS V14.00,2013-06-13 19:12:00,
2013-06-13 14:13:00,76.5,66.8,28.85,NW,306,2.7,2.7,72,0.00,,---,0.47,VWS V14.00,2013-06-13 19:13:00,
2013-06-13 14:14:00,76.5,66.8,28.85,NW,306,2.7,2.7,72,0.00,,---,0.47,VWS V14.00,2013-06-13 19:14:00,
2013-06-13 14:15:00,76.5,66.8,28.85,NW,306,2.7,2.7,72,0.00,,---,0.47,VWS V14.00,2013-06-13 19:15:00,
2013-06-13 14:16:00,76.5,66.8,28.85,NW,306,2.7,2.7,72,0.00,,---,0.47,VWS V14.00,2013-06-13 19:16:00,
2013-06-13 14:17:00,76.1,61.2,28.85,NW,306,2.7,2.7,60,0.00,,---,0.47,VWS V14.00,2013-06-13 19:17:00,
2013-06-13 14:18:00,76.1,61.2,28.85,NW,306,2.7,2.7,60,0.00,,---,0.47,VWS V14.00,2013-06-13 19:18:00,
2013-06-13 14:19:00,76.1,61.2,28.85,NW,306,2.7,2.7,60,0.00,,---,0.47,VWS V14.00,2013-06-13 19:19:00,
2013-06-13 14:20:00,76.1,61.2,28.85,NW,306,2.7,2.7,60,0.00,,---,0.47,VWS V14.00,2013-06-13 19:20:00,
2013-06-13 14:21:00,76.1,61.2,28.85,NW,306,2.7,2.7,60,0.00,,---,0.47,VWS V14.00,2013-06-13 19:21:00,
2013-06-13 14:22:00,76.1,61.2,28.85,NW,306,2.7,2.7,60,0.00,,---,0.47,VWS V14.00,2013-06-13 19:22:00,
2013-06-13 14:23:00,76.1,66.4,28.85,NW,306,2.7,2.7,72,0.00,,---,0.47,VWS V14.00,2013-06-13 19:23:00,
2013-06-13 14:24:00,76.1,66.4,28.85,NW,306,2.7,2.7,72,0.00,,---,0.47,VWS V14.00,2013-06-13 19:24:00,
2013-06-13 14:25:00,76.1,66.4,28.85,NW,306,2.7,2.7,72,0.00,,---,0.47,VWS V14.00,2013-06-13 19:25:00,
2013-06-13 14:26:00,76.1,61.2,28.85,NW,306,2.7,2.7,60,0.00,,---,0.47,VWS V14.00,2013-06-13 19:26:00,
2013-06-13 14:27:00,76.1,61.2,28.85,NW,306,2.7,2.7,60,0.00,,---,0.47,VWS V14.00,2013-06-13 19:27:00,
2013-06-13 14:28:00,76.1,61.2,28.85,NW,306,2.7,2.7,60,0.00,,---,0.47,VWS V14.00,2013-06-13 19:28:00,
2013-06-13 14:29:00,76.1,61.2,28.85,NW,306,2.7,2.7,60,0.00,,---,0.47,VWS V14.00,2013-06-13 19:29:00,
2013-06-13 14:30:00,76.1,61.2,28.85,NW,306,2.7,2.7,60,0.00,,---,0.47,VWS V14.00,2013-06-13 19:30:00,
2013-06-13 14:31:00,76.1,61.2,28.85,NW,306,2.7,2.7,60,0.00,,---,0.47,VWS V14.00,2013-06-13 19:31:00,
2013-06-13 14:32:00,76.5,66.8,28.85,NW,306,2.7,2.7,72,0.00,,---,0.47,VWS V14.00,2013-06-13 19:32:00,
2013-06-13 14:33:00,76.5,66.8,28.85,NW,306,2.7,2.7,72,0.00,,---,0.47,VWS V14.00,2013-06-13 19:33:00,
2013-06-13 14:34:00,76.6,61.7,28.85,NW,306,2.7,2.7,60,0.00,,---,0.47,VWS V14.00,2013-06-13 19:34:00,
2013-06-13 14:35:00,76.6,61.7,28.85,NW,306,2.7,2.7,60,0.00,,---,0.47,VWS V14.00,2013-06-13 19:35:00,
2013-06-13 14:36:00,76.6,61.7,28.85,NW,306,2.7,2.7,60,0.00,,---,0.47,VWS V14.00,2013-06-13 19:36:00,
2013-06-13 14:37:00,76.6,61.7,28.85,NW,306,2.7,2.7,60,0.00,,---,0.47,VWS V14.00,2013-06-13 19:37:00,
2013-06-13 14:38:00,76.6,61.7,28.85,NW,306,2.7,2.7,60,0.00,,---,0.47,VWS V14.00,2013-06-13 19:38:00,
2013-06-13 14:39:00,76.6,61.7,28.85,NW,306,2.7,2.7,60,0.00,,---,0.47,VWS V14.00,2013-06-13 19:39:00,
2013-06-13 14:40:00,76.6,61.7,28.85,NW,306,2.7,2.7,60,0.00,,---,0.47,VWS V14.00,2013-06-13 19:40:00,
2013-06-13 14:41:00,76.6,61.7,28.85,NW,306,2.7,2.7,60,0.00,,---,0.47,VWS V14.00,2013-06-13 19:41:00,
2013-06-13 14:42:00,76.8,61.9,28.85,NW,306,2.7,2.7,60,0.00,,---,0.47,VWS V14.00,2013-06-13 19:42:00,
2013-06-13 14:43:00,76.8,61.9,28.85,NW,306,2.7,2.7,60,0.00,,---,0.47,VWS V14.00,2013-06-13 19:43:00,
2013-06-13 14:44:00,76.8,61.9,28.85,NW,306,2.7,2.7,60,0.00,,---,0.47,VWS V14.00,2013-06-13 19:44:00,
2013-06-13 14:45:00,76.8,61.9,28.85,NW,306,2.7,2.7,60,0.00,,---,0.47,VWS V14.00,2013-06-13 19:45:00,
2013-06-13 14:46:00,76.8,61.9,28.85,NW,306,2.7,2.7,60,0.00,,---,0.47,VWS V14.00,2013-06-13 19:46:00,
2013-06-13 14:47:00,76.8,61.9,28.85,NW,306,2.7,2.7,60,0.00,,---,0.47,VWS V14.00,2013-06-13 19:47:00,
2013-06-13 14:48:00,76.8,61.9,28.85,NW,306,2.7,2.7,60,0.00,,---,0.47,VWS V14.00,2013-06-13 19:48:00,
2013-06-13 14:49:00,76.8,61.9,28.85,NW,306,2.7,2.7,60,0.00,,---,0.47,VWS V14.00,2013-06-13 19:49:00,
2013-06-13 14:50:00,76.8,61.9,28.85,North,0,0.0,2.7,60,0.00,,---,0.47,VWS V14.00,2013-06-13 19:50:00,
2013-06-13 14:51:00,77.9,68.2,28.85,North,0,0.0,0.0,72,0.00,,---,0.47,VWS V14.00,2013-06-13 19:51:00,
2013-06-13 14:52:00,77.9,68.2,28.85,North,0,0.0,0.0,72,0.00,,---,0.47,VWS V14.00,2013-06-13 19:52:00,
2013-06-13 14:53:00,77.9,68.2,28.85,North,0,0.0,0.0,72,0.00,,---,0.47,VWS V14.00,2013-06-13 19:53:00,
2013-06-13 14:54:00,77.9,68.2,28.85,North,0,0.0,0.0,72,0.00,,---,0.47,VWS V14.00,2013-06-13 19:54:00,
2013-06-13 14:55:00,77.9,68.2,28.85,North,0,0.0,0.0,72,0.00,,---,0.47,VWS V14.00,2013-06-13 19:55:00,
2013-06-13 14:56:00,77.9,68.2,28.85,North,0,0.0,0.0,72,0.00,,---,0.47,VWS V14.00,2013-06-13 19:56:00,
2013-06-13 14:57:00,77.9,68.2,28.85,NW,321,0.0,0.0,72,0.00,,---,0.47,VWS V14.00,2013-06-13 19:57:00,
2013-06-13 14:58:00,77.9,68.2,28.85,NW,321,0.0,0.0,72,0.00,,---,0.47,VWS V14.00,2013-06-13 19:58:00,
2013-06-13 14:59:00,77.9,68.2,28.85,NW,321,0.0,0.0,72,0.00,,---,0.47,VWS V14.00,2013-06-13 19:59:00,
2013-06-13 15:00:00,77.7,62.7,28.85,NW,321,0.0,0.0,60,0.00,,---,0.47,VWS V14.00,2013-06-13 20:00:00,
2013-06-13 15:01:00,77.7,62.7,28.85,NW,321,0.0,0.0,60,0.00,,---,0.47,VWS V14.00,2013-06-13 20:01:00,
2013-06-13 15:02:00,77.7,62.7,28.85,NW,321,0.0,0.0,60,0.00,,---,0.47,VWS V14.00,2013-06-13 20:02:00,
2013-06-13 15:03:00,77.7,62.7,28.85,NW,321,0.0,0.0,60,0.00,,---,0.47,VWS V14.00,2013-06-13 20:03:00,
2013-06-13 15:04:00,77.7,62.7,28.85,NW,321,0.0,0.0,60,0.00,,---,0.47,VWS V14.00,2013-06-13 20:04:00,
2013-06-13 15:05:00,77.7,62.7,28.85,NW,321,0.0,0.0,60,0.00,,---,0.47,VWS V14.00,2013-06-13 20:05:00,
2013-06-13 15:06:00,77.7,62.7,28.85,NW,321,0.0,0.0,60,0.00,,---,0.47,VWS V14.00,2013-06-13 20:06:00,
2013-06-13 15:07:00,77.7,62.7,28.85,NNW,330,4.9,4.9,60,0.00,,---,0.47,VWS V14.00,2013-06-13 20:07:00,
2013-06-13 15:08:00,77.7,62.7,28.85,NNW,330,4.9,4.9,60,0.00,,---,0.47,VWS V14.00,2013-06-13 20:08:00,
2013-06-13 15:09:00,78.1,63.1,28.85,NNW,330,4.9,4.9,60,0.00,,---,0.47,VWS V14.00,2013-06-13 20:09:00,
2013-06-13 15:10:00,78.1,63.1,28.85,NNW,330,4.9,4.9,60,0.00,,---,0.47,VWS V14.00,2013-06-13 20:10:00,
2013-06-13 15:11:00,78.1,63.1,28.85,NNW,330,4.9,4.9,60,0.00,,---,0.47,VWS V14.00,2013-06-13 20:11:00,
2013-06-13 15:12:00,78.1,63.1,28.85,NNW,330,4.9,4.9,60,0.00,,---,0.47,VWS V14.00,2013-06-13 20:12:00,
2013-06-13 15:13:00,78.1,63.1,28.85,NNW,330,4.9,4.9,60,0.00,,---,0.47,VWS V14.00,2013-06-13 20:13:00,
2013-06-13 15:14:00,78.1,63.1,28.85,NNW,330,4.9,4.9,60,0.00,,---,0.47,VWS V14.00,2013-06-13 20:14:00,
2013-06-13 15:15:00,78.1,63.1,28.85,NNW,330,4.9,4.9,60,0.00,,---,0.47,VWS V14.00,2013-06-13 20:15:00,
2013-06-13 15:16:00,78.1,63.1,28.85,North,357,3.6,4.9,60,0.00,,---,0.47,VWS V14.00,2013-06-13 20:16:00,
2013-06-13 15:17:00,79.0,63.9,28.85,North,357,3.6,3.6,60,0.00,,---,0.47,VWS V14.00,2013-06-13 20:17:00,
2013-06-13 15:18:00,79.0,63.9,28.85,North,357,3.6,3.6,60,0.00,,---,0.47,VWS V14.00,2013-06-13 20:18:00,
2013-06-13 15:19:00,79.0,63.9,28.85,North,357,3.6,3.6,60,0.00,,---,0.47,VWS V14.00,2013-06-13 20:19:00,
2013-06-13 15:20:00,79.0,63.9,28.85,North,357,3.6,3.6,60,0.00,,---,0.47,VWS V14.00,2013-06-13 20:20:00,
2013-06-13 15:21:00,79.0,63.9,28.85,North,357,3.6,3.6,60,0.00,,---,0.47,VWS V14.00,2013-06-13 20:21:00,
2013-06-13 15:22:00,79.0,63.9,28.85,North,357,3.6,3.6,60,0.00,,---,0.47,VWS V14.00,2013-06-13 20:22:00,
2013-06-13 15:23:00,79.0,63.9,28.85,North,357,3.6,3.6,60,0.00,,---,0.47,VWS V14.00,2013-06-13 20:23:00,
2013-06-13 15:24:00,79.0,63.9,28.85,NNW,337,4.0,4.0,60,0.00,,---,0.47,VWS V14.00,2013-06-13 20:24:00,
2013-06-13 15:25:00,79.0,63.9,28.85,NNW,337,4.0,4.0,60,0.00,,---,0.47,VWS V14.00,2013-06-13 20:25:00,
2013-06-13 15:26:00,78.8,63.8,28.85,NNW,337,4.0,4.0,60,0.00,,---,0.47,VWS V14.00,2013-06-13 20:26:00,
2013-06-13 15:27:00,78.8,63.8,28.85,NNW,337,4.0,4.0,60,0.00,,---,0.47,VWS V14.00,2013-06-13 20:27:00,
2013-06-13 15:28:00,78.8,63.8,28.85,NNW,337,4.0,4.0,60,0.00,,---,0.47,VWS V14.00,2013-06-13 20:28:00,
2013-06-13 15:29:00,78.8,63.8,28.85,NNW,337,4.0,4.0,60,0.00,,---,0.47,VWS V14.00,2013-06-13 20:29:00,
2013-06-13 15:30:00,78.8,63.8,28.85,NNW,337,4.0,4.0,60,0.00,,---,0.47,VWS V14.00,2013-06-13 20:30:00,
2013-06-13 15:31:00,78.8,63.8,28.85,NNW,337,4.0,4.0,60,0.00,,---,0.47,VWS V14.00,2013-06-13 20:31:00,
2013-06-13 15:32:00,78.8,63.8,28.85,NNW,337,4.0,4.0,60,0.00,,---,0.47,VWS V14.00,2013-06-13 20:32:00,
2013-06-13 15:33:00,78.8,63.8,28.85,NNW,337,4.0,4.0,60,0.00,,---,0.47,VWS V14.00,2013-06-13 20:33:00,
2013-06-13 15:34:00,78.8,63.8,28.85,NNW,337,4.0,4.0,60,0.00,,---,0.47,VWS V14.00,2013-06-13 20:34:00,
2013-06-13 15:35:00,81.5,64.3,28.85,NNW,337,4.0,4.0,56,0.00,,---,0.47,VWS V14.00,2013-06-13 20:35:00,
2013-06-13 15:36:00,81.5,64.3,28.85,NNW,337,4.0,4.0,56,0.00,,---,0.47,VWS V14.00,2013-06-13 20:36:00,
2013-06-13 15:37:00,81.5,64.3,28.85,NNW,337,4.0,4.0,56,0.00,,---,0.47,VWS V14.00,2013-06-13 20:37:00,
2013-06-13 15:38:00,81.5,64.3,28.85,NNW,337,4.0,4.0,56,0.00,,---,0.47,VWS V14.00,2013-06-13 20:38:00,
2013-06-13 15:39:00,81.5,64.3,28.85,NNW,337,4.0,4.0,56,0.00,,---,0.47,VWS V14.00,2013-06-13 20:39:00,
2013-06-13 15:40:00,81.5,64.3,28.85,NNW,337,4.0,4.0,56,0.00,,---,0.47,VWS V14.00,2013-06-13 20:40:00,
2013-06-13 15:41:00,81.5,64.3,28.85,NNW,337,4.0,4.0,56,0.00,,---,0.47,VWS V14.00,2013-06-13 20:41:00,
2013-06-13 15:59:00,82.6,65.3,28.85,NW,324,4.9,4.9,56,0.00,,---,0.47,VWS V14.00,2013-06-13 20:59:00,
2013-06-13 16:04:00,83.1,65.8,28.85,WNW,282,4.0,4.0,56,0.00,,---,0.47,VWS V14.00,2013-06-13 21:04:00,
2013-06-13 16:09:00,83.8,66.5,28.85,North,353,5.8,7.2,56,0.00,,---,0.47,VWS V14.00,2013-06-13 21:09:00,
2013-06-13 16:14:00,80.8,63.6,28.85,NNE,20,3.1,7.6,56,0.00,,---,0.47,VWS V14.00,2013-06-13 21:14:00,
2013-06-13 16:19:00,80.1,64.9,28.85,NW,318,6.3,6.3,60,0.00,,---,0.47,VWS V14.00,2013-06-13 21:19:00,
2013-06-13 16:24:00,76.8,61.9,28.85,NNW,341,3.6,4.0,60,0.00,,---,0.47,VWS V14.00,2013-06-13 21:24:00,
2013-06-13 16:29:00,80.4,65.3,28.85,NW,312,3.6,3.6,60,0.00,,---,0.47,VWS V14.00,2013-06-13 21:29:00,
2013-06-13 16:30:00,80.4,65.3,28.85,NNW,333,3.1,3.1,60,0.00,,---,0.47,VWS V14.00,2013-06-13 21:30:00,
2013-06-13 16:34:00,77.9,62.9,28.85,North,353,4.9,5.8,60,0.00,,---,0.47,VWS V14.00,2013-06-13 21:34:00,
2013-06-13 16:35:00,77.9,62.9,28.85,North,353,2.7,5.8,60,0.00,,---,0.47,VWS V14.00,2013-06-13 21:35:00,
2013-06-13 16:39:00,75.7,60.9,28.85,NNW,338,0.0,0.0,60,0.00,,---,0.47,VWS V14.00,2013-06-13 21:39:00,
2013-06-13 16:40:00,75.7,60.9,28.85,NNW,335,0.0,0.0,60,0.00,,---,0.47,VWS V14.00,2013-06-13 21:40:00,
2013-06-13 16:41:00,75.6,60.7,28.85,West,275,3.6,3.6,60,0.00,,---,0.47,VWS V14.00,2013-06-13 21:41:00,
2013-06-13 16:44:00,76.1,61.2,28.85,NW,319,2.7,5.4,60,0.00,,---,0.47,VWS V14.00,2013-06-13 21:44:00,
2013-06-13 16:45:00,76.1,61.2,28.85,NW,322,2.7,5.4,60,0.00,,---,0.47,VWS V14.00,2013-06-13 21:45:00,
2013-06-13 16:46:00,75.7,60.9,28.85,NNE,27,4.0,4.0,60,0.00,,---,0.47,VWS V14.00,2013-06-13 21:46:00,
2013-06-13 16:50:00,75.6,60.7,28.85,WNW,302,3.6,3.6,60,0.00,,---,0.47,VWS V14.00,2013-06-13 21:50:00,
2013-06-13 16:51:00,75.2,60.4,28.85,North,357,2.7,2.7,60,0.00,,---,0.47,VWS V14.00,2013-06-13 21:51:00,
2013-06-13 16:55:00,74.3,61.3,28.85,NNW,338,0.0,2.7,64,0.00,,---,0.47,VWS V14.00,2013-06-13 21:55:00,
2013-06-13 16:56:00,74.1,61.2,28.85,ENE,75,4.5,4.5,64,0.00,,---,0.47,VWS V14.00,2013-06-13 21:56:00,
2013-06-13 17:00:00,74.1,61.2,28.85,NW,316,2.2,2.7,64,0.00,,---,0.47,VWS V14.00,2013-06-13 22:00:00,
2013-06-13 17:01:00,74.3,61.3,28.85,NE,42,2.7,3.1,64,0.00,,---,0.47,VWS V14.00,2013-06-13 22:01:00,
2013-06-13 17:05:00,75.0,62.0,28.85,NW,324,2.2,2.2,64,0.00,,---,0.47,VWS V14.00,2013-06-13 22:05:00,
2013-06-13 17:06:00,75.2,60.4,28.88,NNW,332,3.1,5.4,60,0.00,,---,0.47,VWS V14.00,2013-06-13 22:06:00,
2013-06-13 17:10:00,75.7,60.9,28.88,NNE,30,5.8,5.8,60,0.00,,---,0.47,VWS V14.00,2013-06-13 22:10:00,
2013-06-13 17:11:00,75.7,60.9,28.88,North,5,3.6,5.8,60,0.00,,---,0.47,VWS V14.00,2013-06-13 22:11:00,
2013-06-13 17:15:00,76.1,61.2,28.88,NNW,346,3.6,3.6,60,0.00,,---,0.47,VWS V14.00,2013-06-13 22:15:00,
2013-06-13 17:16:00,76.1,61.2,28.88,North,11,3.1,3.6,60,0.00,,---,0.47,VWS V14.00,2013-06-13 22:16:00,
2013-06-13 17:20:00,75.7,60.9,28.88,North,10,4.0,4.0,60,0.00,,---,0.47,VWS V14.00,2013-06-13 22:20:00,
2013-06-13 17:21:00,75.6,60.7,28.85,ESE,111,3.6,3.6,60,0.00,,---,0.47,VWS V14.00,2013-06-13 22:21:00,
2013-06-13 17:25:00,75.2,60.4,28.85,NW,309,5.4,5.4,60,0.00,,---,0.47,VWS V14.00,2013-06-13 22:25:00,
2013-06-13 17:26:00,75.2,60.4,28.85,NNW,338,2.7,5.4,60,0.00,,---,0.47,VWS V14.00,2013-06-13 22:26:00,
2013-06-13 17:27:00,75.4,60.5,28.85,North,353,3.1,5.4,60,0.00,,---,0.47,VWS V14.00,2013-06-13 22:27:00,
2013-06-13 17:30:00,75.9,61.0,28.85,WNW,290,4.0,4.0,60,0.00,,---,0.47,VWS V14.00,2013-06-13 22:30:00,
2013-06-13 17:31:00,75.9,61.0,28.85,NW,322,3.1,4.0,60,0.00,,---,0.47,VWS V14.00,2013-06-13 22:31:00,
2013-06-13 17:32:00,75.9,61.0,28.85,NNW,334,5.4,5.4,60,0.00,,---,0.47,VWS V14.00,2013-06-13 22:32:00,
2013-06-13 17:35:00,76.3,61.4,28.85,North,349,4.0,4.0,60,0.00,,---,0.47,VWS V14.00,2013-06-13 22:35:00,
2013-06-13 17:36:00,76.3,61.4,28.85,NNW,341,2.7,5.4,60,0.00,,---,0.47,VWS V14.00,2013-06-13 22:36:00,
2013-06-13 17:37:00,76.3,61.4,28.85,NW,325,3.6,4.0,60,0.00,,---,0.47,VWS V14.00,2013-06-13 22:37:00,
2013-06-13 17:40:00,76.8,61.9,28.85,North,4,3.6,5.8,60,0.00,,---,0.47,VWS V14.00,2013-06-13 22:40:00,
2013-06-13 17:41:00,76.8,61.9,28.85,NW,307,3.1,4.9,60,0.00,,---,0.47,VWS V14.00,2013-06-13 22:41:00,
2013-06-13 17:42:00,76.8,61.9,28.85,NW,307,3.1,4.9,60,0.00,,---,0.47,VWS V14.00,2013-06-13 22:42:00,
2013-06-13 17:45:00,76.8,61.9,28.85,NW,325,3.1,3.6,60,0.00,,---,0.47,VWS V14.00,2013-06-13 22:45:00,
2013-06-13 17:46:00,76.8,61.9,28.85,North,357,0.0,0.0,60,0.00,,---,0.47,VWS V14.00,2013-06-13 22:46:00,
2013-06-13 17:47:00,76.8,61.9,28.85,North,353,2.7,2.7,60,0.00,,---,0.47,VWS V14.00,2013-06-13 22:47:00,
2013-06-13 17:50:00,76.1,61.2,28.85,WNW,299,2.7,4.0,60,0.00,,---,0.47,VWS V14.00,2013-06-13 22:50:00,
2013-06-13 17:51:00,75.9,61.0,28.85,West,275,2.2,3.1,60,0.00,,---,0.47,VWS V14.00,2013-06-13 22:51:00,
2013-06-13 17:52:00,75.9,61.0,28.85,North,0,2.7,3.1,60,0.00,,---,0.47,VWS V14.00,2013-06-13 22:52:00,
2013-06-13 17:56:00,75.6,60.7,28.85,NW,311,2.2,2.2,60,0.00,,---,0.47,VWS V14.00,2013-06-13 22:56:00,
2013-06-13 17:57:00,75.9,61.0,28.85,NNW,327,3.1,3.1,60,0.00,,---,0.47,VWS V14.00,2013-06-13 22:57:00,
2013-06-13 17:58:00,76.1,61.2,28.85,NNW,340,3.6,3.6,60,0.00,,---,0.47,VWS V14.00,2013-06-13 22:58:00,
2013-06-13 18:01:00,76.5,61.6,28.85,North,2,2.2,2.2,60,0.00,,---,0.47,VWS V14.00,2013-06-13 23:01:00,
2013-06-13 18:02:00,76.6,61.7,28.85,NW,323,3.1,4.9,60,0.00,,---,0.47,VWS V14.00,2013-06-13 23:02:00,
2013-06-13 18:03:00,76.8,61.9,28.85,North,349,2.2,3.1,60,0.00,,---,0.47,VWS V14.00,2013-06-13 23:03:00,
2013-06-13 18:06:00,76.5,61.6,28.85,NNE,17,5.4,5.4,60,0.00,,---,0.47,VWS V14.00,2013-06-13 23:06:00,
2013-06-13 18:07:00,76.1,61.2,28.85,North,2,3.1,3.1,60,0.00,,---,0.47,VWS V14.00,2013-06-13 23:07:00,
2013-06-13 18:08:00,75.9,61.0,28.85,North,8,5.4,5.4,60,0.00,,---,0.47,VWS V14.00,2013-06-13 23:08:00,
2013-06-13 18:12:00,75.6,60.7,28.85,North,5,3.6,4.0,60,0.00,,---,0.47,VWS V14.00,2013-06-13 23:12:00,
2013-06-13 18:13:00,75.6,60.7,28.85,North,357,3.6,3.6,60,0.00,,---,0.47,VWS V14.00,2013-06-13 23:13:00,
2013-06-13 18:14:00,75.6,60.7,28.85,North,357,3.6,3.6,60,0.00,,---,0.47,VWS V14.00,2013-06-13 23:14:00,
2013-06-13 18:17:00,75.4,60.5,28.85,NW,304,3.1,3.1,60,0.00,,---,0.47,VWS V14.00,2013-06-13 23:17:00,
2013-06-13 18:18:00,75.4,60.5,28.85,NNE,13,3.6,3.6,60,0.00,,---,0.47,VWS V14.00,2013-06-13 23:18:00,
2013-06-13 18:19:00,75.4,60.5,28.85,WSW,246,4.9,4.9,60,0.00,,---,0.47,VWS V14.00,2013-06-13 23:19:00,
2013-06-13 18:22:00,75.2,60.4,28.85,NNW,342,4.0,4.0,60,0.00,,---,0.47,VWS V14.00,2013-06-13 23:22:00,
2013-06-13 18:23:00,75.4,60.5,28.85,NW,323,2.7,4.0,60,0.00,,---,0.47,VWS V14.00,2013-06-13 23:23:00,
2013-06-13 18:24:00,75.4,60.5,28.85,North,4,0.0,4.0,60,0.00,,---,0.47,VWS V14.00,2013-06-13 23:24:00,
2013-06-13 18:27:00,75.2,60.4,28.85,WNW,298,0.0,0.0,60,0.00,,---,0.47,VWS V14.00,2013-06-13 23:27:00,
2013-06-13 18:28:00,75.2,60.4,28.85,NW,326,0.0,0.0,60,0.00,,---,0.47,VWS V14.00,2013-06-13 23:28:00,
2013-06-13 18:29:00,75.2,60.4,28.85,East,95,0.0,0.0,60,0.00,,---,0.47,VWS V14.00,2013-06-13 23:29:00,
2013-06-13 18:32:00,75.0,62.0,28.85,NE,48,2.7,4.0,64,0.00,,---,0.47,VWS V14.00,2013-06-13 23:32:00,
2013-06-13 18:33:00,75.0,62.0,28.85,NW,304,3.1,4.0,64,0.00,,---,0.47,VWS V14.00,2013-06-13 23:33:00,
2013-06-13 18:34:00,75.0,62.0,28.85,North,353,2.7,3.1,64,0.00,,---,0.47,VWS V14.00,2013-06-13 23:34:00,
2013-06-13 18:37:00,75.2,60.4,28.88,NNW,335,0.0,0.0,60,0.00,,---,0.47,VWS V14.00,2013-06-13 23:37:00,
2013-06-13 18:38:00,75.2,60.4,28.88,NNE,17,4.9,4.9,60,0.00,,---,0.47,VWS V14.00,2013-06-13 23:38:00,
2013-06-13 18:39:00,75.0,62.0,28.88,NNW,328,4.0,4.9,64,0.00,,---,0.47,VWS V14.00,2013-06-13 23:39:00,
2013-06-13 18:42:00,75.0,62.0,28.88,NE,34,0.0,2.2,64,0.00,,---,0.47,VWS V14.00,2013-06-13 23:42:00,
2013-06-13 18:43:00,75.0,62.0,28.88,NNW,330,0.0,0.0,64,0.00,,---,0.47,VWS V14.00,2013-06-13 23:43:00,
2013-06-13 18:44:00,75.0,62.0,28.88,North,353,0.0,0.0,64,0.00,,---,0.47,VWS V14.00,2013-06-13 23:44:00,
2013-06-13 18:47:00,74.8,61.9,28.88,NNW,334,4.0,4.0,64,0.00,,---,0.47,VWS V14.00,2013-06-13 23:47:00,
2013-06-13 18:48:00,74.8,61.9,28.88,NW,318,3.6,3.6,64,0.00,,---,0.47,VWS V14.00,2013-06-13 23:48:00,
2013-06-13 18:49:00,74.7,61.7,28.88,NNW,340,2.7,3.1,64,0.00,,---,0.47,VWS V14.00,2013-06-13 23:49:00,
2013-06-13 18:52:00,74.7,61.7,28.88,NNW,337,0.0,0.0,64,0.00,,---,0.47,VWS V14.00,2013-06-13 23:52:00,
2013-06-13 18:53:00,74.7,61.7,28.88,NNW,339,0.0,0.0,64,0.00,,---,0.47,VWS V14.00,2013-06-13 23:53:00,
2013-06-13 18:54:00,74.5,61.5,28.88,WNW,302,0.0,0.0,64,0.00,,---,0.47,VWS V14.00,2013-06-13 23:54:00,
2013-06-13 18:57:00,74.5,61.5,28.88,NW,322,0.0,0.0,64,0.00,,---,0.47,VWS V14.00,2013-06-13 23:57:00,
2013-06-13 18:58:00,74.5,61.5,28.88,NNW,348,2.2,2.2,64,0.00,,---,0.47,VWS V14.00,2013-06-13 23:58:00,
2013-06-13 18:59:00,74.5,61.5,28.88,NNW,348,2.2,2.2,64,0.00,,---,0.47,VWS V14.00,2013-06-13 23:59:00,
2013-06-13 19:02:00,74.5,61.5,28.88,NNW,348,2.2,2.2,64,0.00,,---,0.47,VWS V14.00,2013-06-14 00:02:00,
2013-06-13 19:03:00,74.1,61.2,28.88,NNW,348,2.2,2.2,64,0.00,,---,0.47,VWS V14.00,2013-06-14 00:03:00,
2013-06-13 19:04:00,74.1,61.2,28.88,NNW,348,2.2,2.2,64,0.00,,---,0.47,VWS V14.00,2013-06-14 00:04:00,
2013-06-13 19:07:00,74.1,61.2,28.88,NNW,348,2.2,2.2,64,0.00,,---,0.47,VWS V14.00,2013-06-14 00:07:00,
2013-06-13 19:08:00,74.1,61.2,28.88,NNW,348,2.2,2.2,64,0.00,,---,0.47,VWS V14.00,2013-06-14 00:08:00,
2013-06-13 19:09:00,74.1,61.2,28.88,NNW,348,2.2,2.2,64,0.00,,---,0.47,VWS V14.00,2013-06-14 00:09:00,
2013-06-13 19:12:00,75.0,62.0,28.88,NNW,348,2.2,2.2,64,0.00,,---,0.47,VWS V14.00,2013-06-14 00:12:00,
2013-06-13 19:13:00,75.0,62.0,28.88,NNW,348,2.2,2.2,64,0.00,,---,0.47,VWS V14.00,2013-06-14 00:13:00,
2013-06-13 19:14:00,75.0,62.0,28.88,NNW,348,2.2,2.2,64,0.00,,---,0.47,VWS V14.00,2013-06-14 00:14:00,
2013-06-13 19:15:00,75.2,60.4,28.88,NNW,348,2.2,2.2,60,0.00,,---,0.47,VWS V14.00,2013-06-14 00:15:00,
2013-06-13 19:17:00,75.2,60.4,28.88,NW,323,0.0,2.2,60,0.00,,---,0.47,VWS V14.00,2013-06-14 00:17:00,
2013-06-13 19:19:00,75.6,60.7,28.88,NW,323,0.0,0.0,60,0.00,,---,0.47,VWS V14.00,2013-06-14 00:19:00,
2013-06-13 19:20:00,75.6,60.7,28.88,NW,323,0.0,0.0,60,0.00,,---,0.47,VWS V14.00,2013-06-14 00:20:00,
2013-06-13 19:22:00,76.6,61.7,28.88,NW,323,0.0,0.0,60,0.00,,---,0.47,VWS V14.00,2013-06-14 00:22:00,
2013-06-13 19:24:00,76.6,61.7,28.88,NW,323,0.0,0.0,60,0.00,,---,0.47,VWS V14.00,2013-06-14 00:24:00,
2013-06-13 19:25:00,76.6,61.7,28.88,NW,323,0.0,0.0,60,0.00,,---,0.47,VWS V14.00,2013-06-14 00:25:00,
2013-06-13 19:27:00,76.1,61.2,28.88,NNW,328,4.0,4.0,60,0.00,,---,0.47,VWS V14.00,2013-06-14 00:27:00,
2013-06-13 19:29:00,75.6,60.7,28.88,NW,316,3.1,3.1,60,0.00,,---,0.47,VWS V14.00,2013-06-14 00:29:00,
2013-06-13 19:30:00,75.6,60.7,28.88,NW,316,3.1,3.1,60,0.00,,---,0.47,VWS V14.00,2013-06-14 00:30:00,
2013-06-13 19:32:00,75.6,60.7,28.88,NW,316,3.1,3.1,60,0.00,,---,0.47,VWS V14.00,2013-06-14 00:32:00,
2013-06-13 19:34:00,75.6,60.7,28.88,NW,316,3.1,3.1,60,0.00,,---,0.47,VWS V14.00,2013-06-14 00:34:00,
2013-06-13 19:35:00,75.6,60.7,28.88,NW,316,3.1,3.1,60,0.00,,---,0.47,VWS V14.00,2013-06-14 00:35:00,
2013-06-13 19:37:00,73.4,60.5,28.88,NW,316,3.1,3.1,64,0.00,,---,0.47,VWS V14.00,2013-06-14 00:37:00,
2013-06-13 19:39:00,73.4,60.5,28.88,NW,316,3.1,3.1,64,0.00,,---,0.47,VWS V14.00,2013-06-14 00:39:00,
2013-06-13 19:40:00,73.4,60.5,28.88,NW,316,3.1,3.1,64,0.00,,---,0.47,VWS V14.00,2013-06-14 00:40:00,
2013-06-13 19:43:00,73.4,60.5,28.88,NW,316,3.1,3.1,64,0.00,,---,0.47,VWS V14.00,2013-06-14 00:43:00,
2013-06-13 19:44:00,72.3,59.5,28.88,NW,316,3.1,3.1,64,0.00,,---,0.47,VWS V14.00,2013-06-14 00:44:00,
2013-06-13 19:45:00,72.3,59.5,28.88,NW,316,3.1,3.1,64,0.00,,---,0.47,VWS V14.00,2013-06-14 00:45:00,
2013-06-13 19:46:00,72.3,59.5,28.88,NW,316,3.1,3.1,64,0.00,,---,0.47,VWS V14.00,2013-06-14 00:46:00,
2013-06-13 19:48:00,72.1,59.3,28.88,NW,316,3.1,3.1,64,0.00,,---,0.47,VWS V14.00,2013-06-14 00:48:00,
2013-06-13 19:49:00,72.1,59.3,28.88,NW,316,3.1,3.1,64,0.00,,---,0.47,VWS V14.00,2013-06-14 00:49:00,
2013-06-13 19:50:00,72.1,59.3,28.88,NW,316,3.1,3.1,64,0.00,,---,0.47,VWS V14.00,2013-06-14 00:50:00,
2013-06-13 19:51:00,72.1,59.3,28.88,NW,316,3.1,3.1,64,0.00,,---,0.47,VWS V14.00,2013-06-14 00:51:00,
2013-06-13 19:53:00,71.2,60.2,28.88,NW,316,3.1,3.1,68,0.00,,---,0.47,VWS V14.00,2013-06-14 00:53:00,
2013-06-13 19:55:00,71.2,60.2,28.88,NW,316,3.1,3.1,68,0.00,,---,0.47,VWS V14.00,2013-06-14 00:55:00,
2013-06-13 19:56:00,71.1,60.0,28.88,NW,316,3.1,3.1,68,0.00,,---,0.47,VWS V14.00,2013-06-14 00:56:00,
2013-06-13 19:58:00,71.1,60.0,28.88,NW,316,3.1,3.1,68,0.00,,---,0.47,VWS V14.00,2013-06-14 00:58:00,
2013-06-13 20:00:00,71.1,60.0,28.88,NW,316,3.1,3.1,68,0.00,,---,0.47,VWS V14.00,2013-06-14 01:00:00,
2013-06-13 20:01:00,71.1,60.0,28.88,NW,316,3.1,3.1,68,0.00,,---,0.47,VWS V14.00,2013-06-14 01:01:00,
2013-06-13 20:04:00,70.2,59.1,28.88,NW,316,3.1,3.1,68,0.00,,---,0.47,VWS V14.00,2013-06-14 01:04:00,
2013-06-13 20:05:00,70.2,59.1,28.88,NW,316,3.1,3.1,68,0.00,,---,0.47,VWS V14.00,2013-06-14 01:05:00,
2013-06-13 20:06:00,70.2,59.1,28.88,NW,316,3.1,3.1,68,0.00,,---,0.47,VWS V14.00,2013-06-14 01:06:00,
2013-06-13 20:09:00,70.2,59.1,28.88,NW,316,3.1,3.1,68,0.00,,---,0.47,VWS V14.00,2013-06-14 01:09:00,
2013-06-13 20:10:00,70.2,59.1,28.88,NW,316,3.1,3.1,68,0.00,,---,0.47,VWS V14.00,2013-06-14 01:10:00,
2013-06-13 20:11:00,69.8,58.8,28.88,NW,316,3.1,3.1,68,0.00,,---,0.47,VWS V14.00,2013-06-14 01:11:00,
2013-06-13 20:15:00,69.6,58.6,28.88,NW,316,3.1,3.1,68,0.00,,---,0.47,VWS V14.00,2013-06-14 01:15:00,
2013-06-13 20:16:00,69.6,58.6,28.88,NW,316,3.1,3.1,68,0.00,,---,0.47,VWS V14.00,2013-06-14 01:16:00,
2013-06-13 20:20:00,69.3,58.3,28.88,NW,316,3.1,3.1,68,0.00,,---,0.47,VWS V14.00,2013-06-14 01:20:00,
2013-06-13 20:21:00,69.1,58.1,28.88,NW,316,3.1,3.1,68,0.00,,---,0.47,VWS V14.00,2013-06-14 01:21:00,
2013-06-13 20:22:00,69.1,58.1,28.88,NW,316,3.1,3.1,68,0.00,,---,0.47,VWS V14.00,2013-06-14 01:22:00,
2013-06-13 20:25:00,69.1,58.1,28.88,NW,316,3.1,3.1,68,0.00,,---,0.47,VWS V14.00,2013-06-14 01:25:00,
2013-06-13 20:26:00,69.1,58.1,28.88,NW,316,3.1,3.1,68,0.00,,---,0.47,VWS V14.00,2013-06-14 01:26:00,
2013-06-13 20:27:00,69.1,58.1,28.88,NW,316,3.1,3.1,68,0.00,,---,0.47,VWS V14.00,2013-06-14 01:27:00,
2013-06-13 20:30:00,68.9,57.9,28.88,NW,316,3.1,3.1,68,0.00,,---,0.47,VWS V14.00,2013-06-14 01:30:00,
2013-06-13 20:31:00,68.9,57.9,28.88,NW,316,3.1,3.1,68,0.00,,---,0.47,VWS V14.00,2013-06-14 01:31:00,
2013-06-13 20:32:00,68.9,57.9,28.88,NW,316,3.1,3.1,68,0.00,,---,0.47,VWS V14.00,2013-06-14 01:32:00,
2013-06-13 20:36:00,68.9,57.9,28.91,NW,316,3.1,3.1,68,0.00,,---,0.47,VWS V14.00,2013-06-14 01:36:00,
2013-06-13 20:37:00,68.9,57.9,28.91,NW,316,3.1,3.1,68,0.00,,---,0.47,VWS V14.00,2013-06-14 01:37:00,
2013-06-13 20:41:00,68.7,57.7,28.91,NW,316,3.1,3.1,68,0.00,,---,0.47,VWS V14.00,2013-06-14 01:41:00,
2013-06-13 20:42:00,68.7,57.7,28.91,NW,316,3.1,3.1,68,0.00,,---,0.47,VWS V14.00,2013-06-14 01:42:00,
2013-06-13 20:46:00,68.7,57.7,28.91,NW,316,3.1,3.1,68,0.00,,---,0.47,VWS V14.00,2013-06-14 01:46:00,
2013-06-13 20:47:00,68.7,57.7,28.91,NW,316,3.1,3.1,68,0.00,,---,0.47,VWS V14.00,2013-06-14 01:47:00,
2013-06-13 20:48:00,68.7,57.7,28.91,NW,316,3.1,3.1,68,0.00,,---,0.47,VWS V14.00,2013-06-14 01:48:00,
2013-06-13 20:51:00,68.7,57.7,28.91,NW,316,3.1,3.1,68,0.00,,---,0.47,VWS V14.00,2013-06-14 01:51:00,
2013-06-13 20:52:00,68.7,57.7,28.91,NW,316,3.1,3.1,68,0.00,,---,0.47,VWS V14.00,2013-06-14 01:52:00,
2013-06-13 20:53:00,68.7,57.7,28.91,NW,316,3.1,3.1,68,0.00,,---,0.47,VWS V14.00,2013-06-14 01:53:00,
2013-06-13 20:56:00,68.4,57.4,28.91,NW,316,3.1,3.1,68,0.00,,---,0.47,VWS V14.00,2013-06-14 01:56:00,
2013-06-13 20:57:00,68.4,57.4,28.91,NW,316,3.1,3.1,68,0.00,,---,0.47,VWS V14.00,2013-06-14 01:57:00,
2013-06-13 20:58:00,68.4,57.4,28.91,NW,316,3.1,3.1,68,0.00,,---,0.47,VWS V14.00,2013-06-14 01:58:00,
2013-06-13 21:01:00,68.4,57.4,28.91,NW,316,3.1,3.1,68,0.00,,---,0.47,VWS V14.00,2013-06-14 02:01:00,
2013-06-13 21:02:00,68.4,57.4,28.91,NW,316,3.1,3.1,68,0.00,,---,0.47,VWS V14.00,2013-06-14 02:02:00,
2013-06-13 21:03:00,68.0,57.1,28.91,NW,316,3.1,3.1,68,0.00,,---,0.47,VWS V14.00,2013-06-14 02:03:00,
2013-06-13 21:07:00,68.0,57.1,28.91,NW,316,3.1,3.1,68,0.00,,---,0.47,VWS V14.00,2013-06-14 02:07:00,
2013-06-13 21:08:00,68.0,57.1,28.91,NW,316,3.1,3.1,68,0.00,,---,0.47,VWS V14.00,2013-06-14 02:08:00,
2013-06-13 21:12:00,67.8,56.9,28.91,NW,316,3.1,3.1,68,0.00,,---,0.47,VWS V14.00,2013-06-14 02:12:00,
2013-06-13 21:13:00,67.8,56.9,28.91,NW,316,3.1,3.1,68,0.00,,---,0.47,VWS V14.00,2013-06-14 02:13:00,
2013-06-13 21:17:00,67.8,56.9,28.91,NW,316,3.1,3.1,68,0.00,,---,0.47,VWS V14.00,2013-06-14 02:17:00,
2013-06-13 21:18:00,67.8,56.9,28.91,NW,316,3.1,3.1,68,0.00,,---,0.47,VWS V14.00,2013-06-14 02:18:00,
2013-06-13 21:22:00,67.8,56.9,28.91,NW,316,3.1,3.1,68,0.00,,---,0.47,VWS V14.00,2013-06-14 02:22:00,
2013-06-13 21:23:00,67.8,56.9,28.91,NW,316,3.1,3.1,68,0.00,,---,0.47,VWS V14.00,2013-06-14 02:23:00,
2013-06-13 21:27:00,67.8,56.9,28.94,NW,316,3.1,3.1,68,0.00,,---,0.47,VWS V14.00,2013-06-14 02:27:00,
2013-06-13 21:28:00,67.3,56.4,28.94,NW,316,3.1,3.1,68,0.00,,---,0.47,VWS V14.00,2013-06-14 02:28:00,
2013-06-13 21:32:00,67.3,56.4,28.94,NW,316,3.1,3.1,68,0.00,,---,0.47,VWS V14.00,2013-06-14 02:32:00,
2013-06-13 21:33:00,67.3,56.4,28.94,NW,316,3.1,3.1,68,0.00,,---,0.47,VWS V14.00,2013-06-14 02:33:00,
2013-06-13 21:34:00,67.3,56.4,28.94,NW,316,3.1,3.1,68,0.00,,---,0.47,VWS V14.00,2013-06-14 02:34:00,
2013-06-13 21:37:00,66.9,56.0,28.94,NW,316,3.1,3.1,68,0.00,,---,0.47,VWS V14.00,2013-06-14 02:37:00,
2013-06-13 21:38:00,66.9,56.0,28.94,NW,316,3.1,3.1,68,0.00,,---,0.47,VWS V14.00,2013-06-14 02:38:00,
2013-06-13 21:39:00,66.9,56.0,28.94,NW,316,3.1,3.1,68,0.00,,---,0.47,VWS V14.00,2013-06-14 02:39:00,
2013-06-13 21:42:00,66.9,56.0,28.94,NW,316,3.1,3.1,68,0.00,,---,0.47,VWS V14.00,2013-06-14 02:42:00,
2013-06-13 21:43:00,66.9,56.0,28.94,NW,316,3.1,3.1,68,0.00,,---,0.47,VWS V14.00,2013-06-14 02:43:00,
2013-06-13 21:44:00,66.9,56.0,28.94,NW,316,3.1,3.1,68,0.00,,---,0.47,VWS V14.00,2013-06-14 02:44:00,
2013-06-13 21:48:00,66.7,55.8,28.94,NW,316,3.1,3.1,68,0.00,,---,0.47,VWS V14.00,2013-06-14 02:48:00,
2013-06-13 21:49:00,66.7,55.8,28.94,NW,316,3.1,3.1,68,0.00,,---,0.47,VWS V14.00,2013-06-14 02:49:00,
2013-06-13 21:53:00,66.7,55.8,28.94,NW,316,3.1,3.1,68,0.00,,---,0.47,VWS V14.00,2013-06-14 02:53:00,
2013-06-13 21:54:00,66.6,55.7,28.94,NW,316,3.1,3.1,68,0.00,,---,0.47,VWS V14.00,2013-06-14 02:54:00,
2013-06-13 21:58:00,66.6,55.7,28.94,NW,316,3.1,3.1,68,0.00,,---,0.47,VWS V14.00,2013-06-14 02:58:00,
2013-06-13 21:59:00,66.6,55.7,28.94,NW,316,3.1,3.1,68,0.00,,---,0.47,VWS V14.00,2013-06-14 02:59:00,
2013-06-13 22:00:00,66.6,55.7,28.94,NW,316,3.1,3.1,68,0.00,,---,0.47,VWS V14.00,2013-06-14 03:00:00,
2013-06-13 22:03:00,66.4,55.5,28.94,NW,316,3.1,3.1,68,0.00,,---,0.47,VWS V14.00,2013-06-14 03:03:00,
2013-06-13 22:04:00,66.4,55.5,28.94,NW,316,3.1,3.1,68,0.00,,---,0.47,VWS V14.00,2013-06-14 03:04:00,
2013-06-13 22:05:00,66.4,55.5,28.94,NW,316,3.1,3.1,68,0.00,,---,0.47,VWS V14.00,2013-06-14 03:05:00,
2013-06-13 22:08:00,66.4,55.5,28.94,NW,316,3.1,3.1,68,0.00,,---,0.47,VWS V14.00,2013-06-14 03:08:00,
2013-06-13 22:09:00,66.4,55.5,28.94,NW,316,3.1,3.1,68,0.00,,---,0.47,VWS V14.00,2013-06-14 03:09:00,
2013-06-13 22:10:00,66.4,55.5,28.94,NW,316,3.1,3.1,68,0.00,,---,0.47,VWS V14.00,2013-06-14 03:10:00,
2013-06-13 22:13:00,65.8,56.6,28.94,NW,316,3.1,3.1,72,0.00,,---,0.47,VWS V14.00,2013-06-14 03:13:00,
2013-06-13 22:14:00,65.8,56.6,28.94,NW,316,3.1,3.1,72,0.00,,---,0.47,VWS V14.00,2013-06-14 03:14:00,
2013-06-13 22:15:00,65.8,56.6,28.94,NW,316,3.1,3.1,72,0.00,,---,0.47,VWS V14.00,2013-06-14 03:15:00,
2013-06-13 22:18:00,65.8,56.6,28.94,NW,316,3.1,3.1,72,0.00,,---,0.47,VWS V14.00,2013-06-14 03:18:00,
2013-06-13 22:19:00,65.8,56.6,28.94,NW,316,3.1,3.1,72,0.00,,---,0.47,VWS V14.00,2013-06-14 03:19:00,
2013-06-13 22:20:00,65.7,56.4,28.94,NW,316,3.1,3.1,72,0.00,,---,0.47,VWS V14.00,2013-06-14 03:20:00,
2013-06-13 22:23:00,65.5,56.2,28.94,NW,316,3.1,3.1,72,0.00,,---,0.47,VWS V14.00,2013-06-14 03:23:00,
2013-06-13 22:24:00,65.5,56.2,28.94,NW,316,3.1,3.1,72,0.00,,---,0.47,VWS V14.00,2013-06-14 03:24:00,
2013-06-13 22:25:00,65.5,56.2,28.94,NW,316,3.1,3.1,72,0.00,,---,0.47,VWS V14.00,2013-06-14 03:25:00,
2013-06-13 22:26:00,65.5,56.2,28.94,NW,316,3.1,3.1,72,0.00,,---,0.47,VWS V14.00,2013-06-14 03:26:00,
2013-06-13 22:28:00,65.5,56.2,28.94,NW,316,3.1,3.1,72,0.00,,---,0.47,VWS V14.00,2013-06-14 03:28:00,
2013-06-13 22:29:00,65.1,55.9,28.94,NW,316,3.1,3.1,72,0.00,,---,0.47,VWS V14.00,2013-06-14 03:29:00,
2013-06-13 22:30:00,65.1,55.9,28.94,NW,316,3.1,3.1,72,0.00,,---,0.47,VWS V14.00,2013-06-14 03:30:00,
2013-06-13 22:31:00,65.1,55.9,28.94,NW,316,3.1,3.1,72,0.00,,---,0.47,VWS V14.00,2013-06-14 03:31:00,
2013-06-13 22:33:00,65.1,55.9,28.94,NW,316,3.1,3.1,72,0.00,,---,0.47,VWS V14.00,2013-06-14 03:33:00,
2013-06-13 22:34:00,65.1,55.9,28.94,NW,316,3.1,3.1,72,0.00,,---,0.47,VWS V14.00,2013-06-14 03:34:00,
2013-06-13 22:35:00,65.1,55.9,28.94,NW,316,3.1,3.1,72,0.00,,---,0.47,VWS V14.00,2013-06-14 03:35:00,
2013-06-13 22:36:00,65.1,55.9,28.94,NW,316,3.1,3.1,72,0.00,,---,0.47,VWS V14.00,2013-06-14 03:36:00,
2013-06-13 22:38:00,65.1,55.9,28.94,NW,316,3.1,3.1,72,0.00,,---,0.47,VWS V14.00,2013-06-14 03:38:00,
2013-06-13 22:39:00,65.1,55.9,28.94,NW,316,3.1,3.1,72,0.00,,---,0.47,VWS V14.00,2013-06-14 03:39:00,
2013-06-13 22:40:00,65.1,55.9,28.94,NW,316,3.1,3.1,72,0.00,,---,0.47,VWS V14.00,2013-06-14 03:40:00,
2013-06-13 22:41:00,65.1,55.9,28.94,NW,316,3.1,3.1,72,0.00,,---,0.47,VWS V14.00,2013-06-14 03:41:00,
2013-06-13 22:42:00,65.1,55.9,28.94,NW,316,3.1,3.1,72,0.00,,---,0.47,VWS V14.00,2013-06-14 03:42:00,
2013-06-13 22:43:00,65.1,55.9,28.94,NW,316,3.1,3.1,72,0.00,,---,0.47,VWS V14.00,2013-06-14 03:43:00,
2013-06-13 22:44:00,65.1,55.9,28.94,NW,316,3.1,3.1,72,0.00,,---,0.47,VWS V14.00,2013-06-14 03:44:00,
2013-06-13 22:45:00,64.8,55.5,28.94,NW,316,3.1,3.1,72,0.00,,---,0.47,VWS V14.00,2013-06-14 03:45:00,
2013-06-13 22:46:00,64.8,55.5,28.94,NW,316,3.1,3.1,72,0.00,,---,0.47,VWS V14.00,2013-06-14 03:46:00,
2013-06-13 22:47:00,64.8,55.5,28.94,NW,316,3.1,3.1,72,0.00,,---,0.47,VWS V14.00,2013-06-14 03:47:00,
2013-06-13 22:48:00,64.8,55.5,28.94,NW,316,3.1,3.1,72,0.00,,---,0.47,VWS V14.00,2013-06-14 03:48:00,
2013-06-13 22:49:00,64.8,55.5,28.94,NW,316,3.1,3.1,72,0.00,,---,0.47,VWS V14.00,2013-06-14 03:49:00,
2013-06-13 22:50:00,64.8,55.5,28.94,NW,316,3.1,3.1,72,0.00,,---,0.47,VWS V14.00,2013-06-14 03:50:00,
2013-06-13 22:51:00,64.8,55.5,28.94,NW,316,3.1,3.1,72,0.00,,---,0.47,VWS V14.00,2013-06-14 03:51:00,
2013-06-13 22:52:00,64.8,55.5,28.94,NW,316,3.1,3.1,72,0.00,,---,0.47,VWS V14.00,2013-06-14 03:52:00,
2013-06-13 22:54:00,64.6,55.4,28.94,NW,316,3.1,3.1,72,0.00,,---,0.47,VWS V14.00,2013-06-14 03:54:00,
2013-06-13 22:55:00,64.4,55.2,28.94,NW,316,3.1,3.1,72,0.00,,---,0.47,VWS V14.00,2013-06-14 03:55:00,
2013-06-13 22:56:00,64.4,55.2,28.94,NW,316,3.1,3.1,72,0.00,,---,0.47,VWS V14.00,2013-06-14 03:56:00,
2013-06-13 22:57:00,64.4,55.2,28.94,NW,316,3.1,3.1,72,0.00,,---,0.47,VWS V14.00,2013-06-14 03:57:00,
2013-06-13 22:59:00,64.4,55.2,28.94,NW,316,3.1,3.1,72,0.00,,---,0.47,VWS V14.00,2013-06-14 03:59:00,
2013-06-13 23:00:00,64.4,55.2,28.94,NW,316,3.1,3.1,72,0.00,,---,0.00,VWS V14.00,2013-06-14 04:00:00,
2013-06-13 23:01:00,64.4,55.2,28.94,NW,316,3.1,3.1,72,0.00,,---,0.00,VWS V14.00,2013-06-14 04:01:00,
2013-06-13 23:02:00,64.4,55.2,28.94,NW,316,3.1,3.1,72,0.00,,---,0.00,VWS V14.00,2013-06-14 04:02:00,
2013-06-13 23:03:00,64.4,55.2,28.94,NW,316,3.1,3.1,72,0.00,,---,0.00,VWS V14.00,2013-06-14 04:03:00,
2013-06-13 23:04:00,64.2,55.0,28.94,NW,316,3.1,3.1,72,0.00,,---,0.00,VWS V14.00,2013-06-14 04:04:00,
2013-06-13 23:05:00,64.2,55.0,28.94,NW,316,3.1,3.1,72,0.00,,---,0.00,VWS V14.00,2013-06-14 04:05:00,
2013-06-13 23:06:00,64.2,55.0,28.94,NW,316,3.1,3.1,72,0.00,,---,0.00,VWS V14.00,2013-06-14 04:06:00,
2013-06-13 23:07:00,64.2,55.0,28.94,NW,316,3.1,3.1,72,0.00,,---,0.00,VWS V14.00,2013-06-14 04:07:00,
2013-06-13 23:08:00,64.2,55.0,28.94,NW,316,3.1,3.1,72,0.00,,---,0.00,VWS V14.00,2013-06-14 04:08:00,
2013-06-13 23:09:00,64.0,54.8,28.94,NW,316,3.1,3.1,72,0.00,,---,0.00,VWS V14.00,2013-06-14 04:09:00,
2013-06-13 23:10:00,63.9,54.7,28.94,NW,316,3.1,3.1,72,0.00,,---,0.00,VWS V14.00,2013-06-14 04:10:00,
2013-06-13 23:11:00,63.9,54.7,28.94,NW,316,3.1,3.1,72,0.00,,---,0.00,VWS V14.00,2013-06-14 04:11:00,
2013-06-13 23:12:00,63.9,54.7,28.94,NW,316,3.1,3.1,72,0.00,,---,0.00,VWS V14.00,2013-06-14 04:12:00,
2013-06-13 23:13:00,63.9,54.7,28.94,NW,316,3.1,3.1,72,0.00,,---,0.00,VWS V14.00,2013-06-14 04:13:00,
2013-06-13 23:14:00,63.9,54.7,28.94,NW,316,3.1,3.1,72,0.00,,---,0.00,VWS V14.00,2013-06-14 04:14:00,
2013-06-13 23:15:00,63.9,54.7,28.94,NW,316,3.1,3.1,72,0.00,,---,0.00,VWS V14.00,2013-06-14 04:15:00,
2013-06-13 23:16:00,63.9,54.7,28.94,NW,316,3.1,3.1,72,0.00,,---,0.00,VWS V14.00,2013-06-14 04:16:00,
2013-06-13 23:17:00,63.9,54.7,28.94,NW,316,3.1,3.1,72,0.00,,---,0.00,VWS V14.00,2013-06-14 04:17:00,
2013-06-13 23:18:00,63.9,54.7,28.94,NW,316,3.1,3.1,72,0.00,,---,0.00,VWS V14.00,2013-06-14 04:18:00,
2013-06-13 23:19:00,63.9,54.7,28.94,NW,316,3.1,3.1,72,0.00,,---,0.00,VWS V14.00,2013-06-14 04:19:00,
2013-06-13 23:20:00,63.9,54.7,28.94,NW,316,3.1,3.1,72,0.00,,---,0.00,VWS V14.00,2013-06-14 04:20:00,
2013-06-13 23:21:00,63.7,54.5,28.94,NW,316,3.1,3.1,72,0.00,,---,0.00,VWS V14.00,2013-06-14 04:21:00,
2013-06-13 23:22:00,63.7,54.5,28.94,NW,316,3.1,3.1,72,0.00,,---,0.00,VWS V14.00,2013-06-14 04:22:00,
2013-06-13 23:23:00,63.7,54.5,28.94,NW,316,3.1,3.1,72,0.00,,---,0.00,VWS V14.00,2013-06-14 04:23:00,
2013-06-13 23:24:00,63.7,54.5,28.94,NW,316,3.1,3.1,72,0.00,,---,0.00,VWS V14.00,2013-06-14 04:24:00,
2013-06-13 23:25:00,63.7,54.5,28.94,NW,316,3.1,3.1,72,0.00,,---,0.00,VWS V14.00,2013-06-14 04:25:00,
2013-06-13 23:26:00,63.7,54.5,28.94,NW,316,3.1,3.1,72,0.00,,---,0.00,VWS V14.00,2013-06-14 04:26:00,
2013-06-13 23:27:00,63.7,54.5,28.94,NW,316,3.1,3.1,72,0.00,,---,0.00,VWS V14.00,2013-06-14 04:27:00,
2013-06-13 23:28:00,63.7,54.5,28.94,NW,316,3.1,3.1,72,0.00,,---,0.00,VWS V14.00,2013-06-14 04:28:00,
2013-06-13 23:29:00,63.7,54.5,28.94,NW,316,3.1,3.1,72,0.00,,---,0.00,VWS V14.00,2013-06-14 04:29:00,
2013-06-13 23:30:00,63.3,54.2,28.94,NW,316,3.1,3.1,72,0.00,,---,0.00,VWS V14.00,2013-06-14 04:30:00,
2013-06-13 23:31:00,63.1,54.0,28.94,NW,316,3.1,3.1,72,0.00,,---,0.00,VWS V14.00,2013-06-14 04:31:00,
2013-06-13 23:32:00,63.1,54.0,28.94,NW,316,3.1,3.1,72,0.00,,---,0.00,VWS V14.00,2013-06-14 04:32:00,
2013-06-13 23:33:00,63.1,54.0,28.94,NW,316,3.1,3.1,72,0.00,,---,0.00,VWS V14.00,2013-06-14 04:33:00,
2013-06-13 23:34:00,63.1,54.0,28.94,NW,316,3.1,3.1,72,0.00,,---,0.00,VWS V14.00,2013-06-14 04:34:00,
2013-06-13 23:35:00,63.1,54.0,28.94,NW,316,3.1,3.1,72,0.00,,---,0.00,VWS V14.00,2013-06-14 04:35:00,
2013-06-13 23:36:00,63.1,54.0,28.94,NW,316,3.1,3.1,72,0.00,,---,0.00,VWS V14.00,2013-06-14 04:36:00,
2013-06-13 23:37:00,63.1,54.0,28.94,NW,316,3.1,3.1,72,0.00,,---,0.00,VWS V14.00,2013-06-14 04:37:00,
2013-06-13 23:38:00,63.0,53.8,28.94,NW,316,3.1,3.1,72,0.00,,---,0.00,VWS V14.00,2013-06-14 04:38:00,
2013-06-13 23:39:00,63.0,53.8,28.94,NW,316,3.1,3.1,72,0.00,,---,0.00,VWS V14.00,2013-06-14 04:39:00,
2013-06-13 23:40:00,63.0,53.8,28.94,NW,316,3.1,3.1,72,0.00,,---,0.00,VWS V14.00,2013-06-14 04:40:00,
2013-06-13 23:41:00,63.0,53.8,28.94,NW,316,3.1,3.1,72,0.00,,---,0.00,VWS V14.00,2013-06-14 04:41:00,
2013-06-13 23:42:00,63.0,53.8,28.94,NW,316,3.1,3.1,72,0.00,,---,0.00,VWS V14.00,2013-06-14 04:42:00,
2013-06-13 23:43:00,63.0,53.8,28.94,NW,316,3.1,3.1,72,0.00,,---,0.00,VWS V14.00,2013-06-14 04:43:00,
2013-06-13 23:44:00,63.0,53.8,28.94,NW,316,3.1,3.1,72,0.00,,---,0.00,VWS V14.00,2013-06-14 04:44:00,
2013-06-13 23:45:00,63.0,53.8,28.94,NW,316,3.1,3.1,72,0.00,,---,0.00,VWS V14.00,2013-06-14 04:45:00,
2013-06-13 23:46:00,63.0,53.8,28.94,NW,316,3.1,3.1,72,0.00,,---,0.00,VWS V14.00,2013-06-14 04:46:00,
2013-06-13 23:47:00,62.8,57.9,28.94,NW,316,3.1,3.1,84,0.00,,---,0.00,VWS V14.00,2013-06-14 04:47:00,
2013-06-13 23:48:00,62.8,57.9,28.94,NW,316,3.1,3.1,84,0.00,,---,0.00,VWS V14.00,2013-06-14 04:48:00,
2013-06-13 23:49:00,62.8,57.9,28.94,NW,316,3.1,3.1,84,0.00,,---,0.00,VWS V14.00,2013-06-14 04:49:00,
2013-06-13 23:50:00,62.8,57.9,28.94,NW,316,3.1,3.1,84,0.00,,---,0.00,VWS V14.00,2013-06-14 04:50:00,
2013-06-13 23:51:00,62.8,57.9,28.94,NW,316,3.1,3.1,84,0.00,,---,0.00,VWS V14.00,2013-06-14 04:51:00,
2013-06-13 23:52:00,62.8,53.6,28.94,NW,316,3.1,3.1,72,0.00,,---,0.00,VWS V14.00,2013-06-14 04:52:00,
2013-06-13 23:53:00,62.8,53.6,28.94,NW,316,3.1,3.1,72,0.00,,---,0.00,VWS V14.00,2013-06-14 04:53:00,
2013-06-13 23:54:00,62.8,53.6,28.94,NW,316,3.1,3.1,72,0.00,,---,0.00,VWS V14.00,2013-06-14 04:54:00,
2013-06-13 23:55:00,62.6,57.7,28.94,NW,316,3.1,3.1,84,0.00,,---,0.00,VWS V14.00,2013-06-14 04:55:00,
2013-06-13 23:56:00,62.6,57.7,28.94,NW,316,3.1,3.1,84,0.00,,---,0.00,VWS V14.00,2013-06-14 04:56:00,
2013-06-13 23:57:00,62.6,57.7,28.94,NW,316,3.1,3.1,84,0.00,,---,0.00,VWS V14.00,2013-06-14 04:57:00,
2013-06-13 23:58:00,62.6,57.7,28.94,NW,316,3.1,3.1,84,0.00,,---,0.00,VWS V14.00,2013-06-14 04:58:00,
2013-06-13 23:59:00,62.6,57.7,28.94,NW,316,3.1,3.1,84,0.00,,---,0.00,VWS V14.00,2013-06-14 04:59:00,